Darstellungsparameter: Aktuell verwendete Einstellungen:
Skalierung der Graphiken ... ?
xyx+y,   Skalierungsfaktor:      Skalierung: Modus: x, Faktor: 1
Darstellungszeitraum ... ?
Vom - - bis: - -   Zeitraum: 27.11.2009 - 26.12.2009
Min/Max/Avg-Anzeige ... ?
Zeige MMA aktuell
Zeige MMA Monat
Zeige MMA alles
Zeige --A aktuell
Zeige --A Monat
Zeige --A alles
Keine MMA-Anzeige
MMA:
Average (ber die Originaldaten)
MMA-Basis: 27.11.2009 - 26.12.2009
Quicknavigation für Darstellung... ?
Tage:      1T, 2T, 3T, 5T -1T -2T -3T -5T +1T +2T +3T +5T
Wochen: 1W, 2W, 3W -1W -2W -3W +1W +2W +3W
Monate: 1M, 3M, 6M -1M -3M -6M +1M +3M +6M
Jahre:    1J, 3J, 5J, 10J -1J -3J -5J -10J +1J +3J +5J +10J
Nutze für die Darstellung ... ?
Originaldaten oder Mittelwerte auf ...
Stundenbasis Tagesbasis Wochenbasis
Monatsbasis Jahresbasis      Datenbasis: Original-Daten
Darstellen als:
Statistik (Auto) Statistik J:M      Darstellung:
Zur Graphik,    zurück zur Übersicht aller Sensoren.
 
Tabellarische Datenbersicht: ?
 
Sensor: Nr:Datum:Temp:Abs-Feuchte:Windchill:Wind:
Aussen-T/F 1 27-11-2009 00:09:01 10.4 C 5.88 g/m*3 10.4 C 0 km/h
2 27-11-2009 00:21:01 10.6 C 5.86 g/m*3 10.6 C 0 km/h
3 27-11-2009 00:33:01 10.8 C 5.73 g/m*3 10.8 C 0 km/h
4 27-11-2009 00:45:01 10.8 C 5.73 g/m*3 10.8 C 0 km/h
5 27-11-2009 00:57:02 10.7 C 5.89 g/m*3 10.7 C 0 km/h
6 27-11-2009 01:09:02 10.4 C 6.07 g/m*3 10.4 C 0 km/h
7 27-11-2009 01:21:02 10.7 C 5.99 g/m*3 10.7 C 0 km/h
8 27-11-2009 01:33:02 10.8 C 5.93 g/m*3 10.8 C 0 km/h
9 27-11-2009 01:45:02 10.9 C 5.87 g/m*3 10.9 C 0 km/h
10 27-11-2009 01:57:02 11 C 5.81 g/m*3 11 C 0 km/h
11 27-11-2009 02:09:02 11 C 5.71 g/m*3 11 C 0 km/h
12 27-11-2009 02:21:02 10.9 C 5.87 g/m*3 10.9 C 0 km/h
13 27-11-2009 02:33:02 11 C 5.71 g/m*3 11 C 0 km/h
14 27-11-2009 02:45:02 10.9 C 5.77 g/m*3 10.9 C 0 km/h
15 27-11-2009 02:57:02 11 C 5.51 g/m*3 11 C 0 km/h
16 27-11-2009 03:09:02 10.9 C 5.57 g/m*3 10.9 C 0 km/h
17 27-11-2009 03:21:02 10.9 C 5.57 g/m*3 10.9 C 0 km/h
18 27-11-2009 03:33:02 10.9 C 5.67 g/m*3 10.9 C 0 km/h
19 27-11-2009 03:45:02 10.8 C 5.63 g/m*3 10.8 C 0 km/h
20 27-11-2009 03:57:02 10.5 C 5.72 g/m*3 10.5 C 0 km/h
21 27-11-2009 04:09:02 10.1 C 5.86 g/m*3 10.1 C 0 km/h
22 27-11-2009 04:21:02 9.8 C 5.94 g/m*3 9.8 C 0 km/h
23 27-11-2009 04:33:02 9.3 C 5.84 g/m*3 9.3 C 0 km/h
24 27-11-2009 04:45:03 9.1 C 6.03 g/m*3 9.1 C 0 km/h
25 27-11-2009 04:57:03 8.9 C 6.22 g/m*3 8.9 C 0 km/h
Sensor: Nr:Datum:Temp:Abs-Feuchte:Windchill:Wind:
Aussen-T/F 26 27-11-2009 05:09:03 9 C 6.08 g/m*3 9 C 0 km/h
27 27-11-2009 05:21:03 9.1 C 6.03 g/m*3 9.1 C 0 km/h
28 27-11-2009 05:33:03 9.1 C 6.03 g/m*3 9.1 C 0 km/h
29 27-11-2009 05:45:03 9.1 C 6.12 g/m*3 9.1 C 0 km/h
30 27-11-2009 05:57:03 8.9 C 6.22 g/m*3 8.9 C 0 km/h
31 27-11-2009 06:09:03 8.5 C 6.32 g/m*3 8.5 C 0 km/h
32 27-11-2009 06:21:03 8.3 C 6.66 g/m*3 8.3 C 0 km/h
33 27-11-2009 06:33:03 8.2 C 6.78 g/m*3 8.2 C 0 km/h
34 27-11-2009 06:45:03 8.1 C 6.66 g/m*3 8.1 C 0 km/h
35 27-11-2009 06:57:03 7.9 C 6.74 g/m*3 7.9 C 0 km/h
36 27-11-2009 07:09:02 7.7 C 6.73 g/m*3 7.7 C 0 km/h
37 27-11-2009 07:21:01 7.5 C 6.72 g/m*3 7.5 C 0 km/h
38 27-11-2009 07:33:01 7.4 C 6.84 g/m*3 7.4 C 0 km/h
39 27-11-2009 07:45:01 7.5 C 6.96 g/m*3 7.5 C 0 km/h
40 27-11-2009 07:57:01 7.5 C 7.04 g/m*3 7.5 C 0 km/h
41 27-11-2009 08:09:02 7.6 C 6.93 g/m*3 7.6 C 0 km/h
42 27-11-2009 08:21:01 8.2 C 6.7 g/m*3 8.2 C 0 km/h
43 27-11-2009 08:33:02 8.2 C 6.36 g/m*3 8.2 C 0 km/h
44 27-11-2009 08:45:01 8.4 C 6.02 g/m*3 8.4 C 0 km/h
45 27-11-2009 08:57:01 8.4 C 5.85 g/m*3 8.4 C 0 km/h
46 27-11-2009 09:09:02 8.3 C 5.82 g/m*3 8.3 C 0 km/h
47 27-11-2009 09:21:02 8.5 C 5.72 g/m*3 8.5 C 0 km/h
48 27-11-2009 09:33:02 8.6 C 5.67 g/m*3 8.6 C 0 km/h
49 27-11-2009 09:45:02 8.8 C 5.57 g/m*3 8.8 C 0 km/h
50 27-11-2009 09:57:02 8.7 C 5.53 g/m*3 8.7 C 0 km/h
Sensor: Nr:Datum:Temp:Abs-Feuchte:Windchill:Wind:
Aussen-T/F 51 27-11-2009 10:09:02 8.8 C 5.57 g/m*3 8.8 C 0 km/h
52 27-11-2009 10:21:01 9 C 5.55 g/m*3 9 C 0 km/h
53 27-11-2009 10:33:01 9.1 C 5.59 g/m*3 9.1 C 0 km/h
54 27-11-2009 10:45:01 9.2 C 5.54 g/m*3 9.2 C 0 km/h
55 27-11-2009 10:57:01 9.2 C 5.54 g/m*3 9.2 C 0 km/h
56 27-11-2009 11:09:02 9.4 C 5.61 g/m*3 9.4 C 0 km/h
57 27-11-2009 11:21:02 9.3 C 5.57 g/m*3 9.3 C 0 km/h
58 27-11-2009 11:33:01 9.4 C 5.52 g/m*3 9.4 C 0 km/h
59 27-11-2009 11:45:02 9.5 C 5.46 g/m*3 9.5 C 0 km/h
60 27-11-2009 11:57:02 9.6 C 5.4 g/m*3 9.6 C 0 km/h
61 27-11-2009 12:09:01 9.3 C 5.3 g/m*3 9.3 C 0 km/h
62 27-11-2009 12:21:02 9.1 C 5.32 g/m*3 9.1 C 0 km/h
63 27-11-2009 12:33:01 9 C 5.47 g/m*3 9 C 0 km/h
64 27-11-2009 12:45:03 9.2 C 5.54 g/m*3 9.2 C 0 km/h
65 27-11-2009 12:57:03 9.5 C 5.55 g/m*3 9.5 C 0 km/h
66 27-11-2009 13:09:02 9.8 C 5.57 g/m*3 9.8 C 0 km/h
67 27-11-2009 13:21:02 10 C 5.26 g/m*3 10 C 0 km/h
68 27-11-2009 13:33:02 10 C 5.17 g/m*3 10 C 0 km/h
69 27-11-2009 13:45:02 9.8 C 5.2 g/m*3 9.8 C 0 km/h
70 27-11-2009 13:57:02 9.6 C 5.13 g/m*3 9.6 C 0 km/h
71 27-11-2009 14:09:02 9.7 C 5.07 g/m*3 9.7 C 0 km/h
72 27-11-2009 14:21:02 9.8 C 5.01 g/m*3 9.8 C 0 km/h
73 27-11-2009 14:33:01 9.8 C 5.01 g/m*3 9.8 C 0 km/h
74 27-11-2009 14:45:02 9.8 C 4.92 g/m*3 9.8 C 0 km/h
75 27-11-2009 14:57:02 9.7 C 4.98 g/m*3 9.7 C 0 km/h
Sensor: Nr:Datum:Temp:Abs-Feuchte:Windchill:Wind:
Aussen-T/F 76 27-11-2009 15:09:01 9.8 C 5.01 g/m*3 9.8 C 0 km/h
77 27-11-2009 15:21:02 9.6 C 4.95 g/m*3 9.6 C 0 km/h
78 27-11-2009 15:33:02 9.3 C 5.12 g/m*3 9.3 C 0 km/h
79 27-11-2009 15:45:02 9.1 C 5.23 g/m*3 9.1 C 0 km/h
80 27-11-2009 15:57:02 9 C 5.38 g/m*3 9 C 0 km/h
81 27-11-2009 16:09:02 8.8 C 5.48 g/m*3 8.8 C 0 km/h
82 27-11-2009 16:21:01 8.7 C 5.45 g/m*3 8.7 C 0 km/h
83 27-11-2009 16:33:02 8.5 C 5.29 g/m*3 8.5 C 0 km/h
84 27-11-2009 16:45:01 8.6 C 5.16 g/m*3 8.6 C 0 km/h
85 27-11-2009 16:57:01 8.4 C 5.09 g/m*3 8.4 C 0 km/h
86 27-11-2009 17:09:02 8.5 C 4.95 g/m*3 8.5 C 0 km/h
87 27-11-2009 17:21:01 8.4 C 4.92 g/m*3 8.4 C 0 km/h
88 27-11-2009 17:33:02 8.3 C 4.89 g/m*3 8.3 C 0 km/h
89 27-11-2009 17:45:01 8.4 C 4.92 g/m*3 8.4 C 0 km/h
90 27-11-2009 17:57:01 8.4 C 4.92 g/m*3 8.4 C 0 km/h
91 27-11-2009 18:09:02 8.4 C 5.01 g/m*3 8.4 C 0 km/h
92 27-11-2009 18:21:02 8.5 C 4.95 g/m*3 8.5 C 0 km/h
93 27-11-2009 18:33:02 8.5 C 4.87 g/m*3 8.5 C 0 km/h
94 27-11-2009 18:45:01 8.4 C 4.84 g/m*3 8.4 C 0 km/h
95 27-11-2009 18:57:01 8.4 C 4.92 g/m*3 8.4 C 0 km/h
96 27-11-2009 19:09:02 8.9 C 4.82 g/m*3 8.9 C 0 km/h
97 27-11-2009 19:21:02 8.7 C 5.02 g/m*3 8.7 C 0 km/h
98 27-11-2009 19:33:01 8.3 C 5.14 g/m*3 8.3 C 0 km/h
99 27-11-2009 19:45:02 8.2 C 5.11 g/m*3 8.2 C 0 km/h
100 27-11-2009 19:57:02 8.2 C 5.11 g/m*3 8.2 C 0 km/h
Sensor: Nr:Datum:Temp:Abs-Feuchte:Windchill:Wind:
Aussen-T/F 101 27-11-2009 20:09:01 8.3 C 5.14 g/m*3 8.3 C 0 km/h
102 27-11-2009 20:21:02 8.2 C 5.11 g/m*3 8.2 C 0 km/h
103 27-11-2009 20:33:01 8.2 C 5.11 g/m*3 8.2 C 0 km/h
104 27-11-2009 20:45:02 8.2 C 5.11 g/m*3 8.2 C 0 km/h
105 27-11-2009 20:57:02 8.1 C 5.08 g/m*3 8.1 C 0 km/h
106 27-11-2009 21:09:01 8.1 C 5.16 g/m*3 8.1 C 0 km/h
107 27-11-2009 21:21:01 8.3 C 5.23 g/m*3 8.3 C 0 km/h
108 27-11-2009 21:33:02 8.3 C 5.14 g/m*3 8.3 C 0 km/h
109 27-11-2009 21:45:02 8.1 C 5.08 g/m*3 8.1 C 0 km/h
110 27-11-2009 21:57:03 8 C 5.04 g/m*3 8 C 0 km/h
111 27-11-2009 22:09:02 8 C 5.04 g/m*3 8 C 0 km/h
112 27-11-2009 22:21:02 8.1 C 5.08 g/m*3 8.1 C 0 km/h
113 27-11-2009 22:34:04 8 C 5.13 g/m*3 8 C 0 km/h
114 27-11-2009 22:46:04 8.1 C 5.24 g/m*3 8.1 C 0 km/h
115 27-11-2009 22:58:04 8 C 5.29 g/m*3 8 C 0 km/h
116 27-11-2009 23:10:04 7.9 C 5.59 g/m*3 7.9 C 0 km/h
117 27-11-2009 23:22:04 7.8 C 5.55 g/m*3 7.8 C 0 km/h
118 27-11-2009 23:34:04 7.9 C 5.5 g/m*3 7.9 C 0 km/h
119 27-11-2009 23:46:04 8 C 5.37 g/m*3 8 C 0 km/h
120 27-11-2009 23:58:04 8 C 5.29 g/m*3 8 C 0 km/h
121 28-11-2009 00:10:04 7.9 C 5.26 g/m*3 7.9 C 0 km/h
122 28-11-2009 00:22:04 8 C 5.21 g/m*3 8 C 0 km/h
123 28-11-2009 00:34:04 8.1 C 5.16 g/m*3 8.1 C 0 km/h
124 28-11-2009 00:46:04 8 C 5.37 g/m*3 8 C 0 km/h
125 28-11-2009 00:58:05 7.3 C 5.69 g/m*3 7.3 C 0 km/h
Sensor: Nr:Datum:Temp:Abs-Feuchte:Windchill:Wind:
Aussen-T/F 126 28-11-2009 01:10:05 7 C 5.81 g/m*3 7 C 0 km/h
127 28-11-2009 01:22:05 7.4 C 5.88 g/m*3 7.4 C 0 km/h
128 28-11-2009 01:34:05 7.3 C 5.93 g/m*3 7.3 C 0 km/h
129 28-11-2009 01:46:05 7.4 C 5.88 g/m*3 7.4 C 0 km/h
130 28-11-2009 01:58:05 7.6 C 5.72 g/m*3 7.6 C 0 km/h
131 28-11-2009 02:10:05 7.6 C 5.56 g/m*3 7.6 C 0 km/h
132 28-11-2009 02:22:05 7.5 C 5.6 g/m*3 7.5 C 0 km/h
133 28-11-2009 02:34:05 7.5 C 5.6 g/m*3 7.5 C 0 km/h
134 28-11-2009 02:46:05 7.5 C 5.6 g/m*3 7.5 C 0 km/h
135 28-11-2009 02:58:05 7.8 C 5.55 g/m*3 7.8 C 0 km/h
136 28-11-2009 03:10:05 8 C 5.46 g/m*3 8 C 0 km/h
137 28-11-2009 03:22:05 8 C 5.37 g/m*3 8 C 0 km/h
138 28-11-2009 03:34:05 7.9 C 5.34 g/m*3 7.9 C 0 km/h
139 28-11-2009 03:46:05 7.9 C 5.42 g/m*3 7.9 C 0 km/h
140 28-11-2009 03:58:05 8 C 5.29 g/m*3 8 C 0 km/h
141 28-11-2009 04:10:05 7.6 C 5.32 g/m*3 7.6 C 0 km/h
142 28-11-2009 04:22:05 7.6 C 5.24 g/m*3 7.6 C 0 km/h
143 28-11-2009 04:34:05 7.5 C 5.28 g/m*3 7.5 C 0 km/h
144 28-11-2009 04:46:05 7.7 C 5.27 g/m*3 7.7 C 0 km/h
145 28-11-2009 04:58:06 7.9 C 5.26 g/m*3 7.9 C 0 km/h
146 28-11-2009 05:10:06 7.9 C 5.17 g/m*3 7.9 C 0 km/h
147 28-11-2009 05:22:06 7.9 C 5.34 g/m*3 7.9 C 0 km/h
148 28-11-2009 05:34:06 7.1 C 5.77 g/m*3 7.1 C 0 km/h
149 28-11-2009 05:46:06 7 C 5.89 g/m*3 7 C 0 km/h
150 28-11-2009 05:58:06 6.9 C 5.93 g/m*3 6.9 C 0 km/h
Sensor: Nr:Datum:Temp:Abs-Feuchte:Windchill:Wind:
Aussen-T/F 151 28-11-2009 06:10:06 7.3 C 5.77 g/m*3 7.3 C 0 km/h
152 28-11-2009 06:22:06 7.4 C 5.73 g/m*3 7.4 C 0 km/h
153 28-11-2009 06:34:06 7.6 C 5.72 g/m*3 7.6 C 0 km/h
154 28-11-2009 06:46:06 7.5 C 5.68 g/m*3 7.5 C 0 km/h
155 28-11-2009 06:58:06 7.5 C 5.68 g/m*3 7.5 C 0 km/h
156 28-11-2009 07:10:06 7.4 C 5.65 g/m*3 7.4 C 0 km/h
157 28-11-2009 07:22:06 7.5 C 5.6 g/m*3 7.5 C 0 km/h
158 28-11-2009 07:34:06 7.4 C 5.65 g/m*3 7.4 C 0 km/h
159 28-11-2009 07:46:06 7.3 C 5.61 g/m*3 7.3 C 0 km/h
160 28-11-2009 07:58:06 7.2 C 5.65 g/m*3 7.2 C 0 km/h
161 28-11-2009 08:10:03 7 C 5.58 g/m*3 7 C 0 km/h
162 28-11-2009 08:22:03 7.2 C 5.73 g/m*3 7.2 C 0 km/h
163 28-11-2009 08:34:03 7.3 C 5.77 g/m*3 7.3 C 0 km/h
164 28-11-2009 08:46:01 7.7 C 5.76 g/m*3 7.7 C 0 km/h
165 28-11-2009 08:58:01 7.7 C 5.68 g/m*3 7.7 C 0 km/h
166 28-11-2009 09:10:02 7.6 C 5.72 g/m*3 7.6 C 0 km/h
167 28-11-2009 09:22:01 8 C 5.7 g/m*3 8 C 0 km/h
168 28-11-2009 09:34:02 8.2 C 5.78 g/m*3 8.2 C 0 km/h
169 28-11-2009 09:46:02 8.4 C 5.77 g/m*3 8.4 C 0 km/h
170 28-11-2009 09:58:02 8.5 C 5.81 g/m*3 8.5 C 0 km/h
171 28-11-2009 10:10:02 8.5 C 5.89 g/m*3 8.5 C 0 km/h
172 28-11-2009 10:22:02 8.6 C 5.84 g/m*3 8.6 C 0 km/h
173 28-11-2009 10:34:02 8.7 C 5.88 g/m*3 8.7 C 0 km/h
174 28-11-2009 10:46:01 8.7 C 5.88 g/m*3 8.7 C 0 km/h
175 28-11-2009 10:58:01 9.2 C 5.8 g/m*3 9.2 C 0 km/h
Sensor: Nr:Datum:Temp:Abs-Feuchte:Windchill:Wind:
Aussen-T/F 176 28-11-2009 11:10:02 9.5 C 5.64 g/m*3 9.5 C 0 km/h
177 28-11-2009 11:22:02 9.7 C 5.62 g/m*3 9.7 C 0 km/h
178 28-11-2009 11:34:01 9.7 C 5.72 g/m*3 9.7 C 0 km/h
179 28-11-2009 11:46:02 9.5 C 5.83 g/m*3 9.5 C 0 km/h
180 28-11-2009 11:58:02 9.2 C 5.98 g/m*3 9.2 C 0 km/h
181 28-11-2009 12:10:01 8.8 C 6.18 g/m*3 8.8 C 0 km/h
182 28-11-2009 12:22:02 8.4 C 6.36 g/m*3 8.4 C 0 km/h
183 28-11-2009 12:34:01 8.3 C 6.41 g/m*3 8.3 C 0 km/h
184 28-11-2009 12:46:02 8.3 C 6.41 g/m*3 8.3 C 0 km/h
185 28-11-2009 12:58:02 8.4 C 6.45 g/m*3 8.4 C 0 km/h
186 28-11-2009 13:10:01 8.5 C 6.49 g/m*3 8.5 C 0 km/h
187 28-11-2009 13:22:01 8.6 C 6.44 g/m*3 8.6 C 0 km/h
188 28-11-2009 13:34:01 8.8 C 6.44 g/m*3 8.8 C 0 km/h
189 28-11-2009 13:46:02 9 C 6.35 g/m*3 9 C 0 km/h
190 28-11-2009 13:58:02 9.1 C 6.12 g/m*3 9.1 C 0 km/h
191 28-11-2009 14:10:02 9.2 C 6.16 g/m*3 9.2 C 0 km/h
192 28-11-2009 14:22:02 9.2 C 6.16 g/m*3 9.2 C 0 km/h
193 28-11-2009 14:34:02 9.3 C 6.2 g/m*3 9.3 C 0 km/h
194 28-11-2009 14:46:02 9.4 C 6.24 g/m*3 9.4 C 0 km/h
195 28-11-2009 14:58:03 9.3 C 6.2 g/m*3 9.3 C 0 km/h
196 28-11-2009 15:10:01 9.3 C 6.29 g/m*3 9.3 C 0 km/h
197 28-11-2009 15:22:01 9.2 C 6.34 g/m*3 9.2 C 0 km/h
198 28-11-2009 15:34:02 9.2 C 6.43 g/m*3 9.2 C 0 km/h
199 28-11-2009 15:46:02 9.4 C 6.33 g/m*3 9.4 C 0 km/h
200 28-11-2009 15:58:02 9.3 C 6.38 g/m*3 9.3 C 0 km/h
Sensor: Nr:Datum:Temp:Abs-Feuchte:Windchill:Wind:
Aussen-T/F 201 28-11-2009 16:10:03 9.4 C 6.51 g/m*3 9.4 C 0 km/h
202 28-11-2009 16:22:02 9.3 C 6.56 g/m*3 9.3 C 0 km/h
203 28-11-2009 16:34:02 9.4 C 6.6 g/m*3 9.4 C 0 km/h
204 28-11-2009 16:46:01 9.5 C 6.55 g/m*3 9.5 C 0 km/h
205 28-11-2009 16:58:01 9.6 C 6.5 g/m*3 9.6 C 0 km/h
206 28-11-2009 17:10:02 9.8 C 6.49 g/m*3 9.8 C 0 km/h
207 28-11-2009 17:22:01 9.7 C 6.45 g/m*3 9.7 C 0 km/h
208 28-11-2009 17:34:02 9.6 C 6.5 g/m*3 9.6 C 0 km/h
209 28-11-2009 17:46:02 9.5 C 6.55 g/m*3 9.5 C 0 km/h
210 28-11-2009 17:58:02 9.6 C 6.6 g/m*3 9.6 C 0 km/h
211 28-11-2009 18:10:02 9.7 C 6.55 g/m*3 9.7 C 0 km/h
212 28-11-2009 18:22:01 9.7 C 6.55 g/m*3 9.7 C 0 km/h
213 28-11-2009 18:34:02 9.9 C 6.54 g/m*3 9.9 C 0 km/h
214 28-11-2009 18:46:02 10 C 6.48 g/m*3 10 C 0 km/h
215 28-11-2009 18:58:02 9.9 C 6.63 g/m*3 9.9 C 0 km/h
216 28-11-2009 19:10:02 9.5 C 6.74 g/m*3 9.5 C 0 km/h
217 28-11-2009 19:22:01 9.6 C 6.78 g/m*3 9.6 C 0 km/h
218 28-11-2009 19:34:02 9.9 C 6.72 g/m*3 9.9 C 0 km/h
219 28-11-2009 19:46:02 10.2 C 6.57 g/m*3 10.2 C 0 km/h
220 28-11-2009 19:58:02 10.3 C 6.51 g/m*3 10.3 C 0 km/h
221 28-11-2009 20:10:02 10.4 C 6.46 g/m*3 10.4 C 0 km/h
222 28-11-2009 20:22:01 10.4 C 6.46 g/m*3 10.4 C 0 km/h
223 28-11-2009 20:34:02 10.1 C 6.43 g/m*3 10.1 C 0 km/h
224 28-11-2009 20:46:01 10.2 C 6.47 g/m*3 10.2 C 0 km/h
225 28-11-2009 20:58:01 10.4 C 6.46 g/m*3 10.4 C 0 km/h
Sensor: Nr:Datum:Temp:Abs-Feuchte:Windchill:Wind:
Aussen-T/F 226 28-11-2009 21:10:02 10.5 C 6.4 g/m*3 10.5 C 0 km/h
227 28-11-2009 21:22:02 10.6 C 6.25 g/m*3 10.6 C 0 km/h
228 28-11-2009 21:34:02 10.8 C 6.13 g/m*3 10.8 C 0 km/h
229 28-11-2009 21:46:02 10.9 C 6.07 g/m*3 10.9 C 0 km/h
230 28-11-2009 21:58:02 10.9 C 5.97 g/m*3 10.9 C 0 km/h
231 28-11-2009 22:10:03 10.9 C 5.77 g/m*3 10.9 C 0 km/h
232 28-11-2009 22:22:02 10.9 C 5.77 g/m*3 10.9 C 0 km/h
233 28-11-2009 22:34:02 10.5 C 5.72 g/m*3 10.5 C 0 km/h
234 28-11-2009 22:46:01 10.3 C 5.65 g/m*3 10.3 C 0 km/h
235 28-11-2009 22:58:01 10.4 C 5.59 g/m*3 10.4 C 0 km/h
236 28-11-2009 23:11:02 10.3 C 5.65 g/m*3 10.3 C 0 km/h
237 28-11-2009 23:23:02 10.4 C 5.59 g/m*3 10.4 C 0 km/h
238 28-11-2009 23:35:02 10.4 C 5.59 g/m*3 10.4 C 0 km/h
239 28-11-2009 23:47:02 10.4 C 5.49 g/m*3 10.4 C 0 km/h
240 28-11-2009 23:59:02 10.2 C 5.42 g/m*3 10.2 C 0 km/h
241 29-11-2009 00:11:02 9.8 C 5.47 g/m*3 9.8 C 0 km/h
242 29-11-2009 00:23:02 9.7 C 5.35 g/m*3 9.7 C 0 km/h
243 29-11-2009 00:35:02 9.6 C 5.4 g/m*3 9.6 C 0 km/h
244 29-11-2009 00:47:02 9.5 C 5.37 g/m*3 9.5 C 0 km/h
245 29-11-2009 00:59:02 9.6 C 5.31 g/m*3 9.6 C 0 km/h
246 29-11-2009 01:11:02 10 C 5.26 g/m*3 10 C 0 km/h
247 29-11-2009 01:23:02 10.1 C 5.11 g/m*3 10.1 C 0 km/h
248 29-11-2009 01:35:03 10 C 5.17 g/m*3 10 C 0 km/h
249 29-11-2009 01:47:03 10.1 C 5.01 g/m*3 10.1 C 0 km/h
250 29-11-2009 01:59:03 10.4 C 4.92 g/m*3 10.4 C 0 km/h
Sensor: Nr:Datum:Temp:Abs-Feuchte:Windchill:Wind:
Aussen-T/F 251 29-11-2009 02:11:03 10.6 C 4.88 g/m*3 10.6 C 0 km/h
252 29-11-2009 02:23:03 10.7 C 4.81 g/m*3 10.7 C 0 km/h
253 29-11-2009 02:35:03 10.6 C 4.88 g/m*3 10.6 C 0 km/h
254 29-11-2009 02:47:03 10.7 C 4.71 g/m*3 10.7 C 0 km/h
255 29-11-2009 02:59:03 10.6 C 4.78 g/m*3 10.6 C 0 km/h
256 29-11-2009 03:11:03 10.4 C 4.82 g/m*3 10.4 C 0 km/h
257 29-11-2009 03:23:03 10.1 C 4.82 g/m*3 10.1 C 0 km/h
258 29-11-2009 03:35:03 10.1 C 4.73 g/m*3 10.1 C 0 km/h
259 29-11-2009 03:47:03 9.9 C 4.86 g/m*3 9.9 C 0 km/h
260 29-11-2009 03:59:03 9.5 C 4.82 g/m*3 9.5 C 0 km/h
261 29-11-2009 04:11:03 9 C 4.94 g/m*3 9 C 0 km/h
262 29-11-2009 04:23:03 8.8 C 5.05 g/m*3 8.8 C 0 km/h
263 29-11-2009 04:35:03 8.7 C 5.02 g/m*3 8.7 C 0 km/h
264 29-11-2009 04:47:03 8.4 C 5.09 g/m*3 8.4 C 0 km/h
265 29-11-2009 04:59:03 8.1 C 5.08 g/m*3 8.1 C 0 km/h
266 29-11-2009 05:11:03 8.2 C 5.02 g/m*3 8.2 C 0 km/h
267 29-11-2009 05:23:04 8.5 C 5.12 g/m*3 8.5 C 0 km/h
268 29-11-2009 05:35:04 8.6 C 4.98 g/m*3 8.6 C 0 km/h
269 29-11-2009 05:47:04 8.3 C 4.89 g/m*3 8.3 C 0 km/h
270 29-11-2009 05:59:04 8.1 C 4.99 g/m*3 8.1 C 0 km/h
271 29-11-2009 06:11:04 8 C 4.96 g/m*3 8 C 0 km/h
272 29-11-2009 06:23:04 8.1 C 4.91 g/m*3 8.1 C 0 km/h
273 29-11-2009 06:35:04 8.2 C 4.86 g/m*3 8.2 C 0 km/h
274 29-11-2009 06:47:04 8.3 C 4.89 g/m*3 8.3 C 0 km/h
275 29-11-2009 06:59:04 8.1 C 4.91 g/m*3 8.1 C 0 km/h
Sensor: Nr:Datum:Temp:Abs-Feuchte:Windchill:Wind:
Aussen-T/F 276 29-11-2009 07:11:04 8.3 C 4.8 g/m*3 8.3 C 0 km/h
277 29-11-2009 07:23:04 8.2 C 4.77 g/m*3 8.2 C 0 km/h
278 29-11-2009 07:35:03 7.9 C 4.93 g/m*3 7.9 C 0 km/h
279 29-11-2009 07:47:02 8.1 C 4.99 g/m*3 8.1 C 0 km/h
280 29-11-2009 07:59:02 8.1 C 4.99 g/m*3 8.1 C 0 km/h
281 29-11-2009 08:11:03 8.3 C 5.06 g/m*3 8.3 C 0 km/h
282 29-11-2009 08:23:02 8.6 C 5.16 g/m*3 8.6 C 0 km/h
283 29-11-2009 08:35:02 8.6 C 5.24 g/m*3 8.6 C 0 km/h
284 29-11-2009 08:47:01 8.7 C 5.28 g/m*3 8.7 C 0 km/h
285 29-11-2009 08:59:01 8.9 C 5.34 g/m*3 8.9 C 0 km/h
286 29-11-2009 09:11:02 9.1 C 5.32 g/m*3 9.1 C 0 km/h
287 29-11-2009 09:23:01 9.4 C 5.25 g/m*3 9.4 C 0 km/h
288 29-11-2009 09:35:02 9.4 C 5.25 g/m*3 9.4 C 0 km/h
289 29-11-2009 09:47:02 9.5 C 5.37 g/m*3 9.5 C 0 km/h
290 29-11-2009 09:59:02 9.8 C 5.38 g/m*3 9.8 C 0 km/h
291 29-11-2009 10:11:02 10 C 5.45 g/m*3 10 C 0 km/h
292 29-11-2009 10:23:02 10.2 C 5.33 g/m*3 10.2 C 0 km/h
293 29-11-2009 10:35:01 10.5 C 5.33 g/m*3 10.5 C 0 km/h
294 29-11-2009 10:47:02 10.5 C 5.33 g/m*3 10.5 C 0 km/h
295 29-11-2009 10:59:02 11 C 5.41 g/m*3 11 C 0 km/h
296 29-11-2009 11:11:01 11.2 C 5.27 g/m*3 11.2 C 0 km/h
297 29-11-2009 11:23:02 11.3 C 5.2 g/m*3 11.3 C 0 km/h
298 29-11-2009 11:35:02 11.3 C 5.1 g/m*3 11.3 C 0 km/h
299 29-11-2009 11:47:02 11.5 C 5.16 g/m*3 11.5 C 0 km/h
300 29-11-2009 11:59:03 11.7 C 5.33 g/m*3 11.7 C 0 km/h
Sensor: Nr:Datum:Temp:Abs-Feuchte:Windchill:Wind:
Aussen-T/F 301 29-11-2009 12:11:02 11.9 C 5.3 g/m*3 11.9 C 0 km/h
302 29-11-2009 12:23:02 12.1 C 5.15 g/m*3 12.1 C 0 km/h
303 29-11-2009 12:35:02 12.5 C 5.17 g/m*3 12.5 C 0 km/h
304 29-11-2009 12:47:02 12.8 C 5.26 g/m*3 12.8 C 0 km/h
305 29-11-2009 12:59:02 13.2 C 5.28 g/m*3 13.2 C 0 km/h
306 29-11-2009 13:11:01 13.4 C 5.23 g/m*3 13.4 C 0 km/h
307 29-11-2009 13:23:01 13.7 C 5.33 g/m*3 13.7 C 0 km/h
308 29-11-2009 13:35:02 13.8 C 5.24 g/m*3 13.8 C 0 km/h
309 29-11-2009 13:47:02 13 C 5.67 g/m*3 13 C 0 km/h
310 29-11-2009 13:59:02 12.7 C 6.12 g/m*3 12.7 C 0 km/h
311 29-11-2009 14:11:02 11.7 C 6.48 g/m*3 11.7 C 0 km/h
312 29-11-2009 14:23:02 11 C 6.91 g/m*3 11 C 0 km/h
313 29-11-2009 14:35:02 10.8 C 7.12 g/m*3 10.8 C 0 km/h
314 29-11-2009 14:47:02 10.7 C 7.17 g/m*3 10.7 C 0 km/h
315 29-11-2009 14:59:02 10.5 C 7.18 g/m*3 10.5 C 0 km/h
316 29-11-2009 15:11:03 10.4 C 7.13 g/m*3 10.4 C 0 km/h
317 29-11-2009 15:23:02 10.3 C 7.28 g/m*3 10.3 C 0 km/h
318 29-11-2009 15:35:02 10.2 C 7.23 g/m*3 10.2 C 0 km/h
319 29-11-2009 15:47:01 9.9 C 7.28 g/m*3 9.9 C 0 km/h
320 29-11-2009 15:59:01 9.9 C 7.28 g/m*3 9.9 C 0 km/h
321 29-11-2009 16:11:02 9.9 C 7.19 g/m*3 9.9 C 0 km/h
322 29-11-2009 16:23:01 9.8 C 7.14 g/m*3 9.8 C 0 km/h
323 29-11-2009 16:35:02 9.7 C 7.19 g/m*3 9.7 C 0 km/h
324 29-11-2009 16:47:01 9.5 C 7.19 g/m*3 9.5 C 0 km/h
325 29-11-2009 16:59:01 9.5 C 7.28 g/m*3 9.5 C 0 km/h
Sensor: Nr:Datum:Temp:Abs-Feuchte:Windchill:Wind:
Aussen-T/F 326 29-11-2009 17:11:02 9.4 C 7.33 g/m*3 9.4 C 0 km/h
327 29-11-2009 17:23:01 9.3 C 7.37 g/m*3 9.3 C 0 km/h
328 29-11-2009 17:35:02 9.2 C 7.32 g/m*3 9.2 C 0 km/h
329 29-11-2009 17:47:01 9 C 7.23 g/m*3 9 C 0 km/h
330 29-11-2009 17:59:01 8.9 C 7.36 g/m*3 8.9 C 0 km/h
331 29-11-2009 18:11:02 8.7 C 7.26 g/m*3 8.7 C 0 km/h
332 29-11-2009 18:23:01 8.5 C 7.26 g/m*3 8.5 C 0 km/h
333 29-11-2009 18:35:02 8.4 C 7.3 g/m*3 8.4 C 0 km/h
334 29-11-2009 18:47:01 8.3 C 7.25 g/m*3 8.3 C 0 km/h
335 29-11-2009 18:59:01 8.2 C 7.29 g/m*3 8.2 C 0 km/h
336 29-11-2009 19:11:02 8.2 C 7.37 g/m*3 8.2 C 0 km/h
337 29-11-2009 19:23:02 8.2 C 7.37 g/m*3 8.2 C 0 km/h
338 29-11-2009 19:35:01 8.2 C 7.45 g/m*3 8.2 C 0 km/h
339 29-11-2009 19:47:02 8.1 C 7.41 g/m*3 8.1 C 0 km/h
340 29-11-2009 19:59:02 8.1 C 7.49 g/m*3 8.1 C 0 km/h
341 29-11-2009 20:11:01 8.1 C 7.49 g/m*3 8.1 C 0 km/h
342 29-11-2009 20:23:02 8.1 C 7.57 g/m*3 8.1 C 0 km/h
343 29-11-2009 20:35:01 8.1 C 7.57 g/m*3 8.1 C 0 km/h
344 29-11-2009 20:47:02 7.9 C 7.56 g/m*3 7.9 C 0 km/h
345 29-11-2009 20:59:02 7.8 C 7.51 g/m*3 7.8 C 0 km/h
346 29-11-2009 21:11:02 7.6 C 7.41 g/m*3 7.6 C 0 km/h
347 29-11-2009 21:23:01 7.6 C 7.41 g/m*3 7.6 C 0 km/h
348 29-11-2009 21:35:02 7.5 C 7.36 g/m*3 7.5 C 0 km/h
349 29-11-2009 21:47:01 7.4 C 7.4 g/m*3 7.4 C 0 km/h
350 29-11-2009 21:59:01 7.4 C 7.4 g/m*3 7.4 C 0 km/h
Sensor: Nr:Datum:Temp:Abs-Feuchte:Windchill:Wind:
Aussen-T/F 351 29-11-2009 22:11:02 7.3 C 7.35 g/m*3 7.3 C 0 km/h
352 29-11-2009 22:23:01 7.2 C 7.3 g/m*3 7.2 C 0 km/h
353 29-11-2009 22:36:02 7.1 C 7.25 g/m*3 7.1 C 0 km/h
354 29-11-2009 22:48:02 7.1 C 7.33 g/m*3 7.1 C 0 km/h
355 29-11-2009 23:00:02 7.1 C 7.33 g/m*3 7.1 C 0 km/h
356 29-11-2009 23:12:02 7.1 C 7.33 g/m*3 7.1 C 0 km/h
357 29-11-2009 23:24:02 7 C 7.28 g/m*3 7 C 0 km/h
358 29-11-2009 23:36:03 7 C 7.28 g/m*3 7 C 0 km/h
359 29-11-2009 23:48:03 7 C 7.28 g/m*3 7 C 0 km/h
360 30-11-2009 00:00:03 6.9 C 7.31 g/m*3 6.9 C 0 km/h
361 30-11-2009 00:12:03 6.9 C 7.31 g/m*3 6.9 C 0 km/h
362 30-11-2009 00:24:03 6.7 C 7.22 g/m*3 6.7 C 0 km/h
363 30-11-2009 00:36:03 6.5 C 7.12 g/m*3 6.5 C 0 km/h
364 30-11-2009 00:48:03 6.4 C 7.08 g/m*3 6.4 C 0 km/h
365 30-11-2009 01:00:03 6.4 C 7.08 g/m*3 6.4 C 0 km/h
366 30-11-2009 01:12:03 6.4 C 7.08 g/m*3 6.4 C 0 km/h
367 30-11-2009 01:24:03 6.4 C 7.08 g/m*3 6.4 C 0 km/h
368 30-11-2009 01:36:03 6.4 C 7.08 g/m*3 6.4 C 0 km/h
369 30-11-2009 01:48:03 6.3 C 7.03 g/m*3 6.3 C 0 km/h
370 30-11-2009 02:00:03 6.2 C 6.99 g/m*3 6.2 C 0 km/h
371 30-11-2009 02:12:03 6.2 C 6.99 g/m*3 6.2 C 0 km/h
372 30-11-2009 02:24:03 6.3 C 7.03 g/m*3 6.3 C 0 km/h
373 30-11-2009 02:36:03 6.3 C 7.03 g/m*3 6.3 C 0 km/h
374 30-11-2009 02:48:03 6.2 C 6.99 g/m*3 6.2 C 0 km/h
375 30-11-2009 03:00:03 6.2 C 6.91 g/m*3 6.2 C 0 km/h
Sensor: Nr:Datum:Temp:Abs-Feuchte:Windchill:Wind:
Aussen-T/F 376 30-11-2009 03:12:03 6.1 C 6.87 g/m*3 6.1 C 0 km/h
377 30-11-2009 03:24:04 6.2 C 6.84 g/m*3 6.2 C 0 km/h
378 30-11-2009 03:36:04 6.2 C 6.77 g/m*3 6.2 C 0 km/h
379 30-11-2009 03:48:04 6.2 C 6.69 g/m*3 6.2 C 0 km/h
380 30-11-2009 04:00:04 6.2 C 6.69 g/m*3 6.2 C 0 km/h
381 30-11-2009 04:12:04 6.2 C 6.62 g/m*3 6.2 C 0 km/h
382 30-11-2009 04:24:04 6.2 C 6.62 g/m*3 6.2 C 0 km/h
383 30-11-2009 04:36:04 6.2 C 6.62 g/m*3 6.2 C 0 km/h
384 30-11-2009 04:48:04 6.3 C 6.66 g/m*3 6.3 C 0 km/h
385 30-11-2009 05:00:04 6.3 C 6.66 g/m*3 6.3 C 0 km/h
386 30-11-2009 05:12:04 6.4 C 6.71 g/m*3 6.4 C 0 km/h
387 30-11-2009 05:24:04 6.3 C 6.59 g/m*3 6.3 C 0 km/h
388 30-11-2009 05:36:04 6.3 C 6.66 g/m*3 6.3 C 0 km/h
389 30-11-2009 05:48:04 6.4 C 6.71 g/m*3 6.4 C 0 km/h
390 30-11-2009 06:00:04 6.4 C 6.71 g/m*3 6.4 C 0 km/h
391 30-11-2009 06:12:04 6.4 C 6.71 g/m*3 6.4 C 0 km/h
392 30-11-2009 06:24:04 6.2 C 6.55 g/m*3 6.2 C 0 km/h
393 30-11-2009 06:36:04 6.2 C 6.55 g/m*3 6.2 C 0 km/h
394 30-11-2009 06:48:04 6.1 C 6.5 g/m*3 6.1 C 0 km/h
395 30-11-2009 07:00:04 6 C 6.39 g/m*3 6 C 0 km/h
396 30-11-2009 07:12:02 6 C 6.39 g/m*3 6 C 0 km/h
397 30-11-2009 07:24:02 6 C 6.31 g/m*3 6 C 0 km/h
398 30-11-2009 07:36:02 5.9 C 6.42 g/m*3 5.9 C 0 km/h
399 30-11-2009 07:48:02 5.9 C 6.42 g/m*3 5.9 C 0 km/h
400 30-11-2009 08:00:02 5.8 C 6.45 g/m*3 5.8 C 0 km/h
Sensor: Nr:Datum:Temp:Abs-Feuchte:Windchill:Wind:
Aussen-T/F 401 30-11-2009 08:12:01 5.8 C 6.45 g/m*3 5.8 C 0 km/h
402 30-11-2009 08:24:01 5.6 C 6.29 g/m*3 5.6 C 0 km/h
403 30-11-2009 08:36:02 5.5 C 6.32 g/m*3 5.5 C 0 km/h
404 30-11-2009 08:48:02 5.6 C 6.36 g/m*3 5.6 C 0 km/h
405 30-11-2009 09:00:02 5.9 C 6.56 g/m*3 5.9 C 0 km/h
406 30-11-2009 09:12:02 6 C 6.53 g/m*3 6 C 0 km/h
407 30-11-2009 09:24:02 6.2 C 6.55 g/m*3 6.2 C 0 km/h
408 30-11-2009 09:36:02 6.3 C 6.59 g/m*3 6.3 C 0 km/h
409 30-11-2009 09:48:03 6.4 C 6.63 g/m*3 6.4 C 0 km/h
410 30-11-2009 10:00:03 6.4 C 6.56 g/m*3 6.4 C 0 km/h
411 30-11-2009 10:12:02 6.5 C 6.37 g/m*3 6.5 C 0 km/h
412 30-11-2009 10:24:02 6.7 C 6.38 g/m*3 6.7 C 0 km/h
413 30-11-2009 10:36:02 7 C 6.43 g/m*3 7 C 0 km/h
414 30-11-2009 10:48:02 7.1 C 6.47 g/m*3 7.1 C 0 km/h
415 30-11-2009 11:00:02 7.3 C 6.4 g/m*3 7.3 C 0 km/h
416 30-11-2009 11:12:02 7.4 C 6.28 g/m*3 7.4 C 0 km/h
417 30-11-2009 11:24:02 7.3 C 6.08 g/m*3 7.3 C 0 km/h
418 30-11-2009 11:36:01 7.4 C 6.12 g/m*3 7.4 C 0 km/h
419 30-11-2009 11:48:02 7.5 C 6.16 g/m*3 7.5 C 0 km/h
420 30-11-2009 12:00:02 7.6 C 6.12 g/m*3 7.6 C 0 km/h
421 30-11-2009 12:12:01 7.6 C 6.04 g/m*3 7.6 C 0 km/h
422 30-11-2009 12:24:02 7.8 C 6.04 g/m*3 7.8 C 0 km/h
423 30-11-2009 12:36:01 8 C 6.04 g/m*3 8 C 0 km/h
424 30-11-2009 12:48:02 8 C 5.87 g/m*3 8 C 0 km/h
425 30-11-2009 13:00:02 7.9 C 5.91 g/m*3 7.9 C 0 km/h
Sensor: Nr:Datum:Temp:Abs-Feuchte:Windchill:Wind:
Aussen-T/F 426 30-11-2009 13:12:02 8.2 C 5.95 g/m*3 8.2 C 0 km/h
427 30-11-2009 13:24:02 8.1 C 5.82 g/m*3 8.1 C 0 km/h
428 30-11-2009 13:36:03 8.1 C 5.74 g/m*3 8.1 C 0 km/h
429 30-11-2009 13:48:02 8.2 C 5.69 g/m*3 8.2 C 0 km/h
430 30-11-2009 14:00:02 8.3 C 5.65 g/m*3 8.3 C 0 km/h
431 30-11-2009 14:12:01 8.4 C 5.68 g/m*3 8.4 C 0 km/h
432 30-11-2009 14:24:02 8.3 C 5.65 g/m*3 8.3 C 0 km/h
433 30-11-2009 14:36:02 8.3 C 5.73 g/m*3 8.3 C 0 km/h
434 30-11-2009 14:48:02 8.3 C 5.65 g/m*3 8.3 C 0 km/h
435 30-11-2009 15:00:02 8.1 C 5.66 g/m*3 8.1 C 0 km/h
436 30-11-2009 15:12:03 8 C 5.7 g/m*3 8 C 0 km/h
437 30-11-2009 15:24:02 7.9 C 5.75 g/m*3 7.9 C 0 km/h
438 30-11-2009 15:36:02 7.8 C 5.88 g/m*3 7.8 C 0 km/h
439 30-11-2009 15:48:01 7.6 C 5.8 g/m*3 7.6 C 0 km/h
440 30-11-2009 16:00:01 7.3 C 5.77 g/m*3 7.3 C 0 km/h
441 30-11-2009 16:12:02 7 C 5.81 g/m*3 7 C 0 km/h
442 30-11-2009 16:24:01 6.6 C 5.89 g/m*3 6.6 C 0 km/h
443 30-11-2009 16:36:02 6.3 C 5.85 g/m*3 6.3 C 0 km/h
444 30-11-2009 16:48:02 6.1 C 5.84 g/m*3 6.1 C 0 km/h
445 30-11-2009 17:00:02 6 C 5.88 g/m*3 6 C 0 km/h
446 30-11-2009 17:12:02 5.9 C 5.91 g/m*3 5.9 C 0 km/h
447 30-11-2009 17:24:01 6 C 5.95 g/m*3 6 C 0 km/h
448 30-11-2009 17:36:02 6 C 5.95 g/m*3 6 C 0 km/h
449 30-11-2009 17:48:02 6 C 5.95 g/m*3 6 C 0 km/h
450 30-11-2009 18:00:02 6 C 6.02 g/m*3 6 C 0 km/h
Sensor: Nr:Datum:Temp:Abs-Feuchte:Windchill:Wind:
Aussen-T/F 451 30-11-2009 18:12:02 6 C 6.02 g/m*3 6 C 0 km/h
452 30-11-2009 18:24:01 5.9 C 6.06 g/m*3 5.9 C 0 km/h
453 30-11-2009 18:36:02 6 C 6.02 g/m*3 6 C 0 km/h
454 30-11-2009 18:48:02 6.1 C 6.06 g/m*3 6.1 C 0 km/h
455 30-11-2009 19:00:02 6 C 6.02 g/m*3 6 C 0 km/h
456 30-11-2009 19:12:02 6 C 6.02 g/m*3 6 C 0 km/h
457 30-11-2009 19:24:01 5.9 C 6.06 g/m*3 5.9 C 0 km/h
458 30-11-2009 19:36:02 5.9 C 6.13 g/m*3 5.9 C 0 km/h
459 30-11-2009 19:48:01 5.9 C 6.13 g/m*3 5.9 C 0 km/h
460 30-11-2009 20:00:01 5.9 C 6.13 g/m*3 5.9 C 0 km/h
461 30-11-2009 20:12:02 5.9 C 6.13 g/m*3 5.9 C 0 km/h
462 30-11-2009 20:24:02 5.9 C 6.13 g/m*3 5.9 C 0 km/h
463 30-11-2009 20:36:02 5.9 C 6.13 g/m*3 5.9 C 0 km/h
464 30-11-2009 20:48:02 5.7 C 6.05 g/m*3 5.7 C 0 km/h
465 30-11-2009 21:00:02 5.7 C 6.05 g/m*3 5.7 C 0 km/h
466 30-11-2009 21:12:02 5.6 C 6.01 g/m*3 5.6 C 0 km/h
467 30-11-2009 21:24:02 5.6 C 6.08 g/m*3 5.6 C 0 km/h
468 30-11-2009 21:36:01 5.5 C 6.04 g/m*3 5.5 C 0 km/h
469 30-11-2009 21:48:02 5.5 C 6.04 g/m*3 5.5 C 0 km/h
470 30-11-2009 22:00:02 5.4 C 6 g/m*3 5.4 C 0 km/h
471 30-11-2009 22:12:02 5.4 C 6 g/m*3 5.4 C 0 km/h
472 30-11-2009 22:24:02 5.3 C 6.03 g/m*3 5.3 C 0 km/h
473 30-11-2009 22:36:01 5.3 C 6.03 g/m*3 5.3 C 0 km/h
474 30-11-2009 22:48:01 5.2 C 5.99 g/m*3 5.2 C 0 km/h
475 30-11-2009 23:00:01 5.2 C 5.99 g/m*3 5.2 C 0 km/h
Sensor: Nr:Datum:Temp:Abs-Feuchte:Windchill:Wind:
Aussen-T/F 476 30-11-2009 23:12:01 5.4 C 6.07 g/m*3 5.4 C 0 km/h
477 30-11-2009 23:24:02 5.5 C 6.11 g/m*3 5.5 C 0 km/h
478 30-11-2009 23:36:01 5.4 C 6.07 g/m*3 5.4 C 0 km/h
479 30-11-2009 23:48:02 5.5 C 6.18 g/m*3 5.5 C 0 km/h
480 01-12-2009 00:00:02 5.5 C 6.18 g/m*3 5.5 C 0 km/h
481 01-12-2009 00:12:01 5.6 C 6.15 g/m*3 5.6 C 0 km/h
482 01-12-2009 00:24:01 5.6 C 6.15 g/m*3 5.6 C 0 km/h
483 01-12-2009 00:36:02 5.6 C 6.15 g/m*3 5.6 C 0 km/h
484 01-12-2009 00:48:02 5.6 C 6.15 g/m*3 5.6 C 0 km/h
485 01-12-2009 01:00:02 5.5 C 6.11 g/m*3 5.5 C 0 km/h
486 01-12-2009 01:12:02 5.5 C 6.11 g/m*3 5.5 C 0 km/h
487 01-12-2009 01:24:02 5.5 C 6.11 g/m*3 5.5 C 0 km/h
488 01-12-2009 01:36:02 5.5 C 6.11 g/m*3 5.5 C 0 km/h
489 01-12-2009 01:48:02 5.4 C 6.07 g/m*3 5.4 C 0 km/h
490 01-12-2009 02:00:02 5.4 C 6.14 g/m*3 5.4 C 0 km/h
491 01-12-2009 02:12:02 5.4 C 6.14 g/m*3 5.4 C 0 km/h
492 01-12-2009 02:24:02 5.4 C 6.14 g/m*3 5.4 C 0 km/h
493 01-12-2009 02:36:02 5.4 C 6.07 g/m*3 5.4 C 0 km/h
494 01-12-2009 02:48:01 5.4 C 6.07 g/m*3 5.4 C 0 km/h
495 01-12-2009 03:00:01 5.3 C 6.03 g/m*3 5.3 C 0 km/h
496 01-12-2009 03:12:01 5.3 C 5.96 g/m*3 5.3 C 0 km/h
497 01-12-2009 03:24:02 5.3 C 5.89 g/m*3 5.3 C 0 km/h
498 01-12-2009 03:36:01 5.3 C 5.89 g/m*3 5.3 C 0 km/h
499 01-12-2009 03:48:01 5.2 C 5.78 g/m*3 5.2 C 0 km/h
500 01-12-2009 04:00:01 5 C 5.71 g/m*3 5 C 0 km/h
Sensor: Nr:Datum:Temp:Abs-Feuchte:Windchill:Wind:
Aussen-T/F 501 01-12-2009 04:12:02 4.9 C 5.81 g/m*3 4.9 C 0 km/h
502 01-12-2009 04:24:01 4.8 C 5.77 g/m*3 4.8 C 0 km/h
503 01-12-2009 04:36:01 4.7 C 5.73 g/m*3 4.7 C 0 km/h
504 01-12-2009 04:48:01 4.7 C 5.73 g/m*3 4.7 C 0 km/h
505 01-12-2009 05:00:01 4.9 C 5.87 g/m*3 4.9 C 0 km/h
506 01-12-2009 05:12:02 4.9 C 5.94 g/m*3 4.9 C 0 km/h
507 01-12-2009 05:24:01 5 C 5.91 g/m*3 5 C 0 km/h
508 01-12-2009 05:36:01 5 C 5.91 g/m*3 5 C 0 km/h
509 01-12-2009 05:48:01 5 C 5.91 g/m*3 5 C 0 km/h
510 01-12-2009 06:00:01 5.1 C 5.95 g/m*3 5.1 C 0 km/h
511 01-12-2009 06:12:01 5.1 C 5.95 g/m*3 5.1 C 0 km/h
512 01-12-2009 06:24:02 5.1 C 5.95 g/m*3 5.1 C 0 km/h
513 01-12-2009 06:36:01 5 C 5.91 g/m*3 5 C 0 km/h
514 01-12-2009 06:48:02 5 C 5.91 g/m*3 5 C 0 km/h
515 01-12-2009 07:00:02 5 C 5.91 g/m*3 5 C 0 km/h
516 01-12-2009 07:12:01 5 C 5.98 g/m*3 5 C 0 km/h
517 01-12-2009 07:24:02 5 C 5.98 g/m*3 5 C 0 km/h
518 01-12-2009 07:36:01 5 C 5.98 g/m*3 5 C 0 km/h
519 01-12-2009 07:48:02 4.9 C 5.94 g/m*3 4.9 C 0 km/h
520 01-12-2009 08:00:02 4.8 C 5.9 g/m*3 4.8 C 0 km/h
521 01-12-2009 08:12:01 4.8 C 5.9 g/m*3 4.8 C 0 km/h
522 01-12-2009 08:24:01 4.8 C 5.97 g/m*3 4.8 C 0 km/h
523 01-12-2009 08:36:01 4.9 C 6.01 g/m*3 4.9 C 0 km/h
524 01-12-2009 08:48:02 4.9 C 6.01 g/m*3 4.9 C 0 km/h
525 01-12-2009 09:00:02 5 C 5.98 g/m*3 5 C 0 km/h
Sensor: Nr:Datum:Temp:Abs-Feuchte:Windchill:Wind:
Aussen-T/F 526 01-12-2009 09:12:01 5.1 C 6.02 g/m*3 5.1 C 0 km/h
527 01-12-2009 09:24:01 5.2 C 6.06 g/m*3 5.2 C 0 km/h
528 01-12-2009 09:36:02 5.3 C 6.1 g/m*3 5.3 C 0 km/h
529 01-12-2009 09:48:01 5.4 C 6.14 g/m*3 5.4 C 0 km/h
530 01-12-2009 10:00:01 5.5 C 6.11 g/m*3 5.5 C 0 km/h
531 01-12-2009 10:12:02 5.6 C 6.15 g/m*3 5.6 C 0 km/h
532 01-12-2009 10:24:01 5.7 C 6.12 g/m*3 5.7 C 0 km/h
533 01-12-2009 10:36:02 5.7 C 6.12 g/m*3 5.7 C 0 km/h
534 01-12-2009 10:48:01 5.8 C 6.09 g/m*3 5.8 C 0 km/h
535 01-12-2009 11:00:01 6.1 C 6.06 g/m*3 6.1 C 0 km/h
536 01-12-2009 11:12:02 6.3 C 6.07 g/m*3 6.3 C 0 km/h
537 01-12-2009 11:24:01 6.3 C 6 g/m*3 6.3 C 0 km/h
538 01-12-2009 11:36:01 6.4 C 6.04 g/m*3 6.4 C 0 km/h
539 01-12-2009 11:48:01 6.6 C 5.96 g/m*3 6.6 C 0 km/h
540 01-12-2009 12:00:01 6.7 C 5.85 g/m*3 6.7 C 0 km/h
541 01-12-2009 12:12:01 6.8 C 5.89 g/m*3 6.8 C 0 km/h
542 01-12-2009 12:24:01 6.8 C 5.81 g/m*3 6.8 C 0 km/h
543 01-12-2009 12:36:01 6.9 C 5.85 g/m*3 6.9 C 0 km/h
544 01-12-2009 12:48:01 6.9 C 5.77 g/m*3 6.9 C 0 km/h
545 01-12-2009 13:00:01 6.9 C 5.77 g/m*3 6.9 C 0 km/h
546 01-12-2009 13:12:01 6.9 C 5.77 g/m*3 6.9 C 0 km/h
547 01-12-2009 13:24:02 6.9 C 5.77 g/m*3 6.9 C 0 km/h
548 01-12-2009 13:36:01 6.9 C 5.7 g/m*3 6.9 C 0 km/h
549 01-12-2009 13:48:02 6.9 C 5.77 g/m*3 6.9 C 0 km/h
550 01-12-2009 14:00:02 6.8 C 5.74 g/m*3 6.8 C 0 km/h
Sensor: Nr:Datum:Temp:Abs-Feuchte:Windchill:Wind:
Aussen-T/F 551 01-12-2009 14:12:01 6.8 C 5.81 g/m*3 6.8 C 0 km/h
552 01-12-2009 14:24:02 6.8 C 5.74 g/m*3 6.8 C 0 km/h
553 01-12-2009 14:36:01 6.8 C 5.81 g/m*3 6.8 C 0 km/h
554 01-12-2009 14:48:02 6.8 C 5.81 g/m*3 6.8 C 0 km/h
555 01-12-2009 15:00:02 6.7 C 5.85 g/m*3 6.7 C 0 km/h
556 01-12-2009 15:12:01 6.6 C 5.89 g/m*3 6.6 C 0 km/h
557 01-12-2009 15:24:01 6.6 C 5.89 g/m*3 6.6 C 0 km/h
558 01-12-2009 15:36:01 6.5 C 5.85 g/m*3 6.5 C 0 km/h
559 01-12-2009 15:48:02 6.5 C 5.85 g/m*3 6.5 C 0 km/h
560 01-12-2009 16:00:02 6.4 C 5.81 g/m*3 6.4 C 0 km/h
561 01-12-2009 16:12:01 6.3 C 5.85 g/m*3 6.3 C 0 km/h
562 01-12-2009 16:24:01 6.2 C 5.81 g/m*3 6.2 C 0 km/h
563 01-12-2009 16:36:02 6.1 C 5.77 g/m*3 6.1 C 0 km/h
564 01-12-2009 16:48:01 6 C 5.81 g/m*3 6 C 0 km/h
565 01-12-2009 17:00:01 5.9 C 5.84 g/m*3 5.9 C 0 km/h
566 01-12-2009 17:12:02 5.9 C 5.84 g/m*3 5.9 C 0 km/h
567 01-12-2009 17:24:01 5.9 C 5.84 g/m*3 5.9 C 0 km/h
568 01-12-2009 17:36:02 5.8 C 5.87 g/m*3 5.8 C 0 km/h
569 01-12-2009 17:48:01 5.8 C 5.87 g/m*3 5.8 C 0 km/h
570 01-12-2009 18:00:01 5.8 C 5.87 g/m*3 5.8 C 0 km/h
571 01-12-2009 18:12:02 5.7 C 5.91 g/m*3 5.7 C 0 km/h
572 01-12-2009 18:24:01 5.8 C 5.95 g/m*3 5.8 C 0 km/h
573 01-12-2009 18:36:02 5.7 C 5.91 g/m*3 5.7 C 0 km/h
574 01-12-2009 18:48:02 5.7 C 5.91 g/m*3 5.7 C 0 km/h
575 01-12-2009 19:00:02 5.7 C 5.91 g/m*3 5.7 C 0 km/h
Sensor: Nr:Datum:Temp:Abs-Feuchte:Windchill:Wind:
Aussen-T/F 576 01-12-2009 19:12:01 5.6 C 5.87 g/m*3 5.6 C 0 km/h
577 01-12-2009 19:24:02 5.6 C 5.87 g/m*3 5.6 C 0 km/h
578 01-12-2009 19:36:01 5.6 C 5.87 g/m*3 5.6 C 0 km/h
579 01-12-2009 19:48:02 5.7 C 5.91 g/m*3 5.7 C 0 km/h
580 01-12-2009 20:00:02 5.6 C 5.87 g/m*3 5.6 C 0 km/h
581 01-12-2009 20:12:01 5.6 C 5.87 g/m*3 5.6 C 0 km/h
582 01-12-2009 20:24:02 5.5 C 5.83 g/m*3 5.5 C 0 km/h
583 01-12-2009 20:36:01 5.5 C 5.83 g/m*3 5.5 C 0 km/h
584 01-12-2009 20:48:02 5.5 C 5.83 g/m*3 5.5 C 0 km/h
585 01-12-2009 21:00:02 5.5 C 5.9 g/m*3 5.5 C 0 km/h
586 01-12-2009 21:12:01 5.5 C 5.9 g/m*3 5.5 C 0 km/h
587 01-12-2009 21:24:01 5.4 C 5.86 g/m*3 5.4 C 0 km/h
588 01-12-2009 21:36:02 5.4 C 5.86 g/m*3 5.4 C 0 km/h
589 01-12-2009 21:48:01 5.4 C 5.93 g/m*3 5.4 C 0 km/h
590 01-12-2009 22:00:01 5.6 C 6.01 g/m*3 5.6 C 0 km/h
591 01-12-2009 22:12:02 5.5 C 5.97 g/m*3 5.5 C 0 km/h
592 01-12-2009 22:25:05 5.4 C 5.93 g/m*3 5.4 C 0 km/h
593 01-12-2009 22:37:05 5.3 C 5.89 g/m*3 5.3 C 0 km/h
594 01-12-2009 22:49:05 5.3 C 5.89 g/m*3 5.3 C 0 km/h
595 01-12-2009 23:01:05 5.2 C 5.78 g/m*3 5.2 C 0 km/h
596 01-12-2009 23:13:05 5.2 C 5.78 g/m*3 5.2 C 0 km/h
597 01-12-2009 23:25:05 5.2 C 5.78 g/m*3 5.2 C 0 km/h
598 01-12-2009 23:37:05 5.2 C 5.78 g/m*3 5.2 C 0 km/h
599 01-12-2009 23:49:05 5.2 C 5.71 g/m*3 5.2 C 0 km/h
600 02-12-2009 00:01:06 5.2 C 5.65 g/m*3 5.2 C 0 km/h
Sensor: Nr:Datum:Temp:Abs-Feuchte:Windchill:Wind:
Aussen-T/F 601 02-12-2009 00:13:06 5.2 C 5.65 g/m*3 5.2 C 0 km/h
602 02-12-2009 00:25:06 5.2 C 5.58 g/m*3 5.2 C 0 km/h
603 02-12-2009 00:37:06 5.2 C 5.58 g/m*3 5.2 C 0 km/h
604 02-12-2009 00:49:06 5 C 5.44 g/m*3 5 C 0 km/h
605 02-12-2009 01:01:06 4.8 C 5.43 g/m*3 4.8 C 0 km/h
606 02-12-2009 01:13:06 4.7 C 5.46 g/m*3 4.7 C 0 km/h
607 02-12-2009 01:25:06 4.6 C 5.49 g/m*3 4.6 C 0 km/h
608 02-12-2009 01:37:06 4.5 C 5.52 g/m*3 4.5 C 0 km/h
609 02-12-2009 01:49:06 4.3 C 5.45 g/m*3 4.3 C 0 km/h
610 02-12-2009 02:01:06 4.4 C 5.55 g/m*3 4.4 C 0 km/h
611 02-12-2009 02:13:06 4.6 C 5.62 g/m*3 4.6 C 0 km/h
612 02-12-2009 02:25:06 4.7 C 5.66 g/m*3 4.7 C 0 km/h
613 02-12-2009 02:37:06 4.7 C 5.66 g/m*3 4.7 C 0 km/h
614 02-12-2009 02:49:06 4.8 C 5.77 g/m*3 4.8 C 0 km/h
615 02-12-2009 03:01:06 4.9 C 5.81 g/m*3 4.9 C 0 km/h
616 02-12-2009 03:13:06 4.7 C 5.73 g/m*3 4.7 C 0 km/h
617 02-12-2009 03:25:06 4.7 C 5.8 g/m*3 4.7 C 0 km/h
618 02-12-2009 03:37:06 4.8 C 5.83 g/m*3 4.8 C 0 km/h
619 02-12-2009 03:49:06 5 C 5.84 g/m*3 5 C 0 km/h
620 02-12-2009 04:01:07 4.9 C 5.87 g/m*3 4.9 C 0 km/h
621 02-12-2009 04:13:07 4.9 C 5.87 g/m*3 4.9 C 0 km/h
622 02-12-2009 04:25:07 4.9 C 5.87 g/m*3 4.9 C 0 km/h
623 02-12-2009 04:37:07 4.9 C 5.94 g/m*3 4.9 C 0 km/h
624 02-12-2009 04:49:07 5 C 5.91 g/m*3 5 C 0 km/h
625 02-12-2009 05:01:07 5 C 5.91 g/m*3 5 C 0 km/h
Sensor: Nr:Datum:Temp:Abs-Feuchte:Windchill:Wind:
Aussen-T/F 626 02-12-2009 05:13:07 5 C 5.91 g/m*3 5 C 0 km/h
627 02-12-2009 05:25:07 4.8 C 5.83 g/m*3 4.8 C 0 km/h
628 02-12-2009 05:37:07 4.8 C 5.83 g/m*3 4.8 C 0 km/h
629 02-12-2009 05:49:07 4.8 C 5.83 g/m*3 4.8 C 0 km/h
630 02-12-2009 06:01:05 4.8 C 5.83 g/m*3 4.8 C 0 km/h
631 02-12-2009 06:13:05 5 C 5.91 g/m*3 5 C 0 km/h
632 02-12-2009 06:25:05 4.9 C 5.87 g/m*3 4.9 C 0 km/h
633 02-12-2009 06:37:05 5 C 5.91 g/m*3 5 C 0 km/h
634 02-12-2009 06:49:01 5 C 5.91 g/m*3 5 C 0 km/h
635 02-12-2009 07:01:02 4.9 C 5.94 g/m*3 4.9 C 0 km/h
636 02-12-2009 07:13:02 5 C 5.91 g/m*3 5 C 0 km/h
637 02-12-2009 07:25:01 5.1 C 5.95 g/m*3 5.1 C 0 km/h
638 02-12-2009 07:37:01 5.2 C 5.99 g/m*3 5.2 C 0 km/h
639 02-12-2009 07:49:01 5.2 C 5.99 g/m*3 5.2 C 0 km/h
640 02-12-2009 08:01:01 4.8 C 5.83 g/m*3 4.8 C 0 km/h
641 02-12-2009 08:13:01 4.8 C 5.83 g/m*3 4.8 C 0 km/h
642 02-12-2009 08:25:02 4.6 C 5.82 g/m*3 4.6 C 0 km/h
643 02-12-2009 08:37:01 4.7 C 5.86 g/m*3 4.7 C 0 km/h
644 02-12-2009 08:49:02 4.7 C 5.8 g/m*3 4.7 C 0 km/h
645 02-12-2009 09:01:01 4.6 C 5.76 g/m*3 4.6 C 0 km/h
646 02-12-2009 09:13:01 4.6 C 5.76 g/m*3 4.6 C 0 km/h
647 02-12-2009 09:25:02 4.5 C 5.65 g/m*3 4.5 C 0 km/h
648 02-12-2009 09:37:01 4.5 C 5.65 g/m*3 4.5 C 0 km/h
649 02-12-2009 09:49:02 4.5 C 5.65 g/m*3 4.5 C 0 km/h
650 02-12-2009 10:01:02 4.7 C 5.66 g/m*3 4.7 C 0 km/h
Sensor: Nr:Datum:Temp:Abs-Feuchte:Windchill:Wind:
Aussen-T/F 651 02-12-2009 10:13:02 4.9 C 5.54 g/m*3 4.9 C 0 km/h
652 02-12-2009 10:25:02 5.2 C 5.23 g/m*3 5.2 C 0 km/h
653 02-12-2009 10:37:02 5.2 C 5.1 g/m*3 5.2 C 0 km/h
654 02-12-2009 10:49:02 5.2 C 5.03 g/m*3 5.2 C 0 km/h
655 02-12-2009 11:01:01 5.3 C 4.99 g/m*3 5.3 C 0 km/h
656 02-12-2009 11:13:01 5.5 C 5.06 g/m*3 5.5 C 0 km/h
657 02-12-2009 11:25:02 5.8 C 4.8 g/m*3 5.8 C 0 km/h
658 02-12-2009 11:37:02 5.7 C 4.84 g/m*3 5.7 C 0 km/h
659 02-12-2009 11:49:02 5.9 C 4.61 g/m*3 5.9 C 0 km/h
660 02-12-2009 12:01:02 6.2 C 4.41 g/m*3 6.2 C 0 km/h
661 02-12-2009 12:13:02 6.8 C 4.44 g/m*3 6.8 C 0 km/h
662 02-12-2009 12:25:02 7.2 C 4.32 g/m*3 7.2 C 0 km/h
663 02-12-2009 12:37:03 7.5 C 4.4 g/m*3 7.5 C 0 km/h
664 02-12-2009 12:49:02 7.6 C 4.27 g/m*3 7.6 C 0 km/h
665 02-12-2009 13:01:02 7.6 C 4.27 g/m*3 7.6 C 0 km/h
666 02-12-2009 13:13:02 7.7 C 4.3 g/m*3 7.7 C 0 km/h
667 02-12-2009 13:25:02 7.7 C 4.22 g/m*3 7.7 C 0 km/h
668 02-12-2009 13:37:02 7.9 C 4.35 g/m*3 7.9 C 0 km/h
669 02-12-2009 13:49:02 7.8 C 4.24 g/m*3 7.8 C 0 km/h
670 02-12-2009 14:01:02 8 C 4.38 g/m*3 8 C 0 km/h
671 02-12-2009 14:13:02 8 C 4.3 g/m*3 8 C 0 km/h
672 02-12-2009 14:25:02 7.8 C 4.24 g/m*3 7.8 C 0 km/h
673 02-12-2009 14:37:02 7.8 C 4.33 g/m*3 7.8 C 0 km/h
674 02-12-2009 14:49:02 7.8 C 4.33 g/m*3 7.8 C 0 km/h
675 02-12-2009 15:01:02 7.7 C 4.3 g/m*3 7.7 C 0 km/h
Sensor: Nr:Datum:Temp:Abs-Feuchte:Windchill:Wind:
Aussen-T/F 676 02-12-2009 15:13:02 7.7 C 4.38 g/m*3 7.7 C 0 km/h
677 02-12-2009 15:25:02 7.6 C 4.27 g/m*3 7.6 C 0 km/h
678 02-12-2009 15:37:02 7.6 C 4.19 g/m*3 7.6 C 0 km/h
679 02-12-2009 15:49:02 7.5 C 4.24 g/m*3 7.5 C 0 km/h
680 02-12-2009 16:01:02 7.4 C 4.21 g/m*3 7.4 C 0 km/h
681 02-12-2009 16:13:02 7.3 C 4.19 g/m*3 7.3 C 0 km/h
682 02-12-2009 16:25:02 7 C 4.26 g/m*3 7 C 0 km/h
683 02-12-2009 16:37:02 6.9 C 4.39 g/m*3 6.9 C 0 km/h
684 02-12-2009 16:49:02 6.8 C 4.44 g/m*3 6.8 C 0 km/h
685 02-12-2009 17:01:02 6.9 C 4.46 g/m*3 6.9 C 0 km/h
686 02-12-2009 17:13:02 6.8 C 4.51 g/m*3 6.8 C 0 km/h
687 02-12-2009 17:25:03 6.6 C 4.53 g/m*3 6.6 C 0 km/h
688 02-12-2009 17:37:02 6.5 C 4.5 g/m*3 6.5 C 0 km/h
689 02-12-2009 17:49:02 6.5 C 4.57 g/m*3 6.5 C 0 km/h
690 02-12-2009 18:01:02 6.5 C 4.65 g/m*3 6.5 C 0 km/h
691 02-12-2009 18:13:02 6.5 C 4.65 g/m*3 6.5 C 0 km/h
692 02-12-2009 18:25:02 6.4 C 4.62 g/m*3 6.4 C 0 km/h
693 02-12-2009 18:37:02 6.5 C 4.65 g/m*3 6.5 C 0 km/h
694 02-12-2009 18:49:02 6.4 C 4.69 g/m*3 6.4 C 0 km/h
695 02-12-2009 19:01:01 6.4 C 4.77 g/m*3 6.4 C 0 km/h
696 02-12-2009 19:13:01 6.5 C 4.8 g/m*3 6.5 C 0 km/h
697 02-12-2009 19:25:02 6.7 C 4.79 g/m*3 6.7 C 0 km/h
698 02-12-2009 19:37:01 6.6 C 4.83 g/m*3 6.6 C 0 km/h
699 02-12-2009 19:49:02 6.6 C 4.98 g/m*3 6.6 C 0 km/h
700 02-12-2009 20:01:01 6.4 C 4.99 g/m*3 6.4 C 0 km/h
Sensor: Nr:Datum:Temp:Abs-Feuchte:Windchill:Wind:
Aussen-T/F 701 02-12-2009 20:13:01 6.5 C 5.02 g/m*3 6.5 C 0 km/h
702 02-12-2009 20:25:01 6.6 C 5.06 g/m*3 6.6 C 0 km/h
703 02-12-2009 20:37:02 6.6 C 5.06 g/m*3 6.6 C 0 km/h
704 02-12-2009 20:49:02 6.7 C 5.09 g/m*3 6.7 C 0 km/h
705 02-12-2009 21:01:02 6.8 C 5.12 g/m*3 6.8 C 0 km/h
706 02-12-2009 21:13:02 6.9 C 5.16 g/m*3 6.9 C 0 km/h
707 02-12-2009 21:25:02 7 C 5.04 g/m*3 7 C 0 km/h
708 02-12-2009 21:37:02 6.9 C 5.08 g/m*3 6.9 C 0 km/h
709 02-12-2009 21:49:02 7 C 5.04 g/m*3 7 C 0 km/h
710 02-12-2009 22:01:02 7 C 5.11 g/m*3 7 C 0 km/h
711 02-12-2009 22:13:02 6.9 C 5.23 g/m*3 6.9 C 0 km/h
712 02-12-2009 22:26:02 7 C 5.19 g/m*3 7 C 0 km/h
713 02-12-2009 22:38:02 7 C 5.19 g/m*3 7 C 0 km/h
714 02-12-2009 22:50:02 6.9 C 5.31 g/m*3 6.9 C 0 km/h
715 02-12-2009 23:02:02 6.8 C 5.28 g/m*3 6.8 C 0 km/h
716 02-12-2009 23:14:02 6.7 C 5.32 g/m*3 6.7 C 0 km/h
717 02-12-2009 23:26:02 6.6 C 5.36 g/m*3 6.6 C 0 km/h
718 02-12-2009 23:38:02 6.4 C 5.36 g/m*3 6.4 C 0 km/h
719 02-12-2009 23:50:02 6.4 C 5.36 g/m*3 6.4 C 0 km/h
720 03-12-2009 00:02:03 6.6 C 5.44 g/m*3 6.6 C 0 km/h
721 03-12-2009 00:14:03 6.7 C 5.47 g/m*3 6.7 C 0 km/h
722 03-12-2009 00:26:03 6.8 C 5.51 g/m*3 6.8 C 0 km/h
723 03-12-2009 00:38:03 7 C 5.35 g/m*3 7 C 0 km/h
724 03-12-2009 00:50:03 7.1 C 5.3 g/m*3 7.1 C 0 km/h
725 03-12-2009 01:02:03 7.1 C 5.3 g/m*3 7.1 C 0 km/h
Sensor: Nr:Datum:Temp:Abs-Feuchte:Windchill:Wind:
Aussen-T/F 726 03-12-2009 01:14:03 7.2 C 5.34 g/m*3 7.2 C 0 km/h
727 03-12-2009 01:26:03 7.2 C 5.34 g/m*3 7.2 C 0 km/h
728 03-12-2009 01:38:03 7.1 C 5.3 g/m*3 7.1 C 0 km/h
729 03-12-2009 01:50:03 7 C 5.19 g/m*3 7 C 0 km/h
730 03-12-2009 02:02:03 7.1 C 5.23 g/m*3 7.1 C 0 km/h
731 03-12-2009 02:14:03 7.1 C 5.3 g/m*3 7.1 C 0 km/h
732 03-12-2009 02:26:03 7.2 C 5.26 g/m*3 7.2 C 0 km/h
733 03-12-2009 02:38:03 7.3 C 5.29 g/m*3 7.3 C 0 km/h
734 03-12-2009 02:50:03 7.5 C 5.28 g/m*3 7.5 C 0 km/h
735 03-12-2009 03:02:03 7.4 C 5.25 g/m*3 7.4 C 0 km/h
736 03-12-2009 03:14:03 7.4 C 5.41 g/m*3 7.4 C 0 km/h
737 03-12-2009 03:26:03 7.3 C 5.45 g/m*3 7.3 C 0 km/h
738 03-12-2009 03:38:03 7.5 C 5.68 g/m*3 7.5 C 0 km/h
739 03-12-2009 03:50:03 7.7 C 5.68 g/m*3 7.7 C 0 km/h
740 03-12-2009 04:02:03 7.8 C 5.79 g/m*3 7.8 C 0 km/h
741 03-12-2009 04:14:04 7.9 C 5.83 g/m*3 7.9 C 0 km/h
742 03-12-2009 04:26:04 8.1 C 5.82 g/m*3 8.1 C 0 km/h
743 03-12-2009 04:38:04 8.1 C 5.82 g/m*3 8.1 C 0 km/h
744 03-12-2009 04:50:04 7.8 C 5.96 g/m*3 7.8 C 0 km/h
745 03-12-2009 05:02:04 7.5 C 6.08 g/m*3 7.5 C 0 km/h
746 03-12-2009 05:14:04 7.3 C 6.24 g/m*3 7.3 C 0 km/h
747 03-12-2009 05:26:04 7.4 C 6.28 g/m*3 7.4 C 0 km/h
748 03-12-2009 05:38:04 7.6 C 6.36 g/m*3 7.6 C 0 km/h
749 03-12-2009 05:50:04 7.6 C 6.36 g/m*3 7.6 C 0 km/h
750 03-12-2009 06:02:04 7.8 C 6.45 g/m*3 7.8 C 0 km/h
Sensor: Nr:Datum:Temp:Abs-Feuchte:Windchill:Wind:
Aussen-T/F 751 03-12-2009 06:14:04 8 C 6.37 g/m*3 8 C 0 km/h
752 03-12-2009 06:26:04 7.9 C 6.32 g/m*3 7.9 C 0 km/h
753 03-12-2009 06:38:04 7.9 C 6.32 g/m*3 7.9 C 0 km/h
754 03-12-2009 06:50:04 7.7 C 6.24 g/m*3 7.7 C 0 km/h
755 03-12-2009 07:02:02 7.6 C 6.28 g/m*3 7.6 C 0 km/h
756 03-12-2009 07:14:02 7.5 C 6.24 g/m*3 7.5 C 0 km/h
757 03-12-2009 07:26:01 7.4 C 6.28 g/m*3 7.4 C 0 km/h
758 03-12-2009 07:38:02 7.5 C 6.32 g/m*3 7.5 C 0 km/h
759 03-12-2009 07:50:02 7.5 C 6.32 g/m*3 7.5 C 0 km/h
760 03-12-2009 08:02:02 7.6 C 6.2 g/m*3 7.6 C 0 km/h
761 03-12-2009 08:14:02 7.7 C 6.32 g/m*3 7.7 C 0 km/h
762 03-12-2009 08:26:02 7.7 C 6.32 g/m*3 7.7 C 0 km/h
763 03-12-2009 08:38:02 8 C 6.28 g/m*3 8 C 0 km/h
764 03-12-2009 08:50:02 8.2 C 6.2 g/m*3 8.2 C 0 km/h
765 03-12-2009 09:02:02 8.2 C 6.36 g/m*3 8.2 C 0 km/h
766 03-12-2009 09:14:02 7.9 C 6.41 g/m*3 7.9 C 0 km/h
767 03-12-2009 09:26:02 7.9 C 6.49 g/m*3 7.9 C 0 km/h
768 03-12-2009 09:38:02 8.1 C 6.49 g/m*3 8.1 C 0 km/h
769 03-12-2009 09:50:02 8.4 C 6.53 g/m*3 8.4 C 0 km/h
770 03-12-2009 10:02:02 8.5 C 6.49 g/m*3 8.5 C 0 km/h
771 03-12-2009 10:14:02 8.9 C 6.39 g/m*3 8.9 C 0 km/h
772 03-12-2009 10:26:02 9.2 C 6.43 g/m*3 9.2 C 0 km/h
773 03-12-2009 10:38:02 9.5 C 6.46 g/m*3 9.5 C 0 km/h
774 03-12-2009 10:50:02 9.6 C 6.41 g/m*3 9.6 C 0 km/h
775 03-12-2009 11:02:02 9.8 C 6.4 g/m*3 9.8 C 0 km/h
Sensor: Nr:Datum:Temp:Abs-Feuchte:Windchill:Wind:
Aussen-T/F 776 03-12-2009 11:14:02 10.1 C 6.34 g/m*3 10.1 C 0 km/h
777 03-12-2009 11:26:02 10.3 C 6.42 g/m*3 10.3 C 0 km/h
778 03-12-2009 11:38:02 10.3 C 6.32 g/m*3 10.3 C 0 km/h
779 03-12-2009 11:50:02 10 C 6.2 g/m*3 10 C 0 km/h
780 03-12-2009 12:02:01 10 C 6.2 g/m*3 10 C 0 km/h
781 03-12-2009 12:14:01 10.3 C 6.22 g/m*3 10.3 C 0 km/h
782 03-12-2009 12:26:02 10.5 C 6.21 g/m*3 10.5 C 0 km/h
783 03-12-2009 12:38:01 10.6 C 6.25 g/m*3 10.6 C 0 km/h
784 03-12-2009 12:50:02 10.5 C 6.21 g/m*3 10.5 C 0 km/h
785 03-12-2009 13:02:01 10.4 C 6.17 g/m*3 10.4 C 0 km/h
786 03-12-2009 13:14:01 10.6 C 6.25 g/m*3 10.6 C 0 km/h
787 03-12-2009 13:26:01 10.6 C 6.15 g/m*3 10.6 C 0 km/h
788 03-12-2009 13:38:02 10.5 C 6.21 g/m*3 10.5 C 0 km/h
789 03-12-2009 13:50:02 10.6 C 6.15 g/m*3 10.6 C 0 km/h
790 03-12-2009 14:02:02 10.4 C 6.17 g/m*3 10.4 C 0 km/h
791 03-12-2009 14:14:02 10.6 C 6.15 g/m*3 10.6 C 0 km/h
792 03-12-2009 14:26:02 10.6 C 6.15 g/m*3 10.6 C 0 km/h
793 03-12-2009 14:38:02 10.4 C 6.07 g/m*3 10.4 C 0 km/h
794 03-12-2009 14:50:01 10.3 C 6.13 g/m*3 10.3 C 0 km/h
795 03-12-2009 15:02:02 9.9 C 6.35 g/m*3 9.9 C 0 km/h
796 03-12-2009 15:14:02 9.9 C 6.35 g/m*3 9.9 C 0 km/h
797 03-12-2009 15:26:01 9.8 C 6.31 g/m*3 9.8 C 0 km/h
798 03-12-2009 15:38:02 9.6 C 6.23 g/m*3 9.6 C 0 km/h
799 03-12-2009 15:50:02 9.4 C 6.24 g/m*3 9.4 C 0 km/h
800 03-12-2009 16:02:02 9.3 C 6.2 g/m*3 9.3 C 0 km/h
Sensor: Nr:Datum:Temp:Abs-Feuchte:Windchill:Wind:
Aussen-T/F 801 03-12-2009 16:14:02 9.3 C 6.2 g/m*3 9.3 C 0 km/h
802 03-12-2009 16:26:01 9.4 C 6.15 g/m*3 9.4 C 0 km/h
803 03-12-2009 16:38:02 9.4 C 6.15 g/m*3 9.4 C 0 km/h
804 03-12-2009 16:50:02 9.5 C 6.19 g/m*3 9.5 C 0 km/h
805 03-12-2009 17:02:02 9.2 C 6.16 g/m*3 9.2 C 0 km/h
806 03-12-2009 17:14:02 9.4 C 6.15 g/m*3 9.4 C 0 km/h
807 03-12-2009 17:26:01 9.5 C 6.19 g/m*3 9.5 C 0 km/h
808 03-12-2009 17:38:02 9.5 C 6.19 g/m*3 9.5 C 0 km/h
809 03-12-2009 17:50:02 8.9 C 6.31 g/m*3 8.9 C 0 km/h
810 03-12-2009 18:02:02 8.5 C 6.4 g/m*3 8.5 C 0 km/h
811 03-12-2009 18:14:02 8.7 C 6.49 g/m*3 8.7 C 0 km/h
812 03-12-2009 18:26:02 8.7 C 6.49 g/m*3 8.7 C 0 km/h
813 03-12-2009 18:38:02 8.8 C 6.53 g/m*3 8.8 C 0 km/h
814 03-12-2009 18:50:02 8.9 C 6.48 g/m*3 8.9 C 0 km/h
815 03-12-2009 19:02:02 8.9 C 6.48 g/m*3 8.9 C 0 km/h
816 03-12-2009 19:14:02 8.7 C 6.31 g/m*3 8.7 C 0 km/h
817 03-12-2009 19:26:02 9.1 C 6.21 g/m*3 9.1 C 0 km/h
818 03-12-2009 19:38:02 9.4 C 6.15 g/m*3 9.4 C 0 km/h
819 03-12-2009 19:50:02 9.3 C 6.02 g/m*3 9.3 C 0 km/h
820 03-12-2009 20:02:01 9.2 C 5.98 g/m*3 9.2 C 0 km/h
821 03-12-2009 20:14:01 9.2 C 5.98 g/m*3 9.2 C 0 km/h
822 03-12-2009 20:26:02 9.1 C 5.94 g/m*3 9.1 C 0 km/h
823 03-12-2009 20:38:01 9.2 C 5.98 g/m*3 9.2 C 0 km/h
824 03-12-2009 20:50:02 9 C 5.91 g/m*3 9 C 0 km/h
825 03-12-2009 21:02:01 8.8 C 5.92 g/m*3 8.8 C 0 km/h
Sensor: Nr:Datum:Temp:Abs-Feuchte:Windchill:Wind:
Aussen-T/F 826 03-12-2009 21:14:01 8.9 C 5.96 g/m*3 8.9 C 0 km/h
827 03-12-2009 21:26:02 8.6 C 5.93 g/m*3 8.6 C 0 km/h
828 03-12-2009 21:38:01 8.3 C 5.9 g/m*3 8.3 C 0 km/h
829 03-12-2009 21:51:03 8.3 C 5.98 g/m*3 8.3 C 0 km/h
830 03-12-2009 22:03:03 8.5 C 6.06 g/m*3 8.5 C 0 km/h
831 03-12-2009 22:15:03 8.2 C 5.95 g/m*3 8.2 C 0 km/h
832 03-12-2009 22:27:03 8.2 C 6.03 g/m*3 8.2 C 0 km/h
833 03-12-2009 22:39:03 8.5 C 6.06 g/m*3 8.5 C 0 km/h
834 03-12-2009 22:51:03 8 C 6.04 g/m*3 8 C 0 km/h
835 03-12-2009 23:03:03 7 C 6.04 g/m*3 7 C 0 km/h
836 03-12-2009 23:15:03 6.8 C 6.12 g/m*3 6.8 C 0 km/h
837 03-12-2009 23:27:03 6.6 C 6.11 g/m*3 6.6 C 0 km/h
838 03-12-2009 23:39:03 6.5 C 5.92 g/m*3 6.5 C 0 km/h
839 03-12-2009 23:51:03 6.5 C 5.77 g/m*3 6.5 C 0 km/h
840 04-12-2009 00:03:03 6.6 C 5.51 g/m*3 6.6 C 0 km/h
841 04-12-2009 00:15:03 6.7 C 5.47 g/m*3 6.7 C 0 km/h
842 04-12-2009 00:27:03 6.8 C 5.43 g/m*3 6.8 C 0 km/h
843 04-12-2009 00:39:03 6.7 C 5.32 g/m*3 6.7 C 0 km/h
844 04-12-2009 00:51:03 6.6 C 5.28 g/m*3 6.6 C 0 km/h
845 04-12-2009 01:03:03 6.4 C 5.22 g/m*3 6.4 C 0 km/h
846 04-12-2009 01:15:03 6.2 C 5.22 g/m*3 6.2 C 0 km/h
847 04-12-2009 01:27:03 6.3 C 5.26 g/m*3 6.3 C 0 km/h
848 04-12-2009 01:39:03 6.2 C 5.07 g/m*3 6.2 C 0 km/h
849 04-12-2009 01:51:03 6.2 C 4.71 g/m*3 6.2 C 0 km/h
850 04-12-2009 02:03:04 6.2 C 4.78 g/m*3 6.2 C 0 km/h
Sensor: Nr:Datum:Temp:Abs-Feuchte:Windchill:Wind:
Aussen-T/F 851 04-12-2009 02:15:04 6.2 C 5 g/m*3 6.2 C 0 km/h
852 04-12-2009 02:27:04 5.6 C 5.16 g/m*3 5.6 C 0 km/h
853 04-12-2009 02:39:04 5.6 C 5.23 g/m*3 5.6 C 0 km/h
854 04-12-2009 02:51:04 5.6 C 5.16 g/m*3 5.6 C 0 km/h
855 04-12-2009 03:03:04 5.6 C 5.16 g/m*3 5.6 C 0 km/h
856 04-12-2009 03:15:04 5.5 C 5.2 g/m*3 5.5 C 0 km/h
857 04-12-2009 03:27:04 5.4 C 5.16 g/m*3 5.4 C 0 km/h
858 04-12-2009 03:39:04 5.4 C 5.16 g/m*3 5.4 C 0 km/h
859 04-12-2009 03:51:04 5.4 C 5.16 g/m*3 5.4 C 0 km/h
860 04-12-2009 04:03:04 5.5 C 5.2 g/m*3 5.5 C 0 km/h
861 04-12-2009 04:15:04 5.4 C 4.81 g/m*3 5.4 C 0 km/h
862 04-12-2009 04:27:04 5 C 4.62 g/m*3 5 C 0 km/h
863 04-12-2009 04:39:04 4.8 C 4.63 g/m*3 4.8 C 0 km/h
864 04-12-2009 04:51:04 4.6 C 4.5 g/m*3 4.6 C 0 km/h
865 04-12-2009 05:03:04 4.3 C 4.48 g/m*3 4.3 C 0 km/h
866 04-12-2009 05:15:04 4 C 4.51 g/m*3 4 C 0 km/h
867 04-12-2009 05:27:04 3.7 C 4.49 g/m*3 3.7 C 0 km/h
868 04-12-2009 05:39:04 3.4 C 4.52 g/m*3 3.4 C 0 km/h
869 04-12-2009 05:51:04 3.1 C 4.49 g/m*3 3.1 C 0 km/h
870 04-12-2009 06:03:04 3.2 C 4.64 g/m*3 3.2 C 0 km/h
871 04-12-2009 06:15:02 3.3 C 4.67 g/m*3 3.3 C 0 km/h
872 04-12-2009 06:27:02 3.1 C 4.61 g/m*3 3.1 C 0 km/h
873 04-12-2009 06:39:02 3.1 C 4.67 g/m*3 3.1 C 0 km/h
874 04-12-2009 06:51:02 3.4 C 4.76 g/m*3 3.4 C 0 km/h
875 04-12-2009 07:03:02 3.9 C 4.74 g/m*3 3.9 C 0 km/h
Sensor: Nr:Datum:Temp:Abs-Feuchte:Windchill:Wind:
Aussen-T/F 876 04-12-2009 07:15:03 4.1 C 4.61 g/m*3 4.1 C 0 km/h
877 04-12-2009 07:27:03 4.1 C 4.54 g/m*3 4.1 C 0 km/h
878 04-12-2009 07:39:02 3.4 C 4.46 g/m*3 3.4 C 0 km/h
879 04-12-2009 07:51:01 3.1 C 4.43 g/m*3 3.1 C 0 km/h
880 04-12-2009 08:03:01 2.8 C 4.46 g/m*3 2.8 C 0 km/h
881 04-12-2009 08:15:01 2.7 C 4.49 g/m*3 2.7 C 0 km/h
882 04-12-2009 08:27:01 3 C 4.58 g/m*3 3 C 0 km/h
883 04-12-2009 08:39:00 3.3 C 4.67 g/m*3 3.3 C 0 km/h
884 04-12-2009 08:51:03 3.6 C 4.7 g/m*3 3.6 C 0 km/h
885 04-12-2009 09:03:02 3.8 C 4.64 g/m*3 3.8 C 0 km/h
886 04-12-2009 09:15:02 3.9 C 4.61 g/m*3 3.9 C 0 km/h
887 04-12-2009 09:27:03 4.1 C 4.54 g/m*3 4.1 C 0 km/h
888 04-12-2009 09:39:02 4.2 C 4.45 g/m*3 4.2 C 0 km/h
889 04-12-2009 09:51:02 4.3 C 4.28 g/m*3 4.3 C 0 km/h
890 04-12-2009 10:03:01 4 C 4.13 g/m*3 4 C 0 km/h
891 04-12-2009 10:15:02 4 C 4.13 g/m*3 4 C 0 km/h
892 04-12-2009 10:27:02 4.1 C 4.16 g/m*3 4.1 C 0 km/h
893 04-12-2009 10:39:02 4.2 C 4.12 g/m*3 4.2 C 0 km/h
894 04-12-2009 10:51:02 4.2 C 4.12 g/m*3 4.2 C 0 km/h
895 04-12-2009 11:03:03 4.1 C 4.1 g/m*3 4.1 C 0 km/h
896 04-12-2009 11:15:02 4.1 C 4.1 g/m*3 4.1 C 0 km/h
897 04-12-2009 11:27:02 4.2 C 4.06 g/m*3 4.2 C 0 km/h
898 04-12-2009 11:39:02 4.1 C 4.1 g/m*3 4.1 C 0 km/h
899 04-12-2009 11:51:01 4.3 C 4.09 g/m*3 4.3 C 0 km/h
900 04-12-2009 12:03:02 4.6 C 4.17 g/m*3 4.6 C 0 km/h
Sensor: Nr:Datum:Temp:Abs-Feuchte:Windchill:Wind:
Aussen-T/F 901 04-12-2009 12:15:01 5.1 C 4.1 g/m*3 5.1 C 0 km/h
902 04-12-2009 12:27:01 5.4 C 4.12 g/m*3 5.4 C 0 km/h
903 04-12-2009 12:39:01 5.5 C 4.07 g/m*3 5.5 C 0 km/h
904 04-12-2009 12:51:01 5.7 C 4.2 g/m*3 5.7 C 0 km/h
905 04-12-2009 13:03:02 5.5 C 4 g/m*3 5.5 C 0 km/h
906 04-12-2009 13:15:01 5 C 3.87 g/m*3 5 C 0 km/h
907 04-12-2009 13:27:01 4.9 C 3.92 g/m*3 4.9 C 0 km/h
908 04-12-2009 13:39:02 4.9 C 3.85 g/m*3 4.9 C 0 km/h
909 04-12-2009 13:51:02 4.9 C 3.85 g/m*3 4.9 C 0 km/h
910 04-12-2009 14:03:02 4.8 C 3.82 g/m*3 4.8 C 0 km/h
911 04-12-2009 14:15:02 4.8 C 3.82 g/m*3 4.8 C 0 km/h
912 04-12-2009 14:27:02 4.9 C 3.78 g/m*3 4.9 C 0 km/h
913 04-12-2009 14:39:02 5.1 C 3.69 g/m*3 5.1 C 0 km/h
914 04-12-2009 14:51:02 4.9 C 3.71 g/m*3 4.9 C 0 km/h
915 04-12-2009 15:03:03 4.8 C 3.62 g/m*3 4.8 C 0 km/h
916 04-12-2009 15:15:02 4.7 C 3.6 g/m*3 4.7 C 0 km/h
917 04-12-2009 15:27:02 4.5 C 3.68 g/m*3 4.5 C 0 km/h
918 04-12-2009 15:39:03 4.7 C 3.66 g/m*3 4.7 C 0 km/h
919 04-12-2009 15:51:02 4.9 C 3.65 g/m*3 4.9 C 0 km/h
920 04-12-2009 16:03:02 4.9 C 3.78 g/m*3 4.9 C 0 km/h
921 04-12-2009 16:15:03 4.9 C 3.71 g/m*3 4.9 C 0 km/h
922 04-12-2009 16:27:03 4.9 C 3.78 g/m*3 4.9 C 0 km/h
923 04-12-2009 16:39:02 4.9 C 3.78 g/m*3 4.9 C 0 km/h
924 04-12-2009 16:51:03 4.8 C 3.82 g/m*3 4.8 C 0 km/h
925 04-12-2009 17:03:02 4.8 C 3.89 g/m*3 4.8 C 0 km/h
Sensor: Nr:Datum:Temp:Abs-Feuchte:Windchill:Wind:
Aussen-T/F 926 04-12-2009 17:15:03 4.7 C 3.93 g/m*3 4.7 C 0 km/h
927 04-12-2009 17:27:03 4.7 C 4 g/m*3 4.7 C 0 km/h
928 04-12-2009 17:39:02 4.7 C 4.06 g/m*3 4.7 C 0 km/h
929 04-12-2009 17:51:02 4.8 C 4.09 g/m*3 4.8 C 0 km/h
930 04-12-2009 18:03:02 4.8 C 4.09 g/m*3 4.8 C 0 km/h
931 04-12-2009 18:15:02 4.8 C 4.16 g/m*3 4.8 C 0 km/h
932 04-12-2009 18:27:02 4.7 C 4.2 g/m*3 4.7 C 0 km/h
933 04-12-2009 18:39:02 4.9 C 4.19 g/m*3 4.9 C 0 km/h
934 04-12-2009 18:51:02 5 C 4.08 g/m*3 5 C 0 km/h
935 04-12-2009 19:03:01 5 C 4.08 g/m*3 5 C 0 km/h
936 04-12-2009 19:15:02 5 C 4.08 g/m*3 5 C 0 km/h
937 04-12-2009 19:27:02 5 C 4.14 g/m*3 5 C 0 km/h
938 04-12-2009 19:39:02 5 C 4.14 g/m*3 5 C 0 km/h
939 04-12-2009 19:51:01 5.1 C 4.17 g/m*3 5.1 C 0 km/h
940 04-12-2009 20:03:02 5.1 C 4.17 g/m*3 5.1 C 0 km/h
941 04-12-2009 20:15:01 5 C 4.21 g/m*3 5 C 0 km/h
942 04-12-2009 20:27:01 5 C 4.21 g/m*3 5 C 0 km/h
943 04-12-2009 20:39:02 5 C 4.21 g/m*3 5 C 0 km/h
944 04-12-2009 20:51:02 5 C 4.28 g/m*3 5 C 0 km/h
945 04-12-2009 21:03:02 5 C 4.28 g/m*3 5 C 0 km/h
946 04-12-2009 21:15:01 5.1 C 4.31 g/m*3 5.1 C 0 km/h
947 04-12-2009 21:27:01 5.1 C 4.31 g/m*3 5.1 C 0 km/h
948 04-12-2009 21:39:02 5.2 C 4.34 g/m*3 5.2 C 0 km/h
949 04-12-2009 21:51:02 5.2 C 4.34 g/m*3 5.2 C 0 km/h
950 04-12-2009 22:04:03 5.2 C 4.34 g/m*3 5.2 C 0 km/h
Sensor: Nr:Datum:Temp:Abs-Feuchte:Windchill:Wind:
Aussen-T/F 951 04-12-2009 22:16:03 5.2 C 4.34 g/m*3 5.2 C 0 km/h
952 04-12-2009 22:28:03 5.1 C 4.31 g/m*3 5.1 C 0 km/h
953 04-12-2009 22:40:03 5.1 C 4.17 g/m*3 5.1 C 0 km/h
954 04-12-2009 22:52:03 5.1 C 4.17 g/m*3 5.1 C 0 km/h
955 04-12-2009 23:04:03 4.7 C 4.06 g/m*3 4.7 C 0 km/h
956 04-12-2009 23:16:03 4.1 C 4.03 g/m*3 4.1 C 0 km/h
957 04-12-2009 23:28:03 3.6 C 4.15 g/m*3 3.6 C 0 km/h
958 04-12-2009 23:40:03 3.2 C 4.16 g/m*3 3.2 C 0 km/h
959 04-12-2009 23:52:03 3 C 4.16 g/m*3 3 C 0 km/h
960 05-12-2009 00:04:03 2.7 C 4.2 g/m*3 2.7 C 0 km/h
961 05-12-2009 00:16:03 2.5 C 4.25 g/m*3 2.5 C 0 km/h
962 05-12-2009 00:28:03 2.3 C 4.2 g/m*3 2.3 C 0 km/h
963 05-12-2009 00:40:03 2.7 C 4.37 g/m*3 2.7 C 0 km/h
964 05-12-2009 00:52:03 3.2 C 4.4 g/m*3 3.2 C 0 km/h
965 05-12-2009 01:04:03 3.3 C 4.43 g/m*3 3.3 C 0 km/h
966 05-12-2009 01:16:03 2.9 C 4.25 g/m*3 2.9 C 0 km/h
967 05-12-2009 01:28:04 2.7 C 4.31 g/m*3 2.7 C 0 km/h
968 05-12-2009 01:40:04 2.8 C 4.4 g/m*3 2.8 C 0 km/h
969 05-12-2009 01:52:04 3.1 C 4.37 g/m*3 3.1 C 0 km/h
970 05-12-2009 02:04:04 2.9 C 4.31 g/m*3 2.9 C 0 km/h
971 05-12-2009 02:16:04 2.8 C 4.28 g/m*3 2.8 C 0 km/h
972 05-12-2009 02:28:04 2.8 C 4.28 g/m*3 2.8 C 0 km/h
973 05-12-2009 02:40:04 2.7 C 4.31 g/m*3 2.7 C 0 km/h
974 05-12-2009 02:52:04 2.7 C 4.31 g/m*3 2.7 C 0 km/h
975 05-12-2009 03:04:04 2.7 C 4.37 g/m*3 2.7 C 0 km/h
Sensor: Nr:Datum:Temp:Abs-Feuchte:Windchill:Wind:
Aussen-T/F 976 05-12-2009 03:16:04 3 C 4.34 g/m*3 3 C 0 km/h
977 05-12-2009 03:28:04 2.9 C 4.37 g/m*3 2.9 C 0 km/h
978 05-12-2009 03:40:04 3.2 C 4.4 g/m*3 3.2 C 0 km/h
979 05-12-2009 03:52:04 3.3 C 4.37 g/m*3 3.3 C 0 km/h
980 05-12-2009 04:04:04 3.3 C 4.37 g/m*3 3.3 C 0 km/h
981 05-12-2009 04:16:04 3.4 C 4.4 g/m*3 3.4 C 0 km/h
982 05-12-2009 04:28:04 3.4 C 4.34 g/m*3 3.4 C 0 km/h
983 05-12-2009 04:40:04 3.2 C 4.28 g/m*3 3.2 C 0 km/h
984 05-12-2009 04:52:04 3.2 C 4.34 g/m*3 3.2 C 0 km/h
985 05-12-2009 05:04:04 3.3 C 4.37 g/m*3 3.3 C 0 km/h
986 05-12-2009 05:16:05 3.3 C 4.31 g/m*3 3.3 C 0 km/h
987 05-12-2009 05:28:05 3.4 C 4.34 g/m*3 3.4 C 0 km/h
988 05-12-2009 05:40:05 3.4 C 4.34 g/m*3 3.4 C 0 km/h
989 05-12-2009 05:52:05 3.4 C 4.28 g/m*3 3.4 C 0 km/h
990 05-12-2009 06:04:05 3.4 C 4.28 g/m*3 3.4 C 0 km/h
991 05-12-2009 06:16:05 3.4 C 4.28 g/m*3 3.4 C 0 km/h
992 05-12-2009 06:28:05 3.5 C 4.24 g/m*3 3.5 C 0 km/h
993 05-12-2009 06:40:05 3.5 C 4.24 g/m*3 3.5 C 0 km/h
994 05-12-2009 06:52:05 3.5 C 4.24 g/m*3 3.5 C 0 km/h
995 05-12-2009 07:04:05 3.5 C 4.18 g/m*3 3.5 C 0 km/h
996 05-12-2009 07:16:05 3.7 C 4.18 g/m*3 3.7 C 0 km/h
997 05-12-2009 07:28:05 3.7 C 4.11 g/m*3 3.7 C 0 km/h
998 05-12-2009 07:40:02 3.8 C 4.08 g/m*3 3.8 C 0 km/h
999 05-12-2009 07:52:01 3.8 C 4.08 g/m*3 3.8 C 0 km/h
1000 05-12-2009 08:04:01 3.9 C 4.11 g/m*3 3.9 C 0 km/h
Sensor: Nr:Datum:Temp:Abs-Feuchte:Windchill:Wind:
Aussen-T/F 1001 05-12-2009 08:16:02 4 C 4.07 g/m*3 4 C 0 km/h
1002 05-12-2009 08:28:02 4 C 4.01 g/m*3 4 C 0 km/h
1003 05-12-2009 08:40:01 4.1 C 4.03 g/m*3 4.1 C 0 km/h
1004 05-12-2009 08:52:03 4.1 C 4.03 g/m*3 4.1 C 0 km/h
1005 05-12-2009 09:04:02 4.2 C 4.06 g/m*3 4.2 C 0 km/h
1006 05-12-2009 09:16:02 4.2 C 4.12 g/m*3 4.2 C 0 km/h
1007 05-12-2009 09:28:02 4.3 C 4.15 g/m*3 4.3 C 0 km/h
1008 05-12-2009 09:40:02 4.4 C 4.11 g/m*3 4.4 C 0 km/h
1009 05-12-2009 09:52:02 4.6 C 4.17 g/m*3 4.6 C 0 km/h
1010 05-12-2009 10:04:02 4.7 C 4.13 g/m*3 4.7 C 0 km/h
1011 05-12-2009 10:16:02 4.8 C 4.16 g/m*3 4.8 C 0 km/h
1012 05-12-2009 10:28:03 5.1 C 4.17 g/m*3 5.1 C 0 km/h
1013 05-12-2009 10:40:02 5.2 C 4.13 g/m*3 5.2 C 0 km/h
1014 05-12-2009 10:52:02 5.3 C 4.23 g/m*3 5.3 C 0 km/h
1015 05-12-2009 11:04:01 5.3 C 4.3 g/m*3 5.3 C 0 km/h
1016 05-12-2009 11:16:02 5.2 C 4.54 g/m*3 5.2 C 0 km/h
1017 05-12-2009 11:28:02 5.2 C 4.68 g/m*3 5.2 C 0 km/h
1018 05-12-2009 11:40:02 5.6 C 4.81 g/m*3 5.6 C 0 km/h
1019 05-12-2009 11:52:02 5.7 C 4.77 g/m*3 5.7 C 0 km/h
1020 05-12-2009 12:04:02 6 C 4.79 g/m*3 6 C 0 km/h
1021 05-12-2009 12:16:02 6.3 C 4.89 g/m*3 6.3 C 0 km/h
1022 05-12-2009 12:28:02 6.2 C 4.93 g/m*3 6.2 C 0 km/h
1023 05-12-2009 12:40:03 6.4 C 4.99 g/m*3 6.4 C 0 km/h
1024 05-12-2009 12:52:02 6.4 C 5.07 g/m*3 6.4 C 0 km/h
1025 05-12-2009 13:04:02 6.6 C 5.13 g/m*3 6.6 C 0 km/h
Sensor: Nr:Datum:Temp:Abs-Feuchte:Windchill:Wind:
Aussen-T/F 1026 05-12-2009 13:16:01 6.8 C 5.2 g/m*3 6.8 C 0 km/h
1027 05-12-2009 13:28:01 6.8 C 5.28 g/m*3 6.8 C 0 km/h
1028 05-12-2009 13:40:02 6.9 C 5.31 g/m*3 6.9 C 0 km/h
1029 05-12-2009 13:52:02 7 C 5.27 g/m*3 7 C 0 km/h
1030 05-12-2009 14:04:02 7.4 C 5.33 g/m*3 7.4 C 0 km/h
1031 05-12-2009 14:16:02 7.2 C 5.34 g/m*3 7.2 C 0 km/h
1032 05-12-2009 14:28:02 7.1 C 5.46 g/m*3 7.1 C 0 km/h
1033 05-12-2009 14:40:02 6.9 C 5.54 g/m*3 6.9 C 0 km/h
1034 05-12-2009 14:52:02 6.9 C 5.62 g/m*3 6.9 C 0 km/h
1035 05-12-2009 15:04:02 6.8 C 5.66 g/m*3 6.8 C 0 km/h
1036 05-12-2009 15:16:02 6.6 C 5.66 g/m*3 6.6 C 0 km/h
1037 05-12-2009 15:28:02 6.3 C 5.77 g/m*3 6.3 C 0 km/h
1038 05-12-2009 15:40:02 6.3 C 5.85 g/m*3 6.3 C 0 km/h
1039 05-12-2009 15:52:02 6.2 C 5.88 g/m*3 6.2 C 0 km/h
1040 05-12-2009 16:04:02 6.2 C 5.96 g/m*3 6.2 C 0 km/h
1041 05-12-2009 16:16:03 6.1 C 5.99 g/m*3 6.1 C 0 km/h
1042 05-12-2009 16:28:03 6.1 C 6.06 g/m*3 6.1 C 0 km/h
1043 05-12-2009 16:40:02 6.1 C 6.14 g/m*3 6.1 C 0 km/h
1044 05-12-2009 16:52:02 6.2 C 6.18 g/m*3 6.2 C 0 km/h
1045 05-12-2009 17:04:02 6.2 C 6.25 g/m*3 6.2 C 0 km/h
1046 05-12-2009 17:16:03 6.4 C 6.33 g/m*3 6.4 C 0 km/h
1047 05-12-2009 17:28:03 6.5 C 6.37 g/m*3 6.5 C 0 km/h
1048 05-12-2009 17:40:02 6.7 C 6.38 g/m*3 6.7 C 0 km/h
1049 05-12-2009 17:52:03 6.9 C 6.39 g/m*3 6.9 C 0 km/h
1050 05-12-2009 18:04:02 7.1 C 6.24 g/m*3 7.1 C 0 km/h
Sensor: Nr:Datum:Temp:Abs-Feuchte:Windchill:Wind:
Aussen-T/F 1051 05-12-2009 18:16:02 7.3 C 6.24 g/m*3 7.3 C 0 km/h
1052 05-12-2009 18:28:02 7.3 C 6.24 g/m*3 7.3 C 0 km/h
1053 05-12-2009 18:40:02 7.3 C 6.24 g/m*3 7.3 C 0 km/h
1054 05-12-2009 18:52:02 7.3 C 6.32 g/m*3 7.3 C 0 km/h
1055 05-12-2009 19:04:02 7.4 C 6.36 g/m*3 7.4 C 0 km/h
1056 05-12-2009 19:16:02 7.3 C 6.32 g/m*3 7.3 C 0 km/h
1057 05-12-2009 19:28:02 7.4 C 6.36 g/m*3 7.4 C 0 km/h
1058 05-12-2009 19:40:02 7.4 C 6.36 g/m*3 7.4 C 0 km/h
1059 05-12-2009 19:52:02 7.5 C 6.48 g/m*3 7.5 C 0 km/h
1060 05-12-2009 20:04:01 7.6 C 6.61 g/m*3 7.6 C 0 km/h
1061 05-12-2009 20:16:02 7.6 C 6.53 g/m*3 7.6 C 0 km/h
1062 05-12-2009 20:28:02 7.6 C 6.61 g/m*3 7.6 C 0 km/h
1063 05-12-2009 20:40:02 7.8 C 6.69 g/m*3 7.8 C 0 km/h
1064 05-12-2009 20:52:02 7.8 C 6.69 g/m*3 7.8 C 0 km/h
1065 05-12-2009 21:04:02 7.9 C 6.74 g/m*3 7.9 C 0 km/h
1066 05-12-2009 21:16:02 7.9 C 6.74 g/m*3 7.9 C 0 km/h
1067 05-12-2009 21:28:02 7.8 C 6.69 g/m*3 7.8 C 0 km/h
1068 05-12-2009 21:40:03 7.9 C 6.82 g/m*3 7.9 C 0 km/h
1069 05-12-2009 21:53:02 7.8 C 6.77 g/m*3 7.8 C 0 km/h
1070 05-12-2009 22:05:02 7.8 C 6.77 g/m*3 7.8 C 0 km/h
1071 05-12-2009 22:17:02 7.9 C 6.82 g/m*3 7.9 C 0 km/h
1072 05-12-2009 22:29:02 7.9 C 6.82 g/m*3 7.9 C 0 km/h
1073 05-12-2009 22:41:02 7.8 C 6.77 g/m*3 7.8 C 0 km/h
1074 05-12-2009 22:53:02 7.9 C 6.82 g/m*3 7.9 C 0 km/h
1075 05-12-2009 23:05:02 8 C 6.86 g/m*3 8 C 0 km/h
Sensor: Nr:Datum:Temp:Abs-Feuchte:Windchill:Wind:
Aussen-T/F 1076 05-12-2009 23:17:03 8 C 6.86 g/m*3 8 C 0 km/h
1077 05-12-2009 23:29:03 8.1 C 6.82 g/m*3 8.1 C 0 km/h
1078 05-12-2009 23:41:03 8.2 C 6.95 g/m*3 8.2 C 0 km/h
1079 05-12-2009 23:53:03 8.4 C 6.96 g/m*3 8.4 C 0 km/h
1080 06-12-2009 00:05:03 8.6 C 7.05 g/m*3 8.6 C 0 km/h
1081 06-12-2009 00:17:03 8.9 C 7.1 g/m*3 8.9 C 0 km/h
1082 06-12-2009 00:29:03 9 C 6.96 g/m*3 9 C 0 km/h
1083 06-12-2009 00:41:03 9.1 C 7.01 g/m*3 9.1 C 0 km/h
1084 06-12-2009 00:53:03 9.2 C 7.05 g/m*3 9.2 C 0 km/h
1085 06-12-2009 01:05:03 9.3 C 7.1 g/m*3 9.3 C 0 km/h
1086 06-12-2009 01:17:03 9.4 C 7.15 g/m*3 9.4 C 0 km/h
1087 06-12-2009 01:29:03 9.3 C 7.1 g/m*3 9.3 C 0 km/h
1088 06-12-2009 01:41:03 9.5 C 7.19 g/m*3 9.5 C 0 km/h
1089 06-12-2009 01:53:03 9.4 C 7.15 g/m*3 9.4 C 0 km/h
1090 06-12-2009 02:05:03 9.5 C 7.19 g/m*3 9.5 C 0 km/h
1091 06-12-2009 02:17:03 9.6 C 7.15 g/m*3 9.6 C 0 km/h
1092 06-12-2009 02:29:03 9.6 C 7.15 g/m*3 9.6 C 0 km/h
1093 06-12-2009 02:41:03 9.7 C 7.19 g/m*3 9.7 C 0 km/h
1094 06-12-2009 02:53:03 9.8 C 7.14 g/m*3 9.8 C 0 km/h
1095 06-12-2009 03:05:04 9.7 C 7.1 g/m*3 9.7 C 0 km/h
1096 06-12-2009 03:17:04 10 C 7.05 g/m*3 10 C 0 km/h
1097 06-12-2009 03:29:04 10 C 7.05 g/m*3 10 C 0 km/h
1098 06-12-2009 03:41:04 9.9 C 7.19 g/m*3 9.9 C 0 km/h
1099 06-12-2009 03:53:04 9.9 C 7.19 g/m*3 9.9 C 0 km/h
1100 06-12-2009 04:05:04 10 C 7.14 g/m*3 10 C 0 km/h
Sensor: Nr:Datum:Temp:Abs-Feuchte:Windchill:Wind:
Aussen-T/F 1101 06-12-2009 04:17:04 10 C 7.05 g/m*3 10 C 0 km/h
1102 06-12-2009 04:29:04 10 C 7.14 g/m*3 10 C 0 km/h
1103 06-12-2009 04:41:04 9.9 C 7.19 g/m*3 9.9 C 0 km/h
1104 06-12-2009 04:53:04 9.7 C 7.19 g/m*3 9.7 C 0 km/h
1105 06-12-2009 05:05:04 9.9 C 7.28 g/m*3 9.9 C 0 km/h
1106 06-12-2009 05:17:04 10.2 C 7.23 g/m*3 10.2 C 0 km/h
1107 06-12-2009 05:29:04 9.8 C 7.33 g/m*3 9.8 C 0 km/h
1108 06-12-2009 05:41:04 9.4 C 7.33 g/m*3 9.4 C 0 km/h
1109 06-12-2009 05:53:04 9.3 C 7.37 g/m*3 9.3 C 0 km/h
1110 06-12-2009 06:05:04 9.4 C 7.42 g/m*3 9.4 C 0 km/h
1111 06-12-2009 06:17:04 9.6 C 7.42 g/m*3 9.6 C 0 km/h
1112 06-12-2009 06:29:04 9.2 C 7.41 g/m*3 9.2 C 0 km/h
1113 06-12-2009 06:41:04 8.8 C 7.49 g/m*3 8.8 C 0 km/h
1114 06-12-2009 06:53:05 8.9 C 7.71 g/m*3 8.9 C 0 km/h
1115 06-12-2009 07:05:05 8.8 C 7.66 g/m*3 8.8 C 0 km/h
1116 06-12-2009 07:17:05 8.6 C 7.56 g/m*3 8.6 C 0 km/h
1117 06-12-2009 07:29:05 8.4 C 7.55 g/m*3 8.4 C 0 km/h
1118 06-12-2009 07:41:02 8.4 C 7.55 g/m*3 8.4 C 0 km/h
1119 06-12-2009 07:53:02 8.3 C 7.5 g/m*3 8.3 C 0 km/h
1120 06-12-2009 08:05:03 8.2 C 7.54 g/m*3 8.2 C 0 km/h
1121 06-12-2009 08:17:02 8.2 C 7.54 g/m*3 8.2 C 0 km/h
1122 06-12-2009 08:29:02 8.2 C 7.62 g/m*3 8.2 C 0 km/h
1123 06-12-2009 08:41:03 8.2 C 7.62 g/m*3 8.2 C 0 km/h
1124 06-12-2009 08:53:02 8.2 C 7.62 g/m*3 8.2 C 0 km/h
1125 06-12-2009 09:05:01 8.2 C 7.62 g/m*3 8.2 C 0 km/h
Sensor: Nr:Datum:Temp:Abs-Feuchte:Windchill:Wind:
Aussen-T/F 1126 06-12-2009 09:17:02 8.4 C 7.72 g/m*3 8.4 C 0 km/h
1127 06-12-2009 09:29:02 8.4 C 7.8 g/m*3 8.4 C 0 km/h
1128 06-12-2009 09:41:02 8.6 C 7.91 g/m*3 8.6 C 0 km/h
1129 06-12-2009 09:53:02 8.7 C 7.87 g/m*3 8.7 C 0 km/h
1130 06-12-2009 10:05:02 8.8 C 7.83 g/m*3 8.8 C 0 km/h
1131 06-12-2009 10:17:02 8.9 C 7.8 g/m*3 8.9 C 0 km/h
1132 06-12-2009 10:29:02 9.2 C 7.86 g/m*3 9.2 C 0 km/h
1133 06-12-2009 10:41:02 9.3 C 7.91 g/m*3 9.3 C 0 km/h
1134 06-12-2009 10:53:02 9.6 C 8.06 g/m*3 9.6 C 0 km/h
1135 06-12-2009 11:05:02 9.7 C 8.11 g/m*3 9.7 C 0 km/h
1136 06-12-2009 11:17:02 9.8 C 8.07 g/m*3 9.8 C 0 km/h
1137 06-12-2009 11:29:03 9.7 C 7.93 g/m*3 9.7 C 0 km/h
1138 06-12-2009 11:41:02 9.8 C 7.89 g/m*3 9.8 C 0 km/h
1139 06-12-2009 11:53:02 9.8 C 7.61 g/m*3 9.8 C 0 km/h
1140 06-12-2009 12:05:02 10 C 7.52 g/m*3 10 C 0 km/h
1141 06-12-2009 12:17:02 10.2 C 7.61 g/m*3 10.2 C 0 km/h
1142 06-12-2009 12:29:03 10.2 C 7.71 g/m*3 10.2 C 0 km/h
1143 06-12-2009 12:41:02 10.2 C 7.71 g/m*3 10.2 C 0 km/h
1144 06-12-2009 12:53:02 10.2 C 7.8 g/m*3 10.2 C 0 km/h
1145 06-12-2009 13:05:02 10.1 C 7.75 g/m*3 10.1 C 0 km/h
1146 06-12-2009 13:17:01 10.3 C 7.57 g/m*3 10.3 C 0 km/h
1147 06-12-2009 13:29:01 10.7 C 7.27 g/m*3 10.7 C 0 km/h
1148 06-12-2009 13:41:02 10.9 C 6.96 g/m*3 10.9 C 0 km/h
1149 06-12-2009 13:53:02 11.1 C 7.05 g/m*3 11.1 C 0 km/h
1150 06-12-2009 14:05:02 11.6 C 7.17 g/m*3 11.6 C 0 km/h
Sensor: Nr:Datum:Temp:Abs-Feuchte:Windchill:Wind:
Aussen-T/F 1151 06-12-2009 14:17:02 11.9 C 7.1 g/m*3 11.9 C 0 km/h
1152 06-12-2009 14:29:02 12 C 6.93 g/m*3 12 C 0 km/h
1153 06-12-2009 14:41:02 11.8 C 7.05 g/m*3 11.8 C 0 km/h
1154 06-12-2009 14:53:01 11.6 C 7.17 g/m*3 11.6 C 0 km/h
1155 06-12-2009 15:05:01 11.6 C 7.28 g/m*3 11.6 C 0 km/h
1156 06-12-2009 15:17:02 11.4 C 7.29 g/m*3 11.4 C 0 km/h
1157 06-12-2009 15:29:02 11.2 C 7.5 g/m*3 11.2 C 0 km/h
1158 06-12-2009 15:41:01 11.1 C 7.45 g/m*3 11.1 C 0 km/h
1159 06-12-2009 15:53:02 11.1 C 7.45 g/m*3 11.1 C 0 km/h
1160 06-12-2009 16:05:02 11.2 C 7.4 g/m*3 11.2 C 0 km/h
1161 06-12-2009 16:17:02 11.1 C 7.35 g/m*3 11.1 C 0 km/h
1162 06-12-2009 16:29:02 11.1 C 7.35 g/m*3 11.1 C 0 km/h
1163 06-12-2009 16:41:02 11.1 C 7.35 g/m*3 11.1 C 0 km/h
1164 06-12-2009 16:53:01 11 C 7.41 g/m*3 11 C 0 km/h
1165 06-12-2009 17:05:02 11 C 7.41 g/m*3 11 C 0 km/h
1166 06-12-2009 17:17:02 10.9 C 7.46 g/m*3 10.9 C 0 km/h
1167 06-12-2009 17:29:02 10.9 C 7.66 g/m*3 10.9 C 0 km/h
1168 06-12-2009 17:41:01 11 C 7.71 g/m*3 11 C 0 km/h
1169 06-12-2009 17:53:02 10.8 C 7.71 g/m*3 10.8 C 0 km/h
1170 06-12-2009 18:05:07 11 C 7.71 g/m*3 11 C 0 km/h
1171 06-12-2009 18:17:05 11 C 7.71 g/m*3 11 C 0 km/h
1172 06-12-2009 18:29:05 11 C 7.71 g/m*3 11 C 0 km/h
1173 06-12-2009 18:41:05 11 C 7.71 g/m*3 11 C 0 km/h
1174 06-12-2009 18:53:05 11 C 7.71 g/m*3 11 C 0 km/h
1175 06-12-2009 19:05:05 11.2 C 7.7 g/m*3 11.2 C 0 km/h
Sensor: Nr:Datum:Temp:Abs-Feuchte:Windchill:Wind:
Aussen-T/F 1176 06-12-2009 19:17:06 11.4 C 7.8 g/m*3 11.4 C 0 km/h
1177 06-12-2009 19:29:06 11.4 C 7.8 g/m*3 11.4 C 0 km/h
1178 06-12-2009 19:41:06 11.4 C 7.9 g/m*3 11.4 C 0 km/h
1179 06-12-2009 19:53:02 11 C 8.01 g/m*3 11 C 0 km/h
1180 06-12-2009 20:05:02 11 C 8.31 g/m*3 11 C 0 km/h
1181 06-12-2009 20:17:02 10.7 C 8.25 g/m*3 10.7 C 0 km/h
1182 06-12-2009 20:29:02 10.6 C 8.2 g/m*3 10.6 C 0 km/h
1183 06-12-2009 20:41:02 10.5 C 8.24 g/m*3 10.5 C 0 km/h
1184 06-12-2009 20:53:02 10.4 C 8.19 g/m*3 10.4 C 0 km/h
1185 06-12-2009 21:05:02 10.4 C 8.19 g/m*3 10.4 C 0 km/h
1186 06-12-2009 21:17:02 10 C 7.99 g/m*3 10 C 0 km/h
1187 06-12-2009 21:29:02 9.6 C 7.88 g/m*3 9.6 C 0 km/h
1188 06-12-2009 21:41:02 9.3 C 7.82 g/m*3 9.3 C 0 km/h
1189 06-12-2009 21:54:02 9.2 C 7.77 g/m*3 9.2 C 0 km/h
1190 06-12-2009 22:06:02 9 C 7.76 g/m*3 9 C 0 km/h
1191 06-12-2009 22:18:02 8.9 C 7.8 g/m*3 8.9 C 0 km/h
1192 06-12-2009 22:30:03 8.9 C 7.88 g/m*3 8.9 C 0 km/h
1193 06-12-2009 22:42:03 8.9 C 7.88 g/m*3 8.9 C 0 km/h
1194 06-12-2009 22:54:03 8.6 C 7.65 g/m*3 8.6 C 0 km/h
1195 06-12-2009 23:06:03 8.4 C 7.47 g/m*3 8.4 C 0 km/h
1196 06-12-2009 23:18:03 8 C 7.19 g/m*3 8 C 0 km/h
1197 06-12-2009 23:30:03 7.7 C 7.14 g/m*3 7.7 C 0 km/h
1198 06-12-2009 23:42:03 7.6 C 6.93 g/m*3 7.6 C 0 km/h
1199 06-12-2009 23:54:03 7.3 C 6.72 g/m*3 7.3 C 0 km/h
1200 07-12-2009 00:06:03 6.9 C 6.62 g/m*3 6.9 C 0 km/h
Sensor: Nr:Datum:Temp:Abs-Feuchte:Windchill:Wind:
Aussen-T/F 1201 07-12-2009 00:18:03 6.7 C 6.46 g/m*3 6.7 C 0 km/h
1202 07-12-2009 00:30:03 7 C 6.43 g/m*3 7 C 0 km/h
1203 07-12-2009 00:42:03 6.7 C 6.31 g/m*3 6.7 C 0 km/h
1204 07-12-2009 00:54:03 6.6 C 6.34 g/m*3 6.6 C 0 km/h
1205 07-12-2009 01:06:03 6.6 C 6.42 g/m*3 6.6 C 0 km/h
1206 07-12-2009 01:18:03 6.8 C 6.5 g/m*3 6.8 C 0 km/h
1207 07-12-2009 01:30:03 6.6 C 6.42 g/m*3 6.6 C 0 km/h
1208 07-12-2009 01:42:03 6.5 C 6.45 g/m*3 6.5 C 0 km/h
1209 07-12-2009 01:54:03 5.9 C 6.27 g/m*3 5.9 C 0 km/h
1210 07-12-2009 02:06:03 5.4 C 6.07 g/m*3 5.4 C 0 km/h
1211 07-12-2009 02:18:03 4.9 C 5.94 g/m*3 4.9 C 0 km/h
1212 07-12-2009 02:30:04 4.7 C 5.93 g/m*3 4.7 C 0 km/h
1213 07-12-2009 02:42:04 4.7 C 5.93 g/m*3 4.7 C 0 km/h
1214 07-12-2009 02:54:04 4.5 C 5.85 g/m*3 4.5 C 0 km/h
1215 07-12-2009 03:06:04 4.3 C 5.84 g/m*3 4.3 C 0 km/h
1216 07-12-2009 03:18:04 4.3 C 5.84 g/m*3 4.3 C 0 km/h
1217 07-12-2009 03:30:04 4.4 C 5.94 g/m*3 4.4 C 0 km/h
1218 07-12-2009 03:42:04 4 C 5.79 g/m*3 4 C 0 km/h
1219 07-12-2009 03:54:04 3.9 C 5.81 g/m*3 3.9 C 0 km/h
1220 07-12-2009 04:06:04 3.7 C 5.73 g/m*3 3.7 C 0 km/h
1221 07-12-2009 04:18:04 3.6 C 5.69 g/m*3 3.6 C 0 km/h
1222 07-12-2009 04:30:04 3.5 C 5.66 g/m*3 3.5 C 0 km/h
1223 07-12-2009 04:42:04 3.3 C 5.58 g/m*3 3.3 C 0 km/h
1224 07-12-2009 04:54:04 3 C 5.47 g/m*3 3 C 0 km/h
1225 07-12-2009 05:06:04 3 C 5.53 g/m*3 3 C 0 km/h
Sensor: Nr:Datum:Temp:Abs-Feuchte:Windchill:Wind:
Aussen-T/F 1226 07-12-2009 05:18:04 2.9 C 5.55 g/m*3 2.9 C 0 km/h
1227 07-12-2009 05:30:04 2.6 C 5.44 g/m*3 2.6 C 0 km/h
1228 07-12-2009 05:42:04 2.3 C 5.33 g/m*3 2.3 C 0 km/h
1229 07-12-2009 05:54:04 2.2 C 5.29 g/m*3 2.2 C 0 km/h
1230 07-12-2009 06:06:04 2.3 C 5.33 g/m*3 2.3 C 0 km/h
1231 07-12-2009 06:18:04 2.4 C 5.37 g/m*3 2.4 C 0 km/h
1232 07-12-2009 06:30:04 2.3 C 5.33 g/m*3 2.3 C 0 km/h
1233 07-12-2009 06:42:05 2.5 C 5.46 g/m*3 2.5 C 0 km/h
1234 07-12-2009 06:54:05 3 C 5.65 g/m*3 3 C 0 km/h
1235 07-12-2009 07:06:02 3 C 5.65 g/m*3 3 C 0 km/h
1236 07-12-2009 07:18:02 3 C 5.65 g/m*3 3 C 0 km/h
1237 07-12-2009 07:30:02 2.8 C 5.57 g/m*3 2.8 C 0 km/h
1238 07-12-2009 07:42:02 2.9 C 5.61 g/m*3 2.9 C 0 km/h
1239 07-12-2009 07:54:02 2.7 C 5.54 g/m*3 2.7 C 0 km/h
1240 07-12-2009 08:06:02 2.8 C 5.57 g/m*3 2.8 C 0 km/h
1241 07-12-2009 08:18:02 3.3 C 5.76 g/m*3 3.3 C 0 km/h
1242 07-12-2009 08:30:02 3.3 C 5.76 g/m*3 3.3 C 0 km/h
1243 07-12-2009 08:42:02 3.3 C 5.76 g/m*3 3.3 C 0 km/h
1244 07-12-2009 08:54:01 2.9 C 5.61 g/m*3 2.9 C 0 km/h
1245 07-12-2009 09:06:02 2.9 C 5.61 g/m*3 2.9 C 0 km/h
1246 07-12-2009 09:18:02 3 C 5.65 g/m*3 3 C 0 km/h
1247 07-12-2009 09:30:02 3.4 C 5.8 g/m*3 3.4 C 0 km/h
1248 07-12-2009 09:42:01 4.5 C 6.24 g/m*3 4.5 C 0 km/h
1249 07-12-2009 09:54:01 5.2 C 6.54 g/m*3 5.2 C 0 km/h
1250 07-12-2009 10:06:02 5.4 C 6.63 g/m*3 5.4 C 0 km/h
Sensor: Nr:Datum:Temp:Abs-Feuchte:Windchill:Wind:
Aussen-T/F 1251 07-12-2009 10:18:01 5.5 C 6.6 g/m*3 5.5 C 0 km/h
1252 07-12-2009 10:30:01 5.8 C 6.52 g/m*3 5.8 C 0 km/h
1253 07-12-2009 10:42:01 5.9 C 6.42 g/m*3 5.9 C 0 km/h
1254 07-12-2009 10:54:02 6.3 C 6.29 g/m*3 6.3 C 0 km/h
1255 07-12-2009 11:06:02 6.5 C 6.3 g/m*3 6.5 C 0 km/h
1256 07-12-2009 11:18:03 6.7 C 6.23 g/m*3 6.7 C 0 km/h
1257 07-12-2009 11:30:03 6.8 C 6.27 g/m*3 6.8 C 0 km/h
1258 07-12-2009 11:42:02 7 C 6.28 g/m*3 7 C 0 km/h
1259 07-12-2009 11:54:02 7.1 C 6.01 g/m*3 7.1 C 0 km/h
1260 07-12-2009 12:06:01 7.1 C 6.01 g/m*3 7.1 C 0 km/h
1261 07-12-2009 12:18:02 7.4 C 5.88 g/m*3 7.4 C 0 km/h
1262 07-12-2009 12:30:03 7.5 C 5.84 g/m*3 7.5 C 0 km/h
1263 07-12-2009 12:42:01 7.7 C 6.16 g/m*3 7.7 C 0 km/h
1264 07-12-2009 12:54:02 7.9 C 6.16 g/m*3 7.9 C 0 km/h
1265 07-12-2009 13:06:02 7.7 C 6 g/m*3 7.7 C 0 km/h
1266 07-12-2009 13:18:02 7.8 C 5.96 g/m*3 7.8 C 0 km/h
1267 07-12-2009 13:30:02 7.9 C 5.67 g/m*3 7.9 C 0 km/h
1268 07-12-2009 13:42:03 7.7 C 5.59 g/m*3 7.7 C 0 km/h
1269 07-12-2009 13:54:02 7.5 C 5.68 g/m*3 7.5 C 0 km/h
1270 07-12-2009 14:06:02 7.8 C 5.71 g/m*3 7.8 C 0 km/h
1271 07-12-2009 14:18:02 8 C 5.62 g/m*3 8 C 0 km/h
1272 07-12-2009 14:30:02 8 C 5.21 g/m*3 8 C 0 km/h
1273 07-12-2009 14:42:02 8 C 5.13 g/m*3 8 C 0 km/h
1274 07-12-2009 14:54:01 7.6 C 5.24 g/m*3 7.6 C 0 km/h
1275 07-12-2009 15:06:02 7.4 C 5.25 g/m*3 7.4 C 0 km/h
Sensor: Nr:Datum:Temp:Abs-Feuchte:Windchill:Wind:
Aussen-T/F 1276 07-12-2009 15:18:01 7.2 C 5.26 g/m*3 7.2 C 0 km/h
1277 07-12-2009 15:30:01 7.1 C 5.23 g/m*3 7.1 C 0 km/h
1278 07-12-2009 15:42:02 7.1 C 5.3 g/m*3 7.1 C 0 km/h
1279 07-12-2009 15:54:02 7.2 C 5.26 g/m*3 7.2 C 0 km/h
1280 07-12-2009 16:06:02 6.9 C 5.31 g/m*3 6.9 C 0 km/h
1281 07-12-2009 16:18:01 6.7 C 5.32 g/m*3 6.7 C 0 km/h
1282 07-12-2009 16:30:01 6.6 C 5.36 g/m*3 6.6 C 0 km/h
1283 07-12-2009 16:42:02 6.4 C 5.36 g/m*3 6.4 C 0 km/h
1284 07-12-2009 16:54:02 6.3 C 5.55 g/m*3 6.3 C 0 km/h
1285 07-12-2009 17:06:02 6.2 C 5.66 g/m*3 6.2 C 0 km/h
1286 07-12-2009 17:18:02 6.3 C 5.77 g/m*3 6.3 C 0 km/h
1287 07-12-2009 17:30:02 6.3 C 5.85 g/m*3 6.3 C 0 km/h
1288 07-12-2009 17:42:02 6.4 C 5.96 g/m*3 6.4 C 0 km/h
1289 07-12-2009 17:54:01 6.5 C 6 g/m*3 6.5 C 0 km/h
1290 07-12-2009 18:06:02 6.5 C 6 g/m*3 6.5 C 0 km/h
1291 07-12-2009 18:18:02 6.6 C 6.04 g/m*3 6.6 C 0 km/h
1292 07-12-2009 18:30:02 6.7 C 6.15 g/m*3 6.7 C 0 km/h
1293 07-12-2009 18:42:02 6.6 C 6.11 g/m*3 6.6 C 0 km/h
1294 07-12-2009 18:54:02 6.3 C 6 g/m*3 6.3 C 0 km/h
1295 07-12-2009 19:06:02 6.3 C 6.07 g/m*3 6.3 C 0 km/h
1296 07-12-2009 19:18:02 6.4 C 6.18 g/m*3 6.4 C 0 km/h
1297 07-12-2009 19:30:03 6.4 C 6.18 g/m*3 6.4 C 0 km/h
1298 07-12-2009 19:42:02 6.4 C 6.18 g/m*3 6.4 C 0 km/h
1299 07-12-2009 19:54:02 6.2 C 6.1 g/m*3 6.2 C 0 km/h
1300 07-12-2009 20:06:02 6.2 C 6.18 g/m*3 6.2 C 0 km/h
Sensor: Nr:Datum:Temp:Abs-Feuchte:Windchill:Wind:
Aussen-T/F 1301 07-12-2009 20:18:02 6.3 C 6.29 g/m*3 6.3 C 0 km/h
1302 07-12-2009 20:30:02 6.4 C 6.41 g/m*3 6.4 C 0 km/h
1303 07-12-2009 20:42:03 6.3 C 6.44 g/m*3 6.3 C 0 km/h
1304 07-12-2009 20:54:01 6.3 C 6.51 g/m*3 6.3 C 0 km/h
1305 07-12-2009 21:06:02 6.3 C 6.59 g/m*3 6.3 C 0 km/h
1306 07-12-2009 21:18:01 6.4 C 6.71 g/m*3 6.4 C 0 km/h
1307 07-12-2009 21:30:01 6.4 C 6.71 g/m*3 6.4 C 0 km/h
1308 07-12-2009 21:42:02 6.3 C 6.74 g/m*3 6.3 C 0 km/h
1309 07-12-2009 21:55:03 6.4 C 6.85 g/m*3 6.4 C 0 km/h
1310 07-12-2009 22:07:03 6.4 C 6.85 g/m*3 6.4 C 0 km/h
1311 07-12-2009 22:19:03 6.2 C 6.77 g/m*3 6.2 C 0 km/h
1312 07-12-2009 22:31:03 5.9 C 6.71 g/m*3 5.9 C 0 km/h
1313 07-12-2009 22:43:03 5.8 C 6.66 g/m*3 5.8 C 0 km/h
1314 07-12-2009 22:55:03 6 C 6.75 g/m*3 6 C 0 km/h
1315 07-12-2009 23:07:03 6.1 C 6.87 g/m*3 6.1 C 0 km/h
1316 07-12-2009 23:19:03 6.2 C 6.91 g/m*3 6.2 C 0 km/h
1317 07-12-2009 23:31:03 6.5 C 7.05 g/m*3 6.5 C 0 km/h
1318 07-12-2009 23:43:03 6.4 C 7.08 g/m*3 6.4 C 0 km/h
1319 07-12-2009 23:55:03 6.5 C 7.12 g/m*3 6.5 C 0 km/h
1320 08-12-2009 00:07:03 6.5 C 7.12 g/m*3 6.5 C 0 km/h
1321 08-12-2009 00:19:04 6.4 C 7.08 g/m*3 6.4 C 0 km/h
1322 08-12-2009 00:31:04 6.5 C 7.12 g/m*3 6.5 C 0 km/h
1323 08-12-2009 00:43:04 6.4 C 7.08 g/m*3 6.4 C 0 km/h
1324 08-12-2009 00:55:04 6.4 C 7.08 g/m*3 6.4 C 0 km/h
1325 08-12-2009 01:07:04 6.5 C 7.12 g/m*3 6.5 C 0 km/h
Sensor: Nr:Datum:Temp:Abs-Feuchte:Windchill:Wind:
Aussen-T/F 1326 08-12-2009 01:19:04 6.9 C 7.31 g/m*3 6.9 C 0 km/h
1327 08-12-2009 01:31:04 7 C 7.36 g/m*3 7 C 0 km/h
1328 08-12-2009 01:43:04 7.2 C 7.46 g/m*3 7.2 C 0 km/h
1329 08-12-2009 01:55:04 7.3 C 7.51 g/m*3 7.3 C 0 km/h
1330 08-12-2009 02:07:04 7.3 C 7.51 g/m*3 7.3 C 0 km/h
1331 08-12-2009 02:19:04 7.1 C 7.41 g/m*3 7.1 C 0 km/h
1332 08-12-2009 02:31:04 7.2 C 7.46 g/m*3 7.2 C 0 km/h
1333 08-12-2009 02:43:04 7.1 C 7.41 g/m*3 7.1 C 0 km/h
1334 08-12-2009 02:55:04 7.3 C 7.51 g/m*3 7.3 C 0 km/h
1335 08-12-2009 03:07:04 7.5 C 7.6 g/m*3 7.5 C 0 km/h
1336 08-12-2009 03:19:04 7.7 C 7.7 g/m*3 7.7 C 0 km/h
1337 08-12-2009 03:31:04 7.6 C 7.65 g/m*3 7.6 C 0 km/h
1338 08-12-2009 03:43:04 7.7 C 7.7 g/m*3 7.7 C 0 km/h
1339 08-12-2009 03:55:04 8 C 7.85 g/m*3 8 C 0 km/h
1340 08-12-2009 04:07:04 8.1 C 7.9 g/m*3 8.1 C 0 km/h
1341 08-12-2009 04:19:04 7.9 C 7.8 g/m*3 7.9 C 0 km/h
1342 08-12-2009 04:31:05 7.9 C 7.8 g/m*3 7.9 C 0 km/h
1343 08-12-2009 04:43:05 7.9 C 7.8 g/m*3 7.9 C 0 km/h
1344 08-12-2009 04:55:05 7.8 C 7.75 g/m*3 7.8 C 0 km/h
1345 08-12-2009 05:07:05 7.9 C 7.8 g/m*3 7.9 C 0 km/h
1346 08-12-2009 05:19:05 8.2 C 7.87 g/m*3 8.2 C 0 km/h
1347 08-12-2009 05:31:05 8.5 C 7.85 g/m*3 8.5 C 0 km/h
1348 08-12-2009 05:43:05 8.5 C 7.51 g/m*3 8.5 C 0 km/h
1349 08-12-2009 05:55:05 8.3 C 7 g/m*3 8.3 C 0 km/h
1350 08-12-2009 06:07:05 8 C 6.28 g/m*3 8 C 0 km/h
Sensor: Nr:Datum:Temp:Abs-Feuchte:Windchill:Wind:
Aussen-T/F 1351 08-12-2009 06:19:05 7.8 C 6.12 g/m*3 7.8 C 0 km/h
1352 08-12-2009 06:31:05 7.6 C 6.04 g/m*3 7.6 C 0 km/h
1353 08-12-2009 06:43:05 7.4 C 5.88 g/m*3 7.4 C 0 km/h
1354 08-12-2009 06:55:02 7.3 C 6 g/m*3 7.3 C 0 km/h
1355 08-12-2009 07:07:02 7.2 C 5.97 g/m*3 7.2 C 0 km/h
1356 08-12-2009 07:19:03 7.1 C 5.85 g/m*3 7.1 C 0 km/h
1357 08-12-2009 07:31:02 6.8 C 5.97 g/m*3 6.8 C 0 km/h
1358 08-12-2009 07:43:02 6.4 C 5.96 g/m*3 6.4 C 0 km/h
1359 08-12-2009 07:55:03 6.2 C 6.03 g/m*3 6.2 C 0 km/h
1360 08-12-2009 08:07:02 6 C 5.88 g/m*3 6 C 0 km/h
1361 08-12-2009 08:19:02 5.9 C 6.06 g/m*3 5.9 C 0 km/h
1362 08-12-2009 08:31:02 6 C 6.02 g/m*3 6 C 0 km/h
1363 08-12-2009 08:43:02 6 C 6.1 g/m*3 6 C 0 km/h
1364 08-12-2009 08:55:02 6.2 C 6.18 g/m*3 6.2 C 0 km/h
1365 08-12-2009 09:07:02 6.3 C 6.14 g/m*3 6.3 C 0 km/h
1366 08-12-2009 09:19:02 6.2 C 6.1 g/m*3 6.2 C 0 km/h
1367 08-12-2009 09:31:02 6.2 C 5.96 g/m*3 6.2 C 0 km/h
1368 08-12-2009 09:43:02 6.4 C 5.81 g/m*3 6.4 C 0 km/h
1369 08-12-2009 09:55:02 6.6 C 5.89 g/m*3 6.6 C 0 km/h
1370 08-12-2009 10:07:02 6.8 C 5.89 g/m*3 6.8 C 0 km/h
1371 08-12-2009 10:19:01 6.8 C 5.74 g/m*3 6.8 C 0 km/h
1372 08-12-2009 10:31:02 6.9 C 5.77 g/m*3 6.9 C 0 km/h
1373 08-12-2009 10:43:02 7.1 C 5.85 g/m*3 7.1 C 0 km/h
1374 08-12-2009 10:55:02 7.3 C 5.85 g/m*3 7.3 C 0 km/h
1375 08-12-2009 11:07:02 7.4 C 5.88 g/m*3 7.4 C 0 km/h
Sensor: Nr:Datum:Temp:Abs-Feuchte:Windchill:Wind:
Aussen-T/F 1376 08-12-2009 11:19:02 7.4 C 5.81 g/m*3 7.4 C 0 km/h
1377 08-12-2009 11:31:02 7.4 C 5.81 g/m*3 7.4 C 0 km/h
1378 08-12-2009 11:43:02 7.5 C 5.92 g/m*3 7.5 C 0 km/h
1379 08-12-2009 11:55:02 7.4 C 5.73 g/m*3 7.4 C 0 km/h
1380 08-12-2009 12:07:02 7.4 C 5.73 g/m*3 7.4 C 0 km/h
1381 08-12-2009 12:19:02 7.4 C 5.81 g/m*3 7.4 C 0 km/h
1382 08-12-2009 12:31:02 7.6 C 5.72 g/m*3 7.6 C 0 km/h
1383 08-12-2009 12:43:02 7.9 C 5.67 g/m*3 7.9 C 0 km/h
1384 08-12-2009 12:55:02 8 C 5.46 g/m*3 8 C 0 km/h
1385 08-12-2009 13:07:02 8 C 5.37 g/m*3 8 C 0 km/h
1386 08-12-2009 13:19:03 7.9 C 5.5 g/m*3 7.9 C 0 km/h
1387 08-12-2009 13:31:02 7.8 C 5.55 g/m*3 7.8 C 0 km/h
1388 08-12-2009 13:43:02 7.6 C 5.48 g/m*3 7.6 C 0 km/h
1389 08-12-2009 13:55:03 7.5 C 5.52 g/m*3 7.5 C 0 km/h
1390 08-12-2009 14:07:02 7.5 C 5.6 g/m*3 7.5 C 0 km/h
1391 08-12-2009 14:19:02 7.5 C 5.52 g/m*3 7.5 C 0 km/h
1392 08-12-2009 14:31:02 7.8 C 5.63 g/m*3 7.8 C 0 km/h
1393 08-12-2009 14:43:02 7.8 C 5.55 g/m*3 7.8 C 0 km/h
1394 08-12-2009 14:55:02 7.8 C 5.55 g/m*3 7.8 C 0 km/h
1395 08-12-2009 15:07:02 7.8 C 5.63 g/m*3 7.8 C 0 km/h
1396 08-12-2009 15:19:02 7.7 C 5.59 g/m*3 7.7 C 0 km/h
1397 08-12-2009 15:31:02 7.5 C 5.68 g/m*3 7.5 C 0 km/h
1398 08-12-2009 15:43:02 7.3 C 5.61 g/m*3 7.3 C 0 km/h
1399 08-12-2009 15:55:02 7.4 C 5.57 g/m*3 7.4 C 0 km/h
1400 08-12-2009 16:07:01 7.3 C 5.61 g/m*3 7.3 C 0 km/h
Sensor: Nr:Datum:Temp:Abs-Feuchte:Windchill:Wind:
Aussen-T/F 1401 08-12-2009 16:19:01 6.9 C 5.7 g/m*3 6.9 C 0 km/h
1402 08-12-2009 16:31:02 6.9 C 5.62 g/m*3 6.9 C 0 km/h
1403 08-12-2009 16:43:02 6.9 C 5.62 g/m*3 6.9 C 0 km/h
1404 08-12-2009 16:55:02 6.8 C 5.66 g/m*3 6.8 C 0 km/h
1405 08-12-2009 17:07:02 6.5 C 5.7 g/m*3 6.5 C 0 km/h
1406 08-12-2009 17:19:02 6.5 C 5.7 g/m*3 6.5 C 0 km/h
1407 08-12-2009 17:31:02 6.5 C 5.7 g/m*3 6.5 C 0 km/h
1408 08-12-2009 17:43:02 6.4 C 5.66 g/m*3 6.4 C 0 km/h
1409 08-12-2009 17:55:01 6.3 C 5.7 g/m*3 6.3 C 0 km/h
1410 08-12-2009 18:07:02 6 C 5.66 g/m*3 6 C 0 km/h
1411 08-12-2009 18:19:01 5.9 C 5.77 g/m*3 5.9 C 0 km/h
1412 08-12-2009 18:31:02 5.8 C 5.8 g/m*3 5.8 C 0 km/h
1413 08-12-2009 18:43:03 5.7 C 5.76 g/m*3 5.7 C 0 km/h
1414 08-12-2009 18:55:02 5.8 C 5.87 g/m*3 5.8 C 0 km/h
1415 08-12-2009 19:07:02 5.7 C 5.84 g/m*3 5.7 C 0 km/h
1416 08-12-2009 19:19:01 6 C 5.88 g/m*3 6 C 0 km/h
1417 08-12-2009 19:31:02 6 C 5.81 g/m*3 6 C 0 km/h
1418 08-12-2009 19:43:02 6.1 C 5.84 g/m*3 6.1 C 0 km/h
1419 08-12-2009 19:55:02 6.2 C 5.88 g/m*3 6.2 C 0 km/h
1420 08-12-2009 20:07:02 6.2 C 5.88 g/m*3 6.2 C 0 km/h
1421 08-12-2009 20:19:02 6.3 C 5.92 g/m*3 6.3 C 0 km/h
1422 08-12-2009 20:31:02 6.3 C 6 g/m*3 6.3 C 0 km/h
1423 08-12-2009 20:43:02 6.3 C 6 g/m*3 6.3 C 0 km/h
1424 08-12-2009 20:55:02 6.3 C 6.07 g/m*3 6.3 C 0 km/h
1425 08-12-2009 21:07:01 6.3 C 6.07 g/m*3 6.3 C 0 km/h
Sensor: Nr:Datum:Temp:Abs-Feuchte:Windchill:Wind:
Aussen-T/F 1426 08-12-2009 21:19:02 6.4 C 6.11 g/m*3 6.4 C 0 km/h
1427 08-12-2009 21:31:01 6.4 C 6.11 g/m*3 6.4 C 0 km/h
1428 08-12-2009 21:43:01 6.5 C 6.15 g/m*3 6.5 C 0 km/h
1429 08-12-2009 21:55:02 6.5 C 6.15 g/m*3 6.5 C 0 km/h
1430 08-12-2009 22:07:02 6.4 C 6.11 g/m*3 6.4 C 0 km/h
1431 08-12-2009 22:19:02 6.4 C 6.11 g/m*3 6.4 C 0 km/h
1432 08-12-2009 22:31:02 6.4 C 6.11 g/m*3 6.4 C 0 km/h
1433 08-12-2009 22:43:02 6.3 C 6.14 g/m*3 6.3 C 0 km/h
1434 08-12-2009 22:55:02 6.3 C 6.22 g/m*3 6.3 C 0 km/h
1435 08-12-2009 23:07:02 6.4 C 6.26 g/m*3 6.4 C 0 km/h
1436 08-12-2009 23:19:02 6.5 C 6.22 g/m*3 6.5 C 0 km/h
1437 08-12-2009 23:31:02 6.5 C 6.22 g/m*3 6.5 C 0 km/h
1438 08-12-2009 23:43:02 6.4 C 6.26 g/m*3 6.4 C 0 km/h
1439 08-12-2009 23:55:02 6.3 C 6.37 g/m*3 6.3 C 0 km/h
1440 09-12-2009 00:07:01 6.2 C 6.4 g/m*3 6.2 C 0 km/h
1441 09-12-2009 00:19:02 6.2 C 6.47 g/m*3 6.2 C 0 km/h
1442 09-12-2009 00:31:01 6 C 6.39 g/m*3 6 C 0 km/h
1443 09-12-2009 00:43:01 6 C 6.46 g/m*3 6 C 0 km/h
1444 09-12-2009 00:55:02 6 C 6.46 g/m*3 6 C 0 km/h
1445 09-12-2009 01:07:01 5.9 C 6.49 g/m*3 5.9 C 0 km/h
1446 09-12-2009 01:19:01 6 C 6.46 g/m*3 6 C 0 km/h
1447 09-12-2009 01:31:02 6 C 6.46 g/m*3 6 C 0 km/h
1448 09-12-2009 01:43:02 6.1 C 6.5 g/m*3 6.1 C 0 km/h
1449 09-12-2009 01:55:02 6.1 C 6.5 g/m*3 6.1 C 0 km/h
1450 09-12-2009 02:07:02 6.1 C 6.43 g/m*3 6.1 C 0 km/h
Sensor: Nr:Datum:Temp:Abs-Feuchte:Windchill:Wind:
Aussen-T/F 1451 09-12-2009 02:19:02 5.9 C 6.42 g/m*3 5.9 C 0 km/h
1452 09-12-2009 02:31:02 5.9 C 6.35 g/m*3 5.9 C 0 km/h
1453 09-12-2009 02:43:02 5.7 C 6.26 g/m*3 5.7 C 0 km/h
1454 09-12-2009 02:55:01 5.5 C 6.18 g/m*3 5.5 C 0 km/h
1455 09-12-2009 03:07:01 5.5 C 6.18 g/m*3 5.5 C 0 km/h
1456 09-12-2009 03:19:02 5.6 C 6.29 g/m*3 5.6 C 0 km/h
1457 09-12-2009 03:31:01 5.8 C 6.3 g/m*3 5.8 C 0 km/h
1458 09-12-2009 03:43:01 5.9 C 6.2 g/m*3 5.9 C 0 km/h
1459 09-12-2009 03:55:01 5.9 C 6.13 g/m*3 5.9 C 0 km/h
1460 09-12-2009 04:07:01 5.9 C 6.06 g/m*3 5.9 C 0 km/h
1461 09-12-2009 04:19:01 5.9 C 5.98 g/m*3 5.9 C 0 km/h
1462 09-12-2009 04:31:02 5.9 C 5.91 g/m*3 5.9 C 0 km/h
1463 09-12-2009 04:43:02 5.9 C 5.91 g/m*3 5.9 C 0 km/h
1464 09-12-2009 04:55:01 5.9 C 5.84 g/m*3 5.9 C 0 km/h
1465 09-12-2009 05:07:02 5.9 C 5.84 g/m*3 5.9 C 0 km/h
1466 09-12-2009 05:19:01 6 C 5.81 g/m*3 6 C 0 km/h
1467 09-12-2009 05:31:01 6 C 5.73 g/m*3 6 C 0 km/h
1468 09-12-2009 05:43:01 6 C 5.73 g/m*3 6 C 0 km/h
1469 09-12-2009 05:55:01 5.9 C 5.77 g/m*3 5.9 C 0 km/h
1470 09-12-2009 06:07:01 6 C 5.66 g/m*3 6 C 0 km/h
1471 09-12-2009 06:19:01 6 C 5.59 g/m*3 6 C 0 km/h
1472 09-12-2009 06:31:01 6 C 5.59 g/m*3 6 C 0 km/h
1473 09-12-2009 06:43:01 6 C 5.66 g/m*3 6 C 0 km/h
1474 09-12-2009 06:55:01 6.2 C 5.59 g/m*3 6.2 C 0 km/h
1475 09-12-2009 07:07:01 6.2 C 5.52 g/m*3 6.2 C 0 km/h
Sensor: Nr:Datum:Temp:Abs-Feuchte:Windchill:Wind:
Aussen-T/F 1476 09-12-2009 07:19:02 6.3 C 5.55 g/m*3 6.3 C 0 km/h
1477 09-12-2009 07:31:01 6.4 C 5.59 g/m*3 6.4 C 0 km/h
1478 09-12-2009 07:43:01 6.4 C 5.59 g/m*3 6.4 C 0 km/h
1479 09-12-2009 07:55:02 6.4 C 5.59 g/m*3 6.4 C 0 km/h
1480 09-12-2009 08:07:01 6.4 C 5.66 g/m*3 6.4 C 0 km/h
1481 09-12-2009 08:19:01 6.3 C 5.63 g/m*3 6.3 C 0 km/h
1482 09-12-2009 08:31:01 5.8 C 5.52 g/m*3 5.8 C 0 km/h
1483 09-12-2009 08:43:01 5.7 C 5.55 g/m*3 5.7 C 0 km/h
1484 09-12-2009 08:55:02 5.3 C 5.48 g/m*3 5.3 C 0 km/h
1485 09-12-2009 09:07:01 5.2 C 5.58 g/m*3 5.2 C 0 km/h
1486 09-12-2009 09:19:01 5.5 C 5.69 g/m*3 5.5 C 0 km/h
1487 09-12-2009 09:31:02 5.7 C 5.76 g/m*3 5.7 C 0 km/h
1488 09-12-2009 09:43:02 5.9 C 5.84 g/m*3 5.9 C 0 km/h
1489 09-12-2009 09:55:01 6 C 5.73 g/m*3 6 C 0 km/h
1490 09-12-2009 10:07:02 6.5 C 5.85 g/m*3 6.5 C 0 km/h
1491 09-12-2009 10:19:01 7.1 C 5.77 g/m*3 7.1 C 0 km/h
1492 09-12-2009 10:31:01 7.5 C 5.6 g/m*3 7.5 C 0 km/h
1493 09-12-2009 10:43:02 7.6 C 5.64 g/m*3 7.6 C 0 km/h
1494 09-12-2009 10:55:01 7.6 C 5.56 g/m*3 7.6 C 0 km/h
1495 09-12-2009 11:07:02 7.8 C 5.63 g/m*3 7.8 C 0 km/h
1496 09-12-2009 11:19:01 7.9 C 5.59 g/m*3 7.9 C 0 km/h
1497 09-12-2009 11:31:01 8 C 5.62 g/m*3 8 C 0 km/h
1498 09-12-2009 11:43:01 8 C 5.54 g/m*3 8 C 0 km/h
1499 09-12-2009 11:55:01 8.1 C 5.57 g/m*3 8.1 C 0 km/h
1500 09-12-2009 12:07:01 8.2 C 5.61 g/m*3 8.2 C 0 km/h
Sensor: Nr:Datum:Temp:Abs-Feuchte:Windchill:Wind:
Aussen-T/F 1501 09-12-2009 12:19:02 8.4 C 5.6 g/m*3 8.4 C 0 km/h
1502 09-12-2009 12:31:01 8.5 C 5.64 g/m*3 8.5 C 0 km/h
1503 09-12-2009 12:43:01 8.4 C 5.6 g/m*3 8.4 C 0 km/h
1504 09-12-2009 12:55:02 8.7 C 5.71 g/m*3 8.7 C 0 km/h
1505 09-12-2009 13:07:01 9 C 5.64 g/m*3 9 C 0 km/h
1506 09-12-2009 13:19:02 9.1 C 5.68 g/m*3 9.1 C 0 km/h
1507 09-12-2009 13:31:01 8.7 C 5.71 g/m*3 8.7 C 0 km/h
1508 09-12-2009 13:43:01 8.8 C 5.83 g/m*3 8.8 C 0 km/h
1509 09-12-2009 13:55:02 9.1 C 5.86 g/m*3 9.1 C 0 km/h
1510 09-12-2009 14:07:01 8.9 C 5.87 g/m*3 8.9 C 0 km/h
1511 09-12-2009 14:19:01 8.8 C 5.92 g/m*3 8.8 C 0 km/h
1512 09-12-2009 14:31:02 9 C 5.91 g/m*3 9 C 0 km/h
1513 09-12-2009 14:43:02 9.3 C 6.02 g/m*3 9.3 C 0 km/h
1514 09-12-2009 14:55:01 9.3 C 6.02 g/m*3 9.3 C 0 km/h
1515 09-12-2009 15:07:02 9.4 C 5.97 g/m*3 9.4 C 0 km/h
1516 09-12-2009 15:19:01 9.2 C 5.89 g/m*3 9.2 C 0 km/h
1517 09-12-2009 15:31:02 9.1 C 5.86 g/m*3 9.1 C 0 km/h
1518 09-12-2009 15:43:02 9.1 C 5.94 g/m*3 9.1 C 0 km/h
1519 09-12-2009 15:55:01 9 C 5.91 g/m*3 9 C 0 km/h
1520 09-12-2009 16:07:02 9 C 5.99 g/m*3 9 C 0 km/h
1521 09-12-2009 16:19:01 8.9 C 6.13 g/m*3 8.9 C 0 km/h
1522 09-12-2009 16:31:01 8.7 C 6.14 g/m*3 8.7 C 0 km/h
1523 09-12-2009 16:43:01 8.6 C 6.19 g/m*3 8.6 C 0 km/h
1524 09-12-2009 16:55:01 8.6 C 6.27 g/m*3 8.6 C 0 km/h
1525 09-12-2009 17:07:01 8.5 C 6.32 g/m*3 8.5 C 0 km/h
Sensor: Nr:Datum:Temp:Abs-Feuchte:Windchill:Wind:
Aussen-T/F 1526 09-12-2009 17:19:02 8.4 C 6.28 g/m*3 8.4 C 0 km/h
1527 09-12-2009 17:31:01 8.4 C 6.36 g/m*3 8.4 C 0 km/h
1528 09-12-2009 17:43:01 8.4 C 6.36 g/m*3 8.4 C 0 km/h
1529 09-12-2009 17:55:01 8.2 C 6.36 g/m*3 8.2 C 0 km/h
1530 09-12-2009 18:07:02 8.1 C 6.41 g/m*3 8.1 C 0 km/h
1531 09-12-2009 18:19:01 8.2 C 6.53 g/m*3 8.2 C 0 km/h
1532 09-12-2009 18:31:01 8.2 C 6.53 g/m*3 8.2 C 0 km/h
1533 09-12-2009 18:43:01 8.2 C 6.53 g/m*3 8.2 C 0 km/h
1534 09-12-2009 18:55:01 8.4 C 6.62 g/m*3 8.4 C 0 km/h
1535 09-12-2009 19:07:01 8.1 C 6.41 g/m*3 8.1 C 0 km/h
1536 09-12-2009 19:19:02 7.8 C 6.53 g/m*3 7.8 C 0 km/h
1537 09-12-2009 19:31:01 7.8 C 6.69 g/m*3 7.8 C 0 km/h
1538 09-12-2009 19:43:01 7.7 C 6.73 g/m*3 7.7 C 0 km/h
1539 09-12-2009 19:55:01 7.7 C 6.81 g/m*3 7.7 C 0 km/h
1540 09-12-2009 20:07:01 7.7 C 6.89 g/m*3 7.7 C 0 km/h
1541 09-12-2009 20:19:02 7.8 C 6.94 g/m*3 7.8 C 0 km/h
1542 09-12-2009 20:31:01 7.8 C 7.02 g/m*3 7.8 C 0 km/h
1543 09-12-2009 20:43:01 7.8 C 7.02 g/m*3 7.8 C 0 km/h
1544 09-12-2009 20:55:02 7.7 C 7.05 g/m*3 7.7 C 0 km/h
1545 09-12-2009 21:07:02 7.7 C 7.05 g/m*3 7.7 C 0 km/h
1546 09-12-2009 21:19:01 7.8 C 7.1 g/m*3 7.8 C 0 km/h
1547 09-12-2009 21:31:01 7.8 C 7.1 g/m*3 7.8 C 0 km/h
1548 09-12-2009 21:43:01 7.6 C 7.01 g/m*3 7.6 C 0 km/h
1549 09-12-2009 21:55:01 7.6 C 7.09 g/m*3 7.6 C 0 km/h
1550 09-12-2009 22:08:02 7.6 C 7.09 g/m*3 7.6 C 0 km/h
Sensor: Nr:Datum:Temp:Abs-Feuchte:Windchill:Wind:
Aussen-T/F 1551 09-12-2009 22:20:02 7.6 C 7.09 g/m*3 7.6 C 0 km/h
1552 09-12-2009 22:32:02 7.7 C 7.14 g/m*3 7.7 C 0 km/h
1553 09-12-2009 22:44:03 7.6 C 7.17 g/m*3 7.6 C 0 km/h
1554 09-12-2009 22:56:03 7.6 C 7.17 g/m*3 7.6 C 0 km/h
1555 09-12-2009 23:08:03 7.6 C 7.17 g/m*3 7.6 C 0 km/h
1556 09-12-2009 23:20:03 7.5 C 7.12 g/m*3 7.5 C 0 km/h
1557 09-12-2009 23:32:03 7.5 C 7.2 g/m*3 7.5 C 0 km/h
1558 09-12-2009 23:44:03 7.5 C 7.28 g/m*3 7.5 C 0 km/h
1559 09-12-2009 23:56:03 7.5 C 7.28 g/m*3 7.5 C 0 km/h
1560 10-12-2009 00:08:03 7.5 C 7.36 g/m*3 7.5 C 0 km/h
1561 10-12-2009 00:20:03 7.4 C 7.32 g/m*3 7.4 C 0 km/h
1562 10-12-2009 00:32:03 7.4 C 7.32 g/m*3 7.4 C 0 km/h
1563 10-12-2009 00:44:03 7.4 C 7.32 g/m*3 7.4 C 0 km/h
1564 10-12-2009 00:56:03 7.5 C 7.44 g/m*3 7.5 C 0 km/h
1565 10-12-2009 01:08:03 7.5 C 7.44 g/m*3 7.5 C 0 km/h
1566 10-12-2009 01:20:03 7.5 C 7.44 g/m*3 7.5 C 0 km/h
1567 10-12-2009 01:32:03 7.6 C 7.49 g/m*3 7.6 C 0 km/h
1568 10-12-2009 01:44:04 7.6 C 7.49 g/m*3 7.6 C 0 km/h
1569 10-12-2009 01:56:04 7.7 C 7.54 g/m*3 7.7 C 0 km/h
1570 10-12-2009 02:08:04 7.7 C 7.54 g/m*3 7.7 C 0 km/h
1571 10-12-2009 02:20:04 7.6 C 7.49 g/m*3 7.6 C 0 km/h
1572 10-12-2009 02:32:04 7.6 C 7.49 g/m*3 7.6 C 0 km/h
1573 10-12-2009 02:44:04 7.6 C 7.49 g/m*3 7.6 C 0 km/h
1574 10-12-2009 02:56:04 7.7 C 7.54 g/m*3 7.7 C 0 km/h
1575 10-12-2009 03:08:04 7.7 C 7.54 g/m*3 7.7 C 0 km/h
Sensor: Nr:Datum:Temp:Abs-Feuchte:Windchill:Wind:
Aussen-T/F 1576 10-12-2009 03:20:04 7.7 C 7.54 g/m*3 7.7 C 0 km/h
1577 10-12-2009 03:32:04 7.7 C 7.62 g/m*3 7.7 C 0 km/h
1578 10-12-2009 03:44:04 7.8 C 7.67 g/m*3 7.8 C 0 km/h
1579 10-12-2009 03:56:04 7.8 C 7.67 g/m*3 7.8 C 0 km/h
1580 10-12-2009 04:08:04 7.8 C 7.67 g/m*3 7.8 C 0 km/h
1581 10-12-2009 04:20:04 7.8 C 7.67 g/m*3 7.8 C 0 km/h
1582 10-12-2009 04:32:04 7.8 C 7.67 g/m*3 7.8 C 0 km/h
1583 10-12-2009 04:44:04 7.8 C 7.67 g/m*3 7.8 C 0 km/h
1584 10-12-2009 04:56:04 7.8 C 7.67 g/m*3 7.8 C 0 km/h
1585 10-12-2009 05:08:04 7.8 C 7.67 g/m*3 7.8 C 0 km/h
1586 10-12-2009 05:20:04 7.9 C 7.72 g/m*3 7.9 C 0 km/h
1587 10-12-2009 05:32:04 7.9 C 7.72 g/m*3 7.9 C 0 km/h
1588 10-12-2009 05:44:04 7.8 C 7.67 g/m*3 7.8 C 0 km/h
1589 10-12-2009 05:56:04 7.9 C 7.8 g/m*3 7.9 C 0 km/h
1590 10-12-2009 06:08:05 8 C 7.77 g/m*3 8 C 0 km/h
1591 10-12-2009 06:20:05 8.4 C 7.97 g/m*3 8.4 C 0 km/h
1592 10-12-2009 06:32:05 8.5 C 8.11 g/m*3 8.5 C 0 km/h
1593 10-12-2009 06:44:05 8.7 C 8.22 g/m*3 8.7 C 0 km/h
1594 10-12-2009 06:56:05 8.9 C 8.32 g/m*3 8.9 C 0 km/h
1595 10-12-2009 07:08:02 9 C 8.38 g/m*3 9 C 0 km/h
1596 10-12-2009 07:20:02 8.9 C 8.32 g/m*3 8.9 C 0 km/h
1597 10-12-2009 07:32:02 8.9 C 8.32 g/m*3 8.9 C 0 km/h
1598 10-12-2009 07:44:02 8.8 C 8.27 g/m*3 8.8 C 0 km/h
1599 10-12-2009 07:56:02 8.9 C 8.32 g/m*3 8.9 C 0 km/h
1600 10-12-2009 08:08:01 8.9 C 8.32 g/m*3 8.9 C 0 km/h
Sensor: Nr:Datum:Temp:Abs-Feuchte:Windchill:Wind:
Aussen-T/F 1601 10-12-2009 08:20:02 8.8 C 8.27 g/m*3 8.8 C 0 km/h
1602 10-12-2009 08:32:02 8.5 C 8.11 g/m*3 8.5 C 0 km/h
1603 10-12-2009 08:44:02 8.5 C 8.11 g/m*3 8.5 C 0 km/h
1604 10-12-2009 08:56:01 8.4 C 8.06 g/m*3 8.4 C 0 km/h
1605 10-12-2009 09:08:01 8.7 C 8.22 g/m*3 8.7 C 0 km/h
1606 10-12-2009 09:20:01 8.7 C 8.22 g/m*3 8.7 C 0 km/h
1607 10-12-2009 09:32:01 8.8 C 8.27 g/m*3 8.8 C 0 km/h
1608 10-12-2009 09:44:01 8.9 C 8.32 g/m*3 8.9 C 0 km/h
1609 10-12-2009 09:56:02 8.9 C 8.32 g/m*3 8.9 C 0 km/h
1610 10-12-2009 10:08:02 8.9 C 8.32 g/m*3 8.9 C 0 km/h
1611 10-12-2009 10:20:01 9 C 8.38 g/m*3 9 C 0 km/h
1612 10-12-2009 10:32:02 9 C 8.29 g/m*3 9 C 0 km/h
1613 10-12-2009 10:44:02 8.9 C 8.32 g/m*3 8.9 C 0 km/h
1614 10-12-2009 10:56:02 9.1 C 8.34 g/m*3 9.1 C 0 km/h
1615 10-12-2009 11:08:02 9.3 C 8.45 g/m*3 9.3 C 0 km/h
1616 10-12-2009 11:20:01 9.7 C 8.57 g/m*3 9.7 C 0 km/h
1617 10-12-2009 11:32:01 9.6 C 8.43 g/m*3 9.6 C 0 km/h
1618 10-12-2009 11:44:01 9.8 C 8.35 g/m*3 9.8 C 0 km/h
1619 10-12-2009 11:56:02 10 C 7.99 g/m*3 10 C 0 km/h
1620 10-12-2009 12:08:02 10 C 7.52 g/m*3 10 C 0 km/h
1621 10-12-2009 12:20:02 10 C 7.8 g/m*3 10 C 0 km/h
1622 10-12-2009 12:32:01 10 C 7.61 g/m*3 10 C 0 km/h
1623 10-12-2009 12:44:01 10.1 C 7.09 g/m*3 10.1 C 0 km/h
1624 10-12-2009 12:56:03 10.1 C 6.71 g/m*3 10.1 C 0 km/h
1625 10-12-2009 13:08:02 10.3 C 6.8 g/m*3 10.3 C 0 km/h
Sensor: Nr:Datum:Temp:Abs-Feuchte:Windchill:Wind:
Aussen-T/F 1626 10-12-2009 13:20:03 10.4 C 6.46 g/m*3 10.4 C 0 km/h
1627 10-12-2009 13:32:02 10.7 C 6.29 g/m*3 10.7 C 0 km/h
1628 10-12-2009 13:44:02 10.8 C 6.13 g/m*3 10.8 C 0 km/h
1629 10-12-2009 13:56:02 10.9 C 5.97 g/m*3 10.9 C 0 km/h
1630 10-12-2009 14:08:01 10.8 C 6.03 g/m*3 10.8 C 0 km/h
1631 10-12-2009 14:20:02 10.8 C 6.03 g/m*3 10.8 C 0 km/h
1632 10-12-2009 14:32:02 10.8 C 6.03 g/m*3 10.8 C 0 km/h
1633 10-12-2009 14:44:02 10.8 C 5.93 g/m*3 10.8 C 0 km/h
1634 10-12-2009 14:56:02 11 C 5.71 g/m*3 11 C 0 km/h
1635 10-12-2009 15:08:02 10.8 C 5.73 g/m*3 10.8 C 0 km/h
1636 10-12-2009 15:20:02 10.8 C 5.63 g/m*3 10.8 C 0 km/h
1637 10-12-2009 15:32:02 10.5 C 5.53 g/m*3 10.5 C 0 km/h
1638 10-12-2009 15:44:02 10.4 C 5.3 g/m*3 10.4 C 0 km/h
1639 10-12-2009 15:56:02 10.4 C 5.11 g/m*3 10.4 C 0 km/h
1640 10-12-2009 16:08:02 10.2 C 5.14 g/m*3 10.2 C 0 km/h
1641 10-12-2009 16:20:01 10.1 C 5.01 g/m*3 10.1 C 0 km/h
1642 10-12-2009 16:32:02 9.9 C 5.04 g/m*3 9.9 C 0 km/h
1643 10-12-2009 16:44:02 9.8 C 5.1 g/m*3 9.8 C 0 km/h
1644 10-12-2009 16:56:02 9.8 C 5.2 g/m*3 9.8 C 0 km/h
1645 10-12-2009 17:08:02 9.7 C 5.35 g/m*3 9.7 C 0 km/h
1646 10-12-2009 17:20:02 9.5 C 5.37 g/m*3 9.5 C 0 km/h
1647 10-12-2009 17:32:02 9.3 C 5.39 g/m*3 9.3 C 0 km/h
1648 10-12-2009 17:44:03 9.1 C 5.5 g/m*3 9.1 C 0 km/h
1649 10-12-2009 17:56:01 9 C 5.29 g/m*3 9 C 0 km/h
1650 10-12-2009 18:08:02 8.7 C 5.28 g/m*3 8.7 C 0 km/h
Sensor: Nr:Datum:Temp:Abs-Feuchte:Windchill:Wind:
Aussen-T/F 1651 10-12-2009 18:20:01 8.5 C 5.29 g/m*3 8.5 C 0 km/h
1652 10-12-2009 18:32:02 8.7 C 5.45 g/m*3 8.7 C 0 km/h
1653 10-12-2009 18:44:02 8.7 C 5.53 g/m*3 8.7 C 0 km/h
1654 10-12-2009 18:56:01 8.7 C 5.53 g/m*3 8.7 C 0 km/h
1655 10-12-2009 19:08:02 8.7 C 5.71 g/m*3 8.7 C 0 km/h
1656 10-12-2009 19:20:02 8.2 C 5.95 g/m*3 8.2 C 0 km/h
1657 10-12-2009 19:32:02 8.2 C 6.11 g/m*3 8.2 C 0 km/h
1658 10-12-2009 19:44:02 8.1 C 6.16 g/m*3 8.1 C 0 km/h
1659 10-12-2009 19:56:02 8.3 C 6.15 g/m*3 8.3 C 0 km/h
1660 10-12-2009 20:08:03 8.3 C 6.15 g/m*3 8.3 C 0 km/h
1661 10-12-2009 20:20:04 8.6 C 6.1 g/m*3 8.6 C 0 km/h
1662 10-12-2009 20:32:02 8.6 C 6.02 g/m*3 8.6 C 0 km/h
1663 10-12-2009 20:44:02 8.5 C 5.98 g/m*3 8.5 C 0 km/h
1664 10-12-2009 20:56:02 8.6 C 5.93 g/m*3 8.6 C 0 km/h
1665 10-12-2009 21:08:02 8.5 C 6.06 g/m*3 8.5 C 0 km/h
1666 10-12-2009 21:20:02 7.9 C 6.24 g/m*3 7.9 C 0 km/h
1667 10-12-2009 21:32:02 7.9 C 6.32 g/m*3 7.9 C 0 km/h
1668 10-12-2009 21:44:02 7.9 C 6.32 g/m*3 7.9 C 0 km/h
1669 10-12-2009 21:56:02 8.2 C 6.2 g/m*3 8.2 C 0 km/h
1670 10-12-2009 22:08:01 8.5 C 6.06 g/m*3 8.5 C 0 km/h
1671 10-12-2009 22:21:03 8.5 C 6.06 g/m*3 8.5 C 0 km/h
1672 10-12-2009 22:33:03 8.4 C 6.11 g/m*3 8.4 C 0 km/h
1673 10-12-2009 22:45:03 8.3 C 6.24 g/m*3 8.3 C 0 km/h
1674 10-12-2009 22:57:03 8.3 C 6.32 g/m*3 8.3 C 0 km/h
1675 10-12-2009 23:09:03 8.3 C 6.32 g/m*3 8.3 C 0 km/h
Sensor: Nr:Datum:Temp:Abs-Feuchte:Windchill:Wind:
Aussen-T/F 1676 10-12-2009 23:21:03 8.1 C 6.41 g/m*3 8.1 C 0 km/h
1677 10-12-2009 23:33:03 8 C 6.45 g/m*3 8 C 0 km/h
1678 10-12-2009 23:45:03 7.9 C 6.74 g/m*3 7.9 C 0 km/h
1679 10-12-2009 23:57:03 7.7 C 6.81 g/m*3 7.7 C 0 km/h
1680 11-12-2009 00:09:03 7.6 C 6.93 g/m*3 7.6 C 0 km/h
1681 11-12-2009 00:21:03 7.5 C 7.04 g/m*3 7.5 C 0 km/h
1682 11-12-2009 00:33:03 7.6 C 7.09 g/m*3 7.6 C 0 km/h
1683 11-12-2009 00:45:03 7.7 C 7.14 g/m*3 7.7 C 0 km/h
1684 11-12-2009 00:57:03 7.8 C 7.1 g/m*3 7.8 C 0 km/h
1685 11-12-2009 01:09:03 7.8 C 7.1 g/m*3 7.8 C 0 km/h
1686 11-12-2009 01:21:03 7.8 C 7.1 g/m*3 7.8 C 0 km/h
1687 11-12-2009 01:33:03 7.8 C 7.1 g/m*3 7.8 C 0 km/h
1688 11-12-2009 01:45:03 7.9 C 7.06 g/m*3 7.9 C 0 km/h
1689 11-12-2009 01:57:03 7.9 C 6.98 g/m*3 7.9 C 0 km/h
1690 11-12-2009 02:09:04 8 C 6.86 g/m*3 8 C 0 km/h
1691 11-12-2009 02:21:04 7.9 C 6.9 g/m*3 7.9 C 0 km/h
1692 11-12-2009 02:33:04 7.8 C 6.94 g/m*3 7.8 C 0 km/h
1693 11-12-2009 02:45:04 7.9 C 6.98 g/m*3 7.9 C 0 km/h
1694 11-12-2009 02:57:04 8 C 6.94 g/m*3 8 C 0 km/h
1695 11-12-2009 03:09:04 8 C 6.94 g/m*3 8 C 0 km/h
1696 11-12-2009 03:21:04 8 C 6.86 g/m*3 8 C 0 km/h
1697 11-12-2009 03:33:04 7.9 C 6.98 g/m*3 7.9 C 0 km/h
1698 11-12-2009 03:45:04 7.9 C 7.06 g/m*3 7.9 C 0 km/h
1699 11-12-2009 03:57:04 7.9 C 7.06 g/m*3 7.9 C 0 km/h
1700 11-12-2009 04:09:04 8.1 C 6.91 g/m*3 8.1 C 0 km/h
Sensor: Nr:Datum:Temp:Abs-Feuchte:Windchill:Wind:
Aussen-T/F 1701 11-12-2009 04:21:04 8.2 C 6.95 g/m*3 8.2 C 0 km/h
1702 11-12-2009 04:33:04 8.1 C 6.91 g/m*3 8.1 C 0 km/h
1703 11-12-2009 04:45:04 8.1 C 6.91 g/m*3 8.1 C 0 km/h
1704 11-12-2009 04:57:04 8 C 6.86 g/m*3 8 C 0 km/h
1705 11-12-2009 05:09:04 7.9 C 6.98 g/m*3 7.9 C 0 km/h
1706 11-12-2009 05:21:04 7.8 C 7.02 g/m*3 7.8 C 0 km/h
1707 11-12-2009 05:33:04 7.8 C 7.02 g/m*3 7.8 C 0 km/h
1708 11-12-2009 05:45:04 7.9 C 7.06 g/m*3 7.9 C 0 km/h
1709 11-12-2009 05:57:04 7.9 C 6.9 g/m*3 7.9 C 0 km/h
1710 11-12-2009 06:09:04 8 C 6.7 g/m*3 8 C 0 km/h
1711 11-12-2009 06:21:04 7.8 C 6.77 g/m*3 7.8 C 0 km/h
1712 11-12-2009 06:33:05 7.6 C 6.93 g/m*3 7.6 C 0 km/h
1713 11-12-2009 06:45:05 7.4 C 7 g/m*3 7.4 C 0 km/h
1714 11-12-2009 06:57:05 7.3 C 6.95 g/m*3 7.3 C 0 km/h
1715 11-12-2009 07:09:02 7 C 6.82 g/m*3 7 C 0 km/h
1716 11-12-2009 07:21:03 7.3 C 7.03 g/m*3 7.3 C 0 km/h
1717 11-12-2009 07:33:03 7.4 C 7.08 g/m*3 7.4 C 0 km/h
1718 11-12-2009 07:45:02 7.4 C 7 g/m*3 7.4 C 0 km/h
1719 11-12-2009 07:57:02 7.6 C 7.01 g/m*3 7.6 C 0 km/h
1720 11-12-2009 08:09:02 7.6 C 6.77 g/m*3 7.6 C 0 km/h
1721 11-12-2009 08:21:02 7.7 C 6.57 g/m*3 7.7 C 0 km/h
1722 11-12-2009 08:33:03 7.7 C 6.49 g/m*3 7.7 C 0 km/h
1723 11-12-2009 08:45:02 7.7 C 6.57 g/m*3 7.7 C 0 km/h
1724 11-12-2009 08:57:02 7.8 C 6.61 g/m*3 7.8 C 0 km/h
1725 11-12-2009 09:09:02 7.7 C 6.49 g/m*3 7.7 C 0 km/h
Sensor: Nr:Datum:Temp:Abs-Feuchte:Windchill:Wind:
Aussen-T/F 1726 11-12-2009 09:21:01 7.7 C 6.41 g/m*3 7.7 C 0 km/h
1727 11-12-2009 09:33:02 7.6 C 6.2 g/m*3 7.6 C 0 km/h
1728 11-12-2009 09:45:02 7.6 C 6.04 g/m*3 7.6 C 0 km/h
1729 11-12-2009 09:57:02 7.6 C 5.96 g/m*3 7.6 C 0 km/h
1730 11-12-2009 10:09:02 7.4 C 5.73 g/m*3 7.4 C 0 km/h
1731 11-12-2009 10:21:02 7.4 C 5.57 g/m*3 7.4 C 0 km/h
1732 11-12-2009 10:33:02 7.3 C 5.45 g/m*3 7.3 C 0 km/h
1733 11-12-2009 10:45:02 7.3 C 5.45 g/m*3 7.3 C 0 km/h
1734 11-12-2009 10:57:02 7.5 C 5.44 g/m*3 7.5 C 0 km/h
1735 11-12-2009 11:09:02 7.6 C 5.4 g/m*3 7.6 C 0 km/h
1736 11-12-2009 11:21:02 7.5 C 5.44 g/m*3 7.5 C 0 km/h
1737 11-12-2009 11:33:02 7.5 C 5.36 g/m*3 7.5 C 0 km/h
1738 11-12-2009 11:45:02 7.9 C 5.42 g/m*3 7.9 C 0 km/h
1739 11-12-2009 11:57:02 8.2 C 5.36 g/m*3 8.2 C 0 km/h
1740 11-12-2009 12:09:02 8.3 C 5.31 g/m*3 8.3 C 0 km/h
1741 11-12-2009 12:21:03 8 C 5.29 g/m*3 8 C 0 km/h
1742 11-12-2009 12:33:02 7.8 C 5.3 g/m*3 7.8 C 0 km/h
1743 11-12-2009 12:45:03 7.7 C 5.27 g/m*3 7.7 C 0 km/h
1744 11-12-2009 12:57:03 7.7 C 5.27 g/m*3 7.7 C 0 km/h
1745 11-12-2009 13:09:02 7.9 C 5.34 g/m*3 7.9 C 0 km/h
1746 11-12-2009 13:21:02 7.9 C 5.42 g/m*3 7.9 C 0 km/h
1747 11-12-2009 13:33:02 7.8 C 5.3 g/m*3 7.8 C 0 km/h
1748 11-12-2009 13:45:02 7.7 C 5.27 g/m*3 7.7 C 0 km/h
1749 11-12-2009 13:57:02 7.7 C 5.35 g/m*3 7.7 C 0 km/h
1750 11-12-2009 14:09:02 7.6 C 5.32 g/m*3 7.6 C 0 km/h
Sensor: Nr:Datum:Temp:Abs-Feuchte:Windchill:Wind:
Aussen-T/F 1751 11-12-2009 14:21:02 7.4 C 5.17 g/m*3 7.4 C 0 km/h
1752 11-12-2009 14:33:02 7.3 C 5.14 g/m*3 7.3 C 0 km/h
1753 11-12-2009 14:45:02 7.3 C 5.14 g/m*3 7.3 C 0 km/h
1754 11-12-2009 14:57:03 7.3 C 5.21 g/m*3 7.3 C 0 km/h
1755 11-12-2009 15:09:01 7.1 C 5.15 g/m*3 7.1 C 0 km/h
1756 11-12-2009 15:21:01 7.1 C 5.15 g/m*3 7.1 C 0 km/h
1757 11-12-2009 15:33:02 7 C 5.19 g/m*3 7 C 0 km/h
1758 11-12-2009 15:45:02 7 C 5.27 g/m*3 7 C 0 km/h
1759 11-12-2009 15:57:02 6.8 C 5.51 g/m*3 6.8 C 0 km/h
1760 11-12-2009 16:09:02 6.5 C 5.55 g/m*3 6.5 C 0 km/h
1761 11-12-2009 16:21:02 6.3 C 5.63 g/m*3 6.3 C 0 km/h
1762 11-12-2009 16:33:02 6.4 C 5.74 g/m*3 6.4 C 0 km/h
1763 11-12-2009 16:45:02 6.3 C 5.7 g/m*3 6.3 C 0 km/h
1764 11-12-2009 16:57:02 6.3 C 5.7 g/m*3 6.3 C 0 km/h
1765 11-12-2009 17:09:02 6.3 C 5.63 g/m*3 6.3 C 0 km/h
1766 11-12-2009 17:21:02 6.2 C 5.66 g/m*3 6.2 C 0 km/h
1767 11-12-2009 17:33:02 6 C 5.81 g/m*3 6 C 0 km/h
1768 11-12-2009 17:45:02 5.8 C 6.02 g/m*3 5.8 C 0 km/h
1769 11-12-2009 17:57:02 5.8 C 6.16 g/m*3 5.8 C 0 km/h
1770 11-12-2009 18:09:02 5.8 C 6.23 g/m*3 5.8 C 0 km/h
1771 11-12-2009 18:21:02 5.9 C 6.35 g/m*3 5.9 C 0 km/h
1772 11-12-2009 18:33:02 5.7 C 6.33 g/m*3 5.7 C 0 km/h
1773 11-12-2009 18:45:02 5.6 C 6.36 g/m*3 5.6 C 0 km/h
1774 11-12-2009 18:57:02 5.4 C 6.28 g/m*3 5.4 C 0 km/h
1775 11-12-2009 19:09:01 5.4 C 6.35 g/m*3 5.4 C 0 km/h
Sensor: Nr:Datum:Temp:Abs-Feuchte:Windchill:Wind:
Aussen-T/F 1776 11-12-2009 19:21:02 5.4 C 6.35 g/m*3 5.4 C 0 km/h
1777 11-12-2009 19:33:02 5.3 C 6.38 g/m*3 5.3 C 0 km/h
1778 11-12-2009 19:45:02 5.1 C 6.29 g/m*3 5.1 C 0 km/h
1779 11-12-2009 19:57:02 4.6 C 6.09 g/m*3 4.6 C 0 km/h
1780 11-12-2009 20:09:02 4.3 C 5.9 g/m*3 4.3 C 0 km/h
1781 11-12-2009 20:21:02 4 C 5.79 g/m*3 4 C 0 km/h
1782 11-12-2009 20:33:02 3.9 C 5.75 g/m*3 3.9 C 0 km/h
1783 11-12-2009 20:45:01 3.7 C 5.73 g/m*3 3.7 C 0 km/h
1784 11-12-2009 20:57:01 3.5 C 5.6 g/m*3 3.5 C 0 km/h
1785 11-12-2009 21:09:01 3.4 C 5.56 g/m*3 3.4 C 0 km/h
1786 11-12-2009 21:21:02 3.2 C 5.54 g/m*3 3.2 C 0 km/h
1787 11-12-2009 21:33:01 3.3 C 5.58 g/m*3 3.3 C 0 km/h
1788 11-12-2009 21:45:02 3.4 C 5.68 g/m*3 3.4 C 0 km/h
1789 11-12-2009 21:57:02 3.4 C 5.68 g/m*3 3.4 C 0 km/h
1790 11-12-2009 22:09:02 3.4 C 5.68 g/m*3 3.4 C 0 km/h
1791 11-12-2009 22:21:02 3.4 C 5.68 g/m*3 3.4 C 0 km/h
1792 11-12-2009 22:33:02 3.3 C 5.64 g/m*3 3.3 C 0 km/h
1793 11-12-2009 22:45:02 3.4 C 5.68 g/m*3 3.4 C 0 km/h
1794 11-12-2009 22:57:02 3.4 C 5.68 g/m*3 3.4 C 0 km/h
1795 11-12-2009 23:09:01 3.4 C 5.68 g/m*3 3.4 C 0 km/h
1796 11-12-2009 23:21:02 3.4 C 5.68 g/m*3 3.4 C 0 km/h
1797 11-12-2009 23:33:02 3.4 C 5.68 g/m*3 3.4 C 0 km/h
1798 11-12-2009 23:45:02 3.2 C 5.6 g/m*3 3.2 C 0 km/h
1799 11-12-2009 23:57:02 3.3 C 5.64 g/m*3 3.3 C 0 km/h
1800 12-12-2009 00:09:03 3.4 C 5.68 g/m*3 3.4 C 0 km/h
Sensor: Nr:Datum:Temp:Abs-Feuchte:Windchill:Wind:
Aussen-T/F 1801 12-12-2009 00:21:02 3.4 C 5.68 g/m*3 3.4 C 0 km/h
1802 12-12-2009 00:33:02 3.1 C 5.57 g/m*3 3.1 C 0 km/h
1803 12-12-2009 00:45:01 3.1 C 5.63 g/m*3 3.1 C 0 km/h
1804 12-12-2009 00:57:01 3.3 C 5.7 g/m*3 3.3 C 0 km/h
1805 12-12-2009 01:09:02 3.4 C 5.74 g/m*3 3.4 C 0 km/h
1806 12-12-2009 01:21:01 3.2 C 5.66 g/m*3 3.2 C 0 km/h
1807 12-12-2009 01:33:01 3.2 C 5.66 g/m*3 3.2 C 0 km/h
1808 12-12-2009 01:45:01 3.1 C 5.63 g/m*3 3.1 C 0 km/h
1809 12-12-2009 01:57:01 3.3 C 5.7 g/m*3 3.3 C 0 km/h
1810 12-12-2009 02:09:02 3.3 C 5.7 g/m*3 3.3 C 0 km/h
1811 12-12-2009 02:21:02 3.2 C 5.66 g/m*3 3.2 C 0 km/h
1812 12-12-2009 02:33:01 3.1 C 5.63 g/m*3 3.1 C 0 km/h
1813 12-12-2009 02:46:03 3.2 C 5.72 g/m*3 3.2 C 0 km/h
1814 12-12-2009 02:58:03 3.4 C 5.8 g/m*3 3.4 C 0 km/h
1815 12-12-2009 03:10:03 3.4 C 5.8 g/m*3 3.4 C 0 km/h
1816 12-12-2009 03:22:03 3.3 C 5.7 g/m*3 3.3 C 0 km/h
1817 12-12-2009 03:34:02 3.4 C 5.74 g/m*3 3.4 C 0 km/h
1818 12-12-2009 03:46:02 3.2 C 5.6 g/m*3 3.2 C 0 km/h
1819 12-12-2009 03:58:02 3.1 C 5.57 g/m*3 3.1 C 0 km/h
1820 12-12-2009 04:10:02 3.1 C 5.51 g/m*3 3.1 C 0 km/h
1821 12-12-2009 04:22:02 3.1 C 5.51 g/m*3 3.1 C 0 km/h
1822 12-12-2009 04:34:02 2.9 C 5.49 g/m*3 2.9 C 0 km/h
1823 12-12-2009 04:46:02 2.9 C 5.49 g/m*3 2.9 C 0 km/h
1824 12-12-2009 04:58:02 2.9 C 5.49 g/m*3 2.9 C 0 km/h
1825 12-12-2009 05:10:02 3 C 5.47 g/m*3 3 C 0 km/h
Sensor: Nr:Datum:Temp:Abs-Feuchte:Windchill:Wind:
Aussen-T/F 1826 12-12-2009 05:22:02 2.9 C 5.49 g/m*3 2.9 C 0 km/h
1827 12-12-2009 05:34:02 2.9 C 5.49 g/m*3 2.9 C 0 km/h
1828 12-12-2009 05:46:02 3 C 5.47 g/m*3 3 C 0 km/h
1829 12-12-2009 05:58:02 2.9 C 5.49 g/m*3 2.9 C 0 km/h
1830 12-12-2009 06:10:02 2.9 C 5.49 g/m*3 2.9 C 0 km/h
1831 12-12-2009 06:22:02 3 C 5.47 g/m*3 3 C 0 km/h
1832 12-12-2009 06:34:02 3 C 5.47 g/m*3 3 C 0 km/h
1833 12-12-2009 06:46:02 3.1 C 5.51 g/m*3 3.1 C 0 km/h
1834 12-12-2009 06:58:02 3.1 C 5.51 g/m*3 3.1 C 0 km/h
1835 12-12-2009 07:10:01 3.1 C 5.51 g/m*3 3.1 C 0 km/h
1836 12-12-2009 07:22:02 3.1 C 5.51 g/m*3 3.1 C 0 km/h
1837 12-12-2009 07:34:01 3.1 C 5.51 g/m*3 3.1 C 0 km/h
1838 12-12-2009 07:46:02 3.1 C 5.51 g/m*3 3.1 C 0 km/h
1839 12-12-2009 07:58:02 3.1 C 5.51 g/m*3 3.1 C 0 km/h
1840 12-12-2009 08:10:02 3.1 C 5.51 g/m*3 3.1 C 0 km/h
1841 12-12-2009 08:22:02 3.1 C 5.51 g/m*3 3.1 C 0 km/h
1842 12-12-2009 08:34:02 3.4 C 5.62 g/m*3 3.4 C 0 km/h
1843 12-12-2009 08:46:02 3.1 C 5.51 g/m*3 3.1 C 0 km/h
1844 12-12-2009 08:58:02 3.1 C 5.51 g/m*3 3.1 C 0 km/h
1845 12-12-2009 09:10:02 3.2 C 5.54 g/m*3 3.2 C 0 km/h
1846 12-12-2009 09:22:01 3.2 C 5.54 g/m*3 3.2 C 0 km/h
1847 12-12-2009 09:34:02 3.3 C 5.58 g/m*3 3.3 C 0 km/h
1848 12-12-2009 09:46:02 3.4 C 5.62 g/m*3 3.4 C 0 km/h
1849 12-12-2009 09:58:02 3.4 C 5.62 g/m*3 3.4 C 0 km/h
1850 12-12-2009 10:10:02 3.4 C 5.56 g/m*3 3.4 C 0 km/h
Sensor: Nr:Datum:Temp:Abs-Feuchte:Windchill:Wind:
Aussen-T/F 1851 12-12-2009 10:22:01 3.5 C 5.6 g/m*3 3.5 C 0 km/h
1852 12-12-2009 10:34:02 3.4 C 5.56 g/m*3 3.4 C 0 km/h
1853 12-12-2009 10:46:02 3.3 C 5.52 g/m*3 3.3 C 0 km/h
1854 12-12-2009 10:58:02 3.4 C 5.56 g/m*3 3.4 C 0 km/h
1855 12-12-2009 11:10:02 3.6 C 5.63 g/m*3 3.6 C 0 km/h
1856 12-12-2009 11:22:02 3.6 C 5.63 g/m*3 3.6 C 0 km/h
1857 12-12-2009 11:34:02 3.6 C 5.63 g/m*3 3.6 C 0 km/h
1858 12-12-2009 11:46:02 3.7 C 5.61 g/m*3 3.7 C 0 km/h
1859 12-12-2009 11:58:02 3.8 C 5.65 g/m*3 3.8 C 0 km/h
1860 12-12-2009 12:10:02 3.8 C 5.58 g/m*3 3.8 C 0 km/h
1861 12-12-2009 12:22:01 3.8 C 5.58 g/m*3 3.8 C 0 km/h
1862 12-12-2009 12:34:02 3.8 C 5.58 g/m*3 3.8 C 0 km/h
1863 12-12-2009 12:46:01 3.8 C 5.52 g/m*3 3.8 C 0 km/h
1864 12-12-2009 12:58:01 4 C 5.53 g/m*3 4 C 0 km/h
1865 12-12-2009 13:10:02 4.2 C 5.54 g/m*3 4.2 C 0 km/h
1866 12-12-2009 13:22:02 4.2 C 5.54 g/m*3 4.2 C 0 km/h
1867 12-12-2009 13:34:01 4.4 C 5.55 g/m*3 4.4 C 0 km/h
1868 12-12-2009 13:46:02 4.5 C 5.52 g/m*3 4.5 C 0 km/h
1869 12-12-2009 13:58:02 4.5 C 5.46 g/m*3 4.5 C 0 km/h
1870 12-12-2009 14:10:01 4.5 C 5.39 g/m*3 4.5 C 0 km/h
1871 12-12-2009 14:22:02 4.6 C 5.43 g/m*3 4.6 C 0 km/h
1872 12-12-2009 14:34:01 4.7 C 5.46 g/m*3 4.7 C 0 km/h
1873 12-12-2009 14:46:03 4.6 C 5.43 g/m*3 4.6 C 0 km/h
1874 12-12-2009 14:58:03 4.5 C 5.39 g/m*3 4.5 C 0 km/h
1875 12-12-2009 15:10:02 4.4 C 5.29 g/m*3 4.4 C 0 km/h
Sensor: Nr:Datum:Temp:Abs-Feuchte:Windchill:Wind:
Aussen-T/F 1876 12-12-2009 15:22:02 4.4 C 5.22 g/m*3 4.4 C 0 km/h
1877 12-12-2009 15:34:02 4.4 C 5.22 g/m*3 4.4 C 0 km/h
1878 12-12-2009 15:46:02 4.4 C 5.03 g/m*3 4.4 C 0 km/h
1879 12-12-2009 15:58:02 4.4 C 4.9 g/m*3 4.4 C 0 km/h
1880 12-12-2009 16:10:01 4.4 C 4.83 g/m*3 4.4 C 0 km/h
1881 12-12-2009 16:22:02 4.3 C 4.74 g/m*3 4.3 C 0 km/h
1882 12-12-2009 16:34:02 4.2 C 4.77 g/m*3 4.2 C 0 km/h
1883 12-12-2009 16:46:02 4.2 C 4.9 g/m*3 4.2 C 0 km/h
1884 12-12-2009 16:58:03 4.1 C 4.86 g/m*3 4.1 C 0 km/h
1885 12-12-2009 17:10:01 4.1 C 4.8 g/m*3 4.1 C 0 km/h
1886 12-12-2009 17:22:01 4.1 C 4.74 g/m*3 4.1 C 0 km/h
1887 12-12-2009 17:34:02 4 C 4.77 g/m*3 4 C 0 km/h
1888 12-12-2009 17:46:02 4 C 4.77 g/m*3 4 C 0 km/h
1889 12-12-2009 17:58:02 4 C 4.77 g/m*3 4 C 0 km/h
1890 12-12-2009 18:10:01 3.9 C 4.86 g/m*3 3.9 C 0 km/h
1891 12-12-2009 18:22:02 3.9 C 4.86 g/m*3 3.9 C 0 km/h
1892 12-12-2009 18:34:02 3.8 C 4.83 g/m*3 3.8 C 0 km/h
1893 12-12-2009 18:46:01 3.9 C 4.8 g/m*3 3.9 C 0 km/h
1894 12-12-2009 18:58:01 3.9 C 4.86 g/m*3 3.9 C 0 km/h
1895 12-12-2009 19:10:02 3.8 C 4.83 g/m*3 3.8 C 0 km/h
1896 12-12-2009 19:22:01 3.8 C 4.77 g/m*3 3.8 C 0 km/h
1897 12-12-2009 19:34:02 3.5 C 4.67 g/m*3 3.5 C 0 km/h
1898 12-12-2009 19:46:02 3.1 C 4.61 g/m*3 3.1 C 0 km/h
1899 12-12-2009 19:58:02 2.8 C 4.69 g/m*3 2.8 C 0 km/h
1900 12-12-2009 20:10:02 2.7 C 4.72 g/m*3 2.7 C 0 km/h
Sensor: Nr:Datum:Temp:Abs-Feuchte:Windchill:Wind:
Aussen-T/F 1901 12-12-2009 20:22:01 2.8 C 4.81 g/m*3 2.8 C 0 km/h
1902 12-12-2009 20:34:02 3 C 4.82 g/m*3 3 C 0 km/h
1903 12-12-2009 20:46:02 3 C 4.82 g/m*3 3 C 0 km/h
1904 12-12-2009 20:58:02 3.2 C 4.76 g/m*3 3.2 C 0 km/h
1905 12-12-2009 21:10:02 3.1 C 4.73 g/m*3 3.1 C 0 km/h
1906 12-12-2009 21:22:02 3.2 C 4.82 g/m*3 3.2 C 0 km/h
1907 12-12-2009 21:34:01 3.1 C 4.79 g/m*3 3.1 C 0 km/h
1908 12-12-2009 21:46:02 3 C 4.76 g/m*3 3 C 0 km/h
1909 12-12-2009 21:58:02 3.1 C 4.85 g/m*3 3.1 C 0 km/h
1910 12-12-2009 22:10:01 3.1 C 4.85 g/m*3 3.1 C 0 km/h
1911 12-12-2009 22:22:02 3 C 4.82 g/m*3 3 C 0 km/h
1912 12-12-2009 22:34:01 3 C 4.82 g/m*3 3 C 0 km/h
1913 12-12-2009 22:46:02 3 C 4.82 g/m*3 3 C 0 km/h
1914 12-12-2009 22:58:02 3 C 4.82 g/m*3 3 C 0 km/h
1915 12-12-2009 23:10:02 3 C 4.76 g/m*3 3 C 0 km/h
1916 12-12-2009 23:22:02 3.1 C 4.73 g/m*3 3.1 C 0 km/h
1917 12-12-2009 23:34:03 3.1 C 4.67 g/m*3 3.1 C 0 km/h
1918 12-12-2009 23:46:02 3.2 C 4.7 g/m*3 3.2 C 0 km/h
1919 12-12-2009 23:58:02 3.1 C 4.67 g/m*3 3.1 C 0 km/h
1920 13-12-2009 00:10:01 3.1 C 4.61 g/m*3 3.1 C 0 km/h
1921 13-12-2009 00:22:01 3.1 C 4.61 g/m*3 3.1 C 0 km/h
1922 13-12-2009 00:34:02 3.1 C 4.61 g/m*3 3.1 C 0 km/h
1923 13-12-2009 00:46:01 3.1 C 4.67 g/m*3 3.1 C 0 km/h
1924 13-12-2009 00:58:01 3.1 C 4.67 g/m*3 3.1 C 0 km/h
1925 13-12-2009 01:10:02 3.1 C 4.67 g/m*3 3.1 C 0 km/h
Sensor: Nr:Datum:Temp:Abs-Feuchte:Windchill:Wind:
Aussen-T/F 1926 13-12-2009 01:22:02 3 C 4.58 g/m*3 3 C 0 km/h
1927 13-12-2009 01:34:02 2.9 C 4.61 g/m*3 2.9 C 0 km/h
1928 13-12-2009 01:46:02 2.8 C 4.63 g/m*3 2.8 C 0 km/h
1929 13-12-2009 01:58:02 2.6 C 4.63 g/m*3 2.6 C 0 km/h
1930 13-12-2009 02:10:02 2.6 C 4.69 g/m*3 2.6 C 0 km/h
1931 13-12-2009 02:22:02 2.4 C 4.68 g/m*3 2.4 C 0 km/h
1932 13-12-2009 02:34:01 2.4 C 4.74 g/m*3 2.4 C 0 km/h
1933 13-12-2009 02:47:04 2.2 C 4.79 g/m*3 2.2 C 0 km/h
1934 13-12-2009 02:59:04 2.2 C 4.79 g/m*3 2.2 C 0 km/h
1935 13-12-2009 03:11:03 2.1 C 4.81 g/m*3 2.1 C 0 km/h
1936 13-12-2009 03:23:03 2.1 C 4.87 g/m*3 2.1 C 0 km/h
1937 13-12-2009 03:35:01 2.2 C 4.9 g/m*3 2.2 C 0 km/h
1938 13-12-2009 03:47:01 2.3 C 4.99 g/m*3 2.3 C 0 km/h
1939 13-12-2009 03:59:01 2.2 C 4.96 g/m*3 2.2 C 0 km/h
1940 13-12-2009 04:11:02 2.2 C 4.96 g/m*3 2.2 C 0 km/h
1941 13-12-2009 04:23:01 2.2 C 4.96 g/m*3 2.2 C 0 km/h
1942 13-12-2009 04:35:01 2.2 C 4.96 g/m*3 2.2 C 0 km/h
1943 13-12-2009 04:47:01 2.2 C 4.9 g/m*3 2.2 C 0 km/h
1944 13-12-2009 04:59:01 2.2 C 4.9 g/m*3 2.2 C 0 km/h
1945 13-12-2009 05:11:01 2.2 C 4.9 g/m*3 2.2 C 0 km/h
1946 13-12-2009 05:23:02 2.2 C 4.84 g/m*3 2.2 C 0 km/h
1947 13-12-2009 05:35:01 2.2 C 4.84 g/m*3 2.2 C 0 km/h
1948 13-12-2009 05:47:03 2.2 C 4.84 g/m*3 2.2 C 0 km/h
1949 13-12-2009 05:59:03 2.2 C 4.84 g/m*3 2.2 C 0 km/h
1950 13-12-2009 06:11:02 2.2 C 4.79 g/m*3 2.2 C 0 km/h
Sensor: Nr:Datum:Temp:Abs-Feuchte:Windchill:Wind:
Aussen-T/F 1951 13-12-2009 06:23:02 2.2 C 4.79 g/m*3 2.2 C 0 km/h
1952 13-12-2009 06:35:02 2.2 C 4.79 g/m*3 2.2 C 0 km/h
1953 13-12-2009 06:47:02 2 C 4.56 g/m*3 2 C 0 km/h
1954 13-12-2009 06:59:02 2.1 C 4.25 g/m*3 2.1 C 0 km/h
1955 13-12-2009 07:11:01 2 C 4.06 g/m*3 2 C 0 km/h
1956 13-12-2009 07:23:02 1.7 C 4.03 g/m*3 1.7 C 0 km/h
1957 13-12-2009 07:35:02 1.7 C 4.08 g/m*3 1.7 C 0 km/h
1958 13-12-2009 07:47:02 1.7 C 4.03 g/m*3 1.7 C 0 km/h
1959 13-12-2009 07:59:02 1.7 C 3.97 g/m*3 1.7 C 0 km/h
1960 13-12-2009 08:11:03 1.7 C 4.03 g/m*3 1.7 C 0 km/h
1961 13-12-2009 08:23:02 1.7 C 4.08 g/m*3 1.7 C 0 km/h
1962 13-12-2009 08:35:02 1.7 C 4.08 g/m*3 1.7 C 0 km/h
1963 13-12-2009 08:47:01 1.7 C 4.08 g/m*3 1.7 C 0 km/h
1964 13-12-2009 08:59:01 1.8 C 4.11 g/m*3 1.8 C 0 km/h
1965 13-12-2009 09:11:02 1.8 C 4.11 g/m*3 1.8 C 0 km/h
1966 13-12-2009 09:23:01 1.9 C 4.14 g/m*3 1.9 C 0 km/h
1967 13-12-2009 09:35:01 2 C 4.11 g/m*3 2 C 0 km/h
1968 13-12-2009 09:47:01 2.1 C 4.14 g/m*3 2.1 C 0 km/h
1969 13-12-2009 09:59:01 2.1 C 4.08 g/m*3 2.1 C 0 km/h
1970 13-12-2009 10:11:02 2.1 C 3.97 g/m*3 2.1 C 0 km/h
1971 13-12-2009 10:23:01 2.1 C 3.92 g/m*3 2.1 C 0 km/h
1972 13-12-2009 10:35:02 2.1 C 3.75 g/m*3 2.1 C 0 km/h
1973 13-12-2009 10:47:01 2.3 C 3.69 g/m*3 2.3 C 0 km/h
1974 13-12-2009 10:59:01 2.3 C 3.52 g/m*3 2.3 C 0 km/h
1975 13-12-2009 11:11:02 2.3 C 3.52 g/m*3 2.3 C 0 km/h
Sensor: Nr:Datum:Temp:Abs-Feuchte:Windchill:Wind:
Aussen-T/F 1976 13-12-2009 11:23:01 2.3 C 3.52 g/m*3 2.3 C 0 km/h
1977 13-12-2009 11:35:01 2.7 C 3.67 g/m*3 2.7 C 0 km/h
1978 13-12-2009 11:47:01 2.8 C 3.7 g/m*3 2.8 C 0 km/h
1979 13-12-2009 11:59:01 2.5 C 3.56 g/m*3 2.5 C 0 km/h
1980 13-12-2009 12:11:01 2.5 C 3.56 g/m*3 2.5 C 0 km/h
1981 13-12-2009 12:23:02 2.6 C 3.59 g/m*3 2.6 C 0 km/h
1982 13-12-2009 12:35:01 2.6 C 3.59 g/m*3 2.6 C 0 km/h
1983 13-12-2009 12:47:02 2.9 C 3.48 g/m*3 2.9 C 0 km/h
1984 13-12-2009 12:59:02 2.8 C 3.4 g/m*3 2.8 C 0 km/h
1985 13-12-2009 13:11:02 2.6 C 3.47 g/m*3 2.6 C 0 km/h
1986 13-12-2009 13:23:02 2.6 C 3.47 g/m*3 2.6 C 0 km/h
1987 13-12-2009 13:35:02 2.7 C 3.5 g/m*3 2.7 C 0 km/h
1988 13-12-2009 13:47:02 2.8 C 3.58 g/m*3 2.8 C 0 km/h
1989 13-12-2009 13:59:02 2.8 C 3.28 g/m*3 2.8 C 0 km/h
1990 13-12-2009 14:11:02 2.6 C 3.07 g/m*3 2.6 C 0 km/h
1991 13-12-2009 14:23:02 2.3 C 3.01 g/m*3 2.3 C 0 km/h
1992 13-12-2009 14:35:01 2 C 2.95 g/m*3 2 C 0 km/h
1993 13-12-2009 14:47:02 1.7 C 2.99 g/m*3 1.7 C 0 km/h
1994 13-12-2009 14:59:02 1.6 C 2.97 g/m*3 1.6 C 0 km/h
1995 13-12-2009 15:11:02 1.6 C 2.97 g/m*3 1.6 C 0 km/h
1996 13-12-2009 15:23:02 1.5 C 3.01 g/m*3 1.5 C 0 km/h
1997 13-12-2009 15:35:03 1.4 C 2.72 g/m*3 1.4 C 0 km/h
1998 13-12-2009 15:47:02 1.4 C 2.72 g/m*3 1.4 C 0 km/h
1999 13-12-2009 15:59:02 1.3 C 2.7 g/m*3 1.3 C 0 km/h
2000 13-12-2009 16:11:01 1.2 C 2.63 g/m*3 1.2 C 0 km/h
Sensor: Nr:Datum:Temp:Abs-Feuchte:Windchill:Wind:
Aussen-T/F 2001 13-12-2009 16:23:02 1.1 C 2.67 g/m*3 1.1 C 0 km/h
2002 13-12-2009 16:35:01 1 C 2.7 g/m*3 1 C 0 km/h
2003 13-12-2009 16:47:02 1 C 2.8 g/m*3 1 C 0 km/h
2004 13-12-2009 16:59:02 0.9 C 2.73 g/m*3 0.9 C 0 km/h
2005 13-12-2009 17:11:01 0.8 C 2.61 g/m*3 0.8 C 0 km/h
2006 13-12-2009 17:23:01 0.8 C 2.61 g/m*3 0.8 C 0 km/h
2007 13-12-2009 17:35:02 0.8 C 2.51 g/m*3 0.8 C 0 km/h
2008 13-12-2009 17:47:02 0.6 C 2.42 g/m*3 0.6 C 0 km/h
2009 13-12-2009 17:59:02 0.6 C 2.42 g/m*3 0.6 C 0 km/h
2010 13-12-2009 18:11:02 0.5 C 2.41 g/m*3 0.5 C 0 km/h
2011 13-12-2009 18:23:02 0.5 C 2.46 g/m*3 0.5 C 0 km/h
2012 13-12-2009 18:35:02 0.4 C 2.39 g/m*3 0.4 C 0 km/h
2013 13-12-2009 18:47:01 0.3 C 2.37 g/m*3 0.3 C 0 km/h
2014 13-12-2009 18:59:01 0.2 C 2.41 g/m*3 0.2 C 0 km/h
2015 13-12-2009 19:11:02 0.2 C 2.36 g/m*3 0.2 C 0 km/h
2016 13-12-2009 19:23:01 0 C 2.37 g/m*3 0 C 0 km/h
2017 13-12-2009 19:35:02 -0.2 C 2.39 g/m*3 -0.2 C 0 km/h
2018 13-12-2009 19:47:02 -0.4 C 2.4 g/m*3 -0.4 C 0 km/h
2019 13-12-2009 19:59:02 -0.5 C 2.43 g/m*3 -0.5 C 0 km/h
2020 13-12-2009 20:11:02 -0.6 C 2.42 g/m*3 -0.6 C 0 km/h
2021 13-12-2009 20:23:02 -0.6 C 2.46 g/m*3 -0.6 C 0 km/h
2022 13-12-2009 20:35:02 -0.7 C 2.45 g/m*3 -0.7 C 0 km/h
2023 13-12-2009 20:47:02 -0.7 C 2.45 g/m*3 -0.7 C 0 km/h
2024 13-12-2009 20:59:02 -0.8 C 2.43 g/m*3 -0.8 C 0 km/h
2025 13-12-2009 21:11:02 -0.9 C 2.46 g/m*3 -0.9 C 0 km/h
Sensor: Nr:Datum:Temp:Abs-Feuchte:Windchill:Wind:
Aussen-T/F 2026 13-12-2009 21:23:02 -0.9 C 2.5 g/m*3 -0.9 C 0 km/h
2027 13-12-2009 21:35:02 -0.9 C 2.5 g/m*3 -0.9 C 0 km/h
2028 13-12-2009 21:47:02 -0.7 C 2.54 g/m*3 -0.7 C 0 km/h
2029 13-12-2009 21:59:02 -0.5 C 2.57 g/m*3 -0.5 C 0 km/h
2030 13-12-2009 22:11:02 -0.5 C 2.57 g/m*3 -0.5 C 0 km/h
2031 13-12-2009 22:24:02 -0.4 C 2.59 g/m*3 -0.4 C 0 km/h
2032 13-12-2009 22:36:02 -0.5 C 2.57 g/m*3 -0.5 C 0 km/h
2033 13-12-2009 22:48:02 -0.4 C 2.59 g/m*3 -0.4 C 0 km/h
2034 13-12-2009 23:00:02 -0.3 C 2.56 g/m*3 -0.3 C 0 km/h
2035 13-12-2009 23:12:02 -0.3 C 2.56 g/m*3 -0.3 C 0 km/h
2036 13-12-2009 23:24:02 -0.3 C 2.56 g/m*3 -0.3 C 0 km/h
2037 13-12-2009 23:36:02 -0.3 C 2.61 g/m*3 -0.3 C 0 km/h
2038 13-12-2009 23:48:02 -0.3 C 2.61 g/m*3 -0.3 C 0 km/h
2039 14-12-2009 00:00:02 -0.3 C 2.66 g/m*3 -0.3 C 0 km/h
2040 14-12-2009 00:12:02 -0.3 C 2.71 g/m*3 -0.3 C 0 km/h
2041 14-12-2009 00:24:02 -0.4 C 2.73 g/m*3 -0.4 C 0 km/h
2042 14-12-2009 00:36:02 -0.4 C 2.83 g/m*3 -0.4 C 0 km/h
2043 14-12-2009 00:48:02 -0.5 C 2.86 g/m*3 -0.5 C 0 km/h
2044 14-12-2009 01:00:02 -0.7 C 2.86 g/m*3 -0.7 C 0 km/h
2045 14-12-2009 01:12:02 -1.1 C 2.83 g/m*3 -1.1 C 0 km/h
2046 14-12-2009 01:24:02 -1.4 C 2.86 g/m*3 -1.4 C 0 km/h
2047 14-12-2009 01:36:02 -1.7 C 2.84 g/m*3 -1.7 C 0 km/h
2048 14-12-2009 01:48:02 -2 C 2.78 g/m*3 -2 C 0 km/h
2049 14-12-2009 02:00:03 -2.2 C 2.78 g/m*3 -2.2 C 0 km/h
2050 14-12-2009 02:12:03 -2.3 C 2.81 g/m*3 -2.3 C 0 km/h
Sensor: Nr:Datum:Temp:Abs-Feuchte:Windchill:Wind:
Aussen-T/F 2051 14-12-2009 02:24:03 -2.4 C 2.79 g/m*3 -2.4 C 0 km/h
2052 14-12-2009 02:36:03 -2.4 C 2.83 g/m*3 -2.4 C 0 km/h
2053 14-12-2009 02:48:03 -2.5 C 2.85 g/m*3 -2.5 C 0 km/h
2054 14-12-2009 03:00:03 -2.5 C 2.85 g/m*3 -2.5 C 0 km/h
2055 14-12-2009 03:12:03 -2.7 C 2.85 g/m*3 -2.7 C 0 km/h
2056 14-12-2009 03:24:03 -2.5 C 2.93 g/m*3 -2.5 C 0 km/h
2057 14-12-2009 03:36:03 -2.1 C 3.01 g/m*3 -2.1 C 0 km/h
2058 14-12-2009 03:48:03 -1.8 C 3.08 g/m*3 -1.8 C 0 km/h
2059 14-12-2009 04:00:03 -1.7 C 3.06 g/m*3 -1.7 C 0 km/h
2060 14-12-2009 04:12:03 -1.5 C 3.06 g/m*3 -1.5 C 0 km/h
2061 14-12-2009 04:24:03 -1.4 C 3.08 g/m*3 -1.4 C 0 km/h
2062 14-12-2009 04:36:03 -1.3 C 3.01 g/m*3 -1.3 C 0 km/h
2063 14-12-2009 04:48:03 -1.2 C 2.99 g/m*3 -1.2 C 0 km/h
2064 14-12-2009 05:00:03 -1.1 C 2.96 g/m*3 -1.1 C 0 km/h
2065 14-12-2009 05:12:03 -0.9 C 2.87 g/m*3 -0.9 C 0 km/h
2066 14-12-2009 05:24:03 -0.9 C 2.82 g/m*3 -0.9 C 0 km/h
2067 14-12-2009 05:36:03 -0.9 C 2.78 g/m*3 -0.9 C 0 km/h
2068 14-12-2009 05:48:03 -0.8 C 2.75 g/m*3 -0.8 C 0 km/h
2069 14-12-2009 06:00:03 -0.8 C 2.66 g/m*3 -0.8 C 0 km/h
2070 14-12-2009 06:12:04 -0.7 C 2.68 g/m*3 -0.7 C 0 km/h
2071 14-12-2009 06:24:04 -0.7 C 2.63 g/m*3 -0.7 C 0 km/h
2072 14-12-2009 06:36:04 -0.7 C 2.58 g/m*3 -0.7 C 0 km/h
2073 14-12-2009 06:48:04 -0.8 C 2.57 g/m*3 -0.8 C 0 km/h
2074 14-12-2009 07:00:04 -0.8 C 2.57 g/m*3 -0.8 C 0 km/h
2075 14-12-2009 07:12:04 -0.8 C 2.52 g/m*3 -0.8 C 0 km/h
Sensor: Nr:Datum:Temp:Abs-Feuchte:Windchill:Wind:
Aussen-T/F 2076 14-12-2009 07:24:04 -0.8 C 2.52 g/m*3 -0.8 C 0 km/h
2077 14-12-2009 07:36:04 -0.7 C 2.58 g/m*3 -0.7 C 0 km/h
2078 14-12-2009 07:48:02 -0.7 C 2.63 g/m*3 -0.7 C 0 km/h
2079 14-12-2009 08:00:02 -0.7 C 2.63 g/m*3 -0.7 C 0 km/h
2080 14-12-2009 08:12:02 -0.7 C 2.63 g/m*3 -0.7 C 0 km/h
2081 14-12-2009 08:24:02 -0.7 C 2.58 g/m*3 -0.7 C 0 km/h
2082 14-12-2009 08:36:01 -0.7 C 2.63 g/m*3 -0.7 C 0 km/h
2083 14-12-2009 08:48:02 -0.7 C 2.63 g/m*3 -0.7 C 0 km/h
2084 14-12-2009 09:00:02 -0.7 C 2.63 g/m*3 -0.7 C 0 km/h
2085 14-12-2009 09:12:02 -0.7 C 2.63 g/m*3 -0.7 C 0 km/h
2086 14-12-2009 09:24:02 -0.7 C 2.63 g/m*3 -0.7 C 0 km/h
2087 14-12-2009 09:36:03 -0.7 C 2.58 g/m*3 -0.7 C 0 km/h
2088 14-12-2009 09:48:02 -0.7 C 2.54 g/m*3 -0.7 C 0 km/h
2089 14-12-2009 10:00:02 -0.6 C 2.51 g/m*3 -0.6 C 0 km/h
2090 14-12-2009 10:12:03 -0.5 C 2.48 g/m*3 -0.5 C 0 km/h
2091 14-12-2009 10:24:02 -0.4 C 2.5 g/m*3 -0.4 C 0 km/h
2092 14-12-2009 10:36:03 -0.5 C 2.43 g/m*3 -0.5 C 0 km/h
2093 14-12-2009 10:48:02 -0.2 C 2.53 g/m*3 -0.2 C 0 km/h
2094 14-12-2009 11:00:02 -0.2 C 2.48 g/m*3 -0.2 C 0 km/h
2095 14-12-2009 11:12:02 -0.2 C 2.48 g/m*3 -0.2 C 0 km/h
2096 14-12-2009 11:24:01 0 C 2.52 g/m*3 0 C 0 km/h
2097 14-12-2009 11:36:02 0.1 C 2.49 g/m*3 0.1 C 0 km/h
2098 14-12-2009 11:48:01 0.3 C 2.52 g/m*3 0.3 C 0 km/h
2099 14-12-2009 12:00:01 0.2 C 2.46 g/m*3 0.2 C 0 km/h
2100 14-12-2009 12:12:02 0.1 C 2.44 g/m*3 0.1 C 0 km/h
Sensor: Nr:Datum:Temp:Abs-Feuchte:Windchill:Wind:
Aussen-T/F 2101 14-12-2009 12:24:01 0.1 C 2.44 g/m*3 0.1 C 0 km/h
2102 14-12-2009 12:36:02 0.1 C 2.44 g/m*3 0.1 C 0 km/h
2103 14-12-2009 12:48:01 0 C 2.42 g/m*3 0 C 0 km/h
2104 14-12-2009 13:00:01 0 C 2.42 g/m*3 0 C 0 km/h
2105 14-12-2009 13:12:02 0 C 2.42 g/m*3 0 C 0 km/h
2106 14-12-2009 13:24:01 0.1 C 2.44 g/m*3 0.1 C 0 km/h
2107 14-12-2009 13:36:01 0.2 C 2.46 g/m*3 0.2 C 0 km/h
2108 14-12-2009 13:48:01 0.4 C 2.49 g/m*3 0.4 C 0 km/h
2109 14-12-2009 14:00:01 0.6 C 2.58 g/m*3 0.6 C 0 km/h
2110 14-12-2009 14:12:01 0.6 C 2.63 g/m*3 0.6 C 0 km/h
2111 14-12-2009 14:24:02 0.3 C 2.57 g/m*3 0.3 C 0 km/h
2112 14-12-2009 14:36:01 0.2 C 2.6 g/m*3 0.2 C 0 km/h
2113 14-12-2009 14:48:02 0.1 C 2.63 g/m*3 0.1 C 0 km/h
2114 14-12-2009 15:00:02 0 C 2.62 g/m*3 0 C 0 km/h
2115 14-12-2009 15:12:01 -0.1 C 2.65 g/m*3 -0.1 C 0 km/h
2116 14-12-2009 15:24:02 -0.3 C 2.56 g/m*3 -0.3 C 0 km/h
2117 14-12-2009 15:36:01 -0.4 C 2.59 g/m*3 -0.4 C 0 km/h
2118 14-12-2009 15:48:02 -0.5 C 2.57 g/m*3 -0.5 C 0 km/h
2119 14-12-2009 16:00:02 -0.4 C 2.64 g/m*3 -0.4 C 0 km/h
2120 14-12-2009 16:12:02 -0.5 C 2.62 g/m*3 -0.5 C 0 km/h
2121 14-12-2009 16:24:02 -0.5 C 2.67 g/m*3 -0.5 C 0 km/h
2122 14-12-2009 16:36:02 -0.5 C 2.67 g/m*3 -0.5 C 0 km/h
2123 14-12-2009 16:48:02 -0.6 C 2.65 g/m*3 -0.6 C 0 km/h
2124 14-12-2009 17:00:03 -0.4 C 2.73 g/m*3 -0.4 C 0 km/h
2125 14-12-2009 17:12:01 -0.5 C 2.71 g/m*3 -0.5 C 0 km/h
Sensor: Nr:Datum:Temp:Abs-Feuchte:Windchill:Wind:
Aussen-T/F 2126 14-12-2009 17:24:01 -0.6 C 2.65 g/m*3 -0.6 C 0 km/h
2127 14-12-2009 17:36:02 -0.6 C 2.65 g/m*3 -0.6 C 0 km/h
2128 14-12-2009 17:48:02 -0.6 C 2.65 g/m*3 -0.6 C 0 km/h
2129 14-12-2009 18:00:02 -0.6 C 2.7 g/m*3 -0.6 C 0 km/h
2130 14-12-2009 18:12:02 -0.6 C 2.65 g/m*3 -0.6 C 0 km/h
2131 14-12-2009 18:24:02 -0.7 C 2.58 g/m*3 -0.7 C 0 km/h
2132 14-12-2009 18:36:02 -0.7 C 2.54 g/m*3 -0.7 C 0 km/h
2133 14-12-2009 18:48:02 -0.8 C 2.57 g/m*3 -0.8 C 0 km/h
2134 14-12-2009 19:00:02 -0.8 C 2.61 g/m*3 -0.8 C 0 km/h
2135 14-12-2009 19:12:02 -0.7 C 2.63 g/m*3 -0.7 C 0 km/h
2136 14-12-2009 19:24:02 -0.7 C 2.68 g/m*3 -0.7 C 0 km/h
2137 14-12-2009 19:36:02 -0.7 C 2.68 g/m*3 -0.7 C 0 km/h
2138 14-12-2009 19:48:01 -0.7 C 2.68 g/m*3 -0.7 C 0 km/h
2139 14-12-2009 20:00:01 -0.6 C 2.7 g/m*3 -0.6 C 0 km/h
2140 14-12-2009 20:12:02 -0.6 C 2.7 g/m*3 -0.6 C 0 km/h
2141 14-12-2009 20:24:02 -0.6 C 2.7 g/m*3 -0.6 C 0 km/h
2142 14-12-2009 20:36:02 -0.6 C 2.7 g/m*3 -0.6 C 0 km/h
2143 14-12-2009 20:48:02 -0.6 C 2.65 g/m*3 -0.6 C 0 km/h
2144 14-12-2009 21:00:02 -0.5 C 2.71 g/m*3 -0.5 C 0 km/h
2145 14-12-2009 21:12:02 -0.5 C 2.71 g/m*3 -0.5 C 0 km/h
2146 14-12-2009 21:24:02 -0.5 C 2.76 g/m*3 -0.5 C 0 km/h
2147 14-12-2009 21:36:02 -0.5 C 2.71 g/m*3 -0.5 C 0 km/h
2148 14-12-2009 21:49:04 -0.5 C 2.67 g/m*3 -0.5 C 0 km/h
2149 14-12-2009 22:01:04 -1.1 C 2.6 g/m*3 -1.1 C 0 km/h
2150 14-12-2009 22:13:04 -1.6 C 2.6 g/m*3 -1.6 C 0 km/h
Sensor: Nr:Datum:Temp:Abs-Feuchte:Windchill:Wind:
Aussen-T/F 2151 14-12-2009 22:25:04 -1.8 C 2.61 g/m*3 -1.8 C 0 km/h
2152 14-12-2009 22:37:04 -2 C 2.61 g/m*3 -2 C 0 km/h
2153 14-12-2009 22:49:04 -2 C 2.66 g/m*3 -2 C 0 km/h
2154 14-12-2009 23:01:04 -2.1 C 2.64 g/m*3 -2.1 C 0 km/h
2155 14-12-2009 23:13:04 -2.2 C 2.66 g/m*3 -2.2 C 0 km/h
2156 14-12-2009 23:25:05 -2.3 C 2.64 g/m*3 -2.3 C 0 km/h
2157 14-12-2009 23:37:05 -2.4 C 2.62 g/m*3 -2.4 C 0 km/h
2158 14-12-2009 23:49:05 -2.7 C 2.65 g/m*3 -2.7 C 0 km/h
2159 15-12-2009 00:01:05 -2.7 C 2.69 g/m*3 -2.7 C 0 km/h
2160 15-12-2009 00:13:05 -2.7 C 2.73 g/m*3 -2.7 C 0 km/h
2161 15-12-2009 00:25:05 -2.9 C 2.69 g/m*3 -2.9 C 0 km/h
2162 15-12-2009 00:37:05 -3 C 2.67 g/m*3 -3 C 0 km/h
2163 15-12-2009 00:49:05 -3.2 C 2.67 g/m*3 -3.2 C 0 km/h
2164 15-12-2009 01:01:05 -3.3 C 2.69 g/m*3 -3.3 C 0 km/h
2165 15-12-2009 01:13:05 -3.3 C 2.73 g/m*3 -3.3 C 0 km/h
2166 15-12-2009 01:25:05 -3.3 C 2.73 g/m*3 -3.3 C 0 km/h
2167 15-12-2009 01:37:05 -3.4 C 2.71 g/m*3 -3.4 C 0 km/h
2168 15-12-2009 01:49:05 -3.5 C 2.73 g/m*3 -3.5 C 0 km/h
2169 15-12-2009 02:01:05 -3.5 C 2.73 g/m*3 -3.5 C 0 km/h
2170 15-12-2009 02:13:05 -3.5 C 2.77 g/m*3 -3.5 C 0 km/h
2171 15-12-2009 02:25:05 -3.2 C 2.83 g/m*3 -3.2 C 0 km/h
2172 15-12-2009 02:37:05 -3 C 2.87 g/m*3 -3 C 0 km/h
2173 15-12-2009 02:49:05 -2.7 C 2.93 g/m*3 -2.7 C 0 km/h
2174 15-12-2009 03:01:06 -2.6 C 2.91 g/m*3 -2.6 C 0 km/h
2175 15-12-2009 03:13:06 -2.4 C 2.91 g/m*3 -2.4 C 0 km/h
Sensor: Nr:Datum:Temp:Abs-Feuchte:Windchill:Wind:
Aussen-T/F 2176 15-12-2009 03:25:06 -2.3 C 2.89 g/m*3 -2.3 C 0 km/h
2177 15-12-2009 03:37:06 -2.3 C 2.89 g/m*3 -2.3 C 0 km/h
2178 15-12-2009 03:49:06 -2.2 C 2.91 g/m*3 -2.2 C 0 km/h
2179 15-12-2009 04:01:06 -2.1 C 2.93 g/m*3 -2.1 C 0 km/h
2180 15-12-2009 04:13:06 -2 C 2.95 g/m*3 -2 C 0 km/h
2181 15-12-2009 04:25:06 -1.9 C 2.97 g/m*3 -1.9 C 0 km/h
2182 15-12-2009 04:37:06 -1.9 C 2.97 g/m*3 -1.9 C 0 km/h
2183 15-12-2009 04:49:06 -1.9 C 2.97 g/m*3 -1.9 C 0 km/h
2184 15-12-2009 05:01:06 -1.9 C 2.97 g/m*3 -1.9 C 0 km/h
2185 15-12-2009 05:13:06 -1.9 C 2.97 g/m*3 -1.9 C 0 km/h
2186 15-12-2009 05:25:06 -1.8 C 3.04 g/m*3 -1.8 C 0 km/h
2187 15-12-2009 05:37:06 -1.8 C 3.04 g/m*3 -1.8 C 0 km/h
2188 15-12-2009 05:49:06 -1.8 C 3.08 g/m*3 -1.8 C 0 km/h
2189 15-12-2009 06:01:06 -1.7 C 3.1 g/m*3 -1.7 C 0 km/h
2190 15-12-2009 06:13:06 -1.6 C 3.12 g/m*3 -1.6 C 0 km/h
2191 15-12-2009 06:25:06 -1.5 C 3.14 g/m*3 -1.5 C 0 km/h
2192 15-12-2009 06:37:06 -1.6 C 3.12 g/m*3 -1.6 C 0 km/h
2193 15-12-2009 06:49:06 -1.6 C 3.12 g/m*3 -1.6 C 0 km/h
2194 15-12-2009 07:01:07 -1.7 C 3.1 g/m*3 -1.7 C 0 km/h
2195 15-12-2009 07:13:07 -1.7 C 3.14 g/m*3 -1.7 C 0 km/h
2196 15-12-2009 07:25:02 -1.6 C 3.16 g/m*3 -1.6 C 0 km/h
2197 15-12-2009 07:37:02 -1.6 C 3.16 g/m*3 -1.6 C 0 km/h
2198 15-12-2009 07:49:02 -1.5 C 3.19 g/m*3 -1.5 C 0 km/h
2199 15-12-2009 08:01:01 -1.3 C 3.19 g/m*3 -1.3 C 0 km/h
2200 15-12-2009 08:13:01 -1.2 C 3.21 g/m*3 -1.2 C 0 km/h
Sensor: Nr:Datum:Temp:Abs-Feuchte:Windchill:Wind:
Aussen-T/F 2201 15-12-2009 08:25:02 -1.2 C 3.21 g/m*3 -1.2 C 0 km/h
2202 15-12-2009 08:37:02 -1.1 C 3.23 g/m*3 -1.1 C 0 km/h
2203 15-12-2009 08:49:02 -1 C 3.25 g/m*3 -1 C 0 km/h
2204 15-12-2009 09:01:02 -0.9 C 3.28 g/m*3 -0.9 C 0 km/h
2205 15-12-2009 09:13:02 -0.9 C 3.23 g/m*3 -0.9 C 0 km/h
2206 15-12-2009 09:25:01 -0.7 C 3.28 g/m*3 -0.7 C 0 km/h
2207 15-12-2009 09:37:02 -0.5 C 3.28 g/m*3 -0.5 C 0 km/h
2208 15-12-2009 09:49:02 -0.4 C 3.2 g/m*3 -0.4 C 0 km/h
2209 15-12-2009 10:01:02 -0.2 C 3.15 g/m*3 -0.2 C 0 km/h
2210 15-12-2009 10:13:02 0 C 3.15 g/m*3 0 C 0 km/h
2211 15-12-2009 10:25:02 0.1 C 3.17 g/m*3 0.1 C 0 km/h
2212 15-12-2009 10:37:02 0.2 C 3.14 g/m*3 0.2 C 0 km/h
2213 15-12-2009 10:49:02 0.3 C 3.17 g/m*3 0.3 C 0 km/h
2214 15-12-2009 11:01:02 0.3 C 3.12 g/m*3 0.3 C 0 km/h
2215 15-12-2009 11:13:03 0.4 C 3.14 g/m*3 0.4 C 0 km/h
2216 15-12-2009 11:25:02 0.3 C 3.12 g/m*3 0.3 C 0 km/h
2217 15-12-2009 11:37:02 0.5 C 3.11 g/m*3 0.5 C 0 km/h
2218 15-12-2009 11:49:01 0.7 C 3.05 g/m*3 0.7 C 0 km/h
2219 15-12-2009 12:01:01 0.9 C 3.04 g/m*3 0.9 C 0 km/h
2220 15-12-2009 12:13:01 1 C 2.91 g/m*3 1 C 0 km/h
2221 15-12-2009 12:25:02 1 C 2.91 g/m*3 1 C 0 km/h
2222 15-12-2009 12:37:01 0.8 C 2.92 g/m*3 0.8 C 0 km/h
2223 15-12-2009 12:49:01 0.7 C 2.85 g/m*3 0.7 C 0 km/h
2224 15-12-2009 13:01:01 0.8 C 2.87 g/m*3 0.8 C 0 km/h
2225 15-12-2009 13:13:01 1.1 C 2.87 g/m*3 1.1 C 0 km/h
Sensor: Nr:Datum:Temp:Abs-Feuchte:Windchill:Wind:
Aussen-T/F 2226 15-12-2009 13:25:02 1.6 C 2.87 g/m*3 1.6 C 0 km/h
2227 15-12-2009 13:37:01 1.6 C 2.81 g/m*3 1.6 C 0 km/h
2228 15-12-2009 13:49:02 1.6 C 2.76 g/m*3 1.6 C 0 km/h
2229 15-12-2009 14:01:02 1.6 C 2.7 g/m*3 1.6 C 0 km/h
2230 15-12-2009 14:13:02 1.6 C 2.65 g/m*3 1.6 C 0 km/h
2231 15-12-2009 14:25:02 1.5 C 2.69 g/m*3 1.5 C 0 km/h
2232 15-12-2009 14:37:02 1.4 C 2.67 g/m*3 1.4 C 0 km/h
2233 15-12-2009 14:49:02 1.3 C 2.65 g/m*3 1.3 C 0 km/h
2234 15-12-2009 15:01:01 1.2 C 2.63 g/m*3 1.2 C 0 km/h
2235 15-12-2009 15:13:01 1.2 C 2.63 g/m*3 1.2 C 0 km/h
2236 15-12-2009 15:25:02 1.2 C 2.63 g/m*3 1.2 C 0 km/h
2237 15-12-2009 15:37:02 1.1 C 2.67 g/m*3 1.1 C 0 km/h
2238 15-12-2009 15:49:02 1 C 2.65 g/m*3 1 C 0 km/h
2239 15-12-2009 16:01:02 1 C 2.65 g/m*3 1 C 0 km/h
2240 15-12-2009 16:13:02 1 C 2.6 g/m*3 1 C 0 km/h
2241 15-12-2009 16:25:02 0.9 C 2.63 g/m*3 0.9 C 0 km/h
2242 15-12-2009 16:37:02 0.9 C 2.68 g/m*3 0.9 C 0 km/h
2243 15-12-2009 16:49:02 0.8 C 2.66 g/m*3 0.8 C 0 km/h
2244 15-12-2009 17:01:02 0.7 C 2.64 g/m*3 0.7 C 0 km/h
2245 15-12-2009 17:13:02 0.7 C 2.64 g/m*3 0.7 C 0 km/h
2246 15-12-2009 17:25:02 0.6 C 2.68 g/m*3 0.6 C 0 km/h
2247 15-12-2009 17:37:02 0.6 C 2.73 g/m*3 0.6 C 0 km/h
2248 15-12-2009 17:49:01 0.6 C 2.68 g/m*3 0.6 C 0 km/h
2249 15-12-2009 18:01:01 0.6 C 2.68 g/m*3 0.6 C 0 km/h
2250 15-12-2009 18:13:01 0.6 C 2.63 g/m*3 0.6 C 0 km/h
Sensor: Nr:Datum:Temp:Abs-Feuchte:Windchill:Wind:
Aussen-T/F 2251 15-12-2009 18:25:02 0.6 C 2.63 g/m*3 0.6 C 0 km/h
2252 15-12-2009 18:37:02 0.6 C 2.63 g/m*3 0.6 C 0 km/h
2253 15-12-2009 18:49:02 0.6 C 2.68 g/m*3 0.6 C 0 km/h
2254 15-12-2009 19:01:02 0.5 C 2.71 g/m*3 0.5 C 0 km/h
2255 15-12-2009 19:13:02 0.4 C 2.69 g/m*3 0.4 C 0 km/h
2256 15-12-2009 19:25:05 0.4 C 2.74 g/m*3 0.4 C 0 km/h
2257 15-12-2009 19:37:02 0.4 C 2.69 g/m*3 0.4 C 0 km/h
2258 15-12-2009 19:49:02 0.4 C 2.74 g/m*3 0.4 C 0 km/h
2259 15-12-2009 20:01:56 0.5 C 2.71 g/m*3 0.5 C 0 km/h
2260 15-12-2009 20:13:56 0.5 C 2.76 g/m*3 0.5 C 0 km/h
2261 15-12-2009 20:25:02 0.4 C 2.69 g/m*3 0.4 C 0 km/h
2262 15-12-2009 20:37:02 0.5 C 2.66 g/m*3 0.5 C 0 km/h
2263 15-12-2009 20:49:02 0.5 C 2.71 g/m*3 0.5 C 0 km/h
2264 15-12-2009 21:01:01 0.5 C 2.71 g/m*3 0.5 C 0 km/h
2265 15-12-2009 21:13:01 0.5 C 2.71 g/m*3 0.5 C 0 km/h
2266 15-12-2009 21:25:01 0.3 C 2.67 g/m*3 0.3 C 0 km/h
2267 15-12-2009 21:37:02 0.2 C 2.65 g/m*3 0.2 C 0 km/h
2268 15-12-2009 21:49:02 0.2 C 2.65 g/m*3 0.2 C 0 km/h
2269 15-12-2009 22:01:02 0.1 C 2.63 g/m*3 0.1 C 0 km/h
2270 15-12-2009 22:13:02 0.1 C 2.68 g/m*3 0.1 C 0 km/h
2271 15-12-2009 22:25:02 0.1 C 2.68 g/m*3 0.1 C 0 km/h
2272 15-12-2009 22:38:02 0 C 2.66 g/m*3 0 C 0 km/h
2273 15-12-2009 22:50:02 0 C 2.66 g/m*3 0 C 0 km/h
2274 15-12-2009 23:02:02 -0.1 C 2.69 g/m*3 -0.1 C 0 km/h
2275 15-12-2009 23:14:02 -0.2 C 2.72 g/m*3 -0.2 C 0 km/h
Sensor: Nr:Datum:Temp:Abs-Feuchte:Windchill:Wind:
Aussen-T/F 2276 15-12-2009 23:26:03 -0.2 C 2.72 g/m*3 -0.2 C 0 km/h
2277 15-12-2009 23:38:03 -0.2 C 2.72 g/m*3 -0.2 C 0 km/h
2278 15-12-2009 23:50:03 -0.2 C 2.72 g/m*3 -0.2 C 0 km/h
2279 16-12-2009 00:02:03 -0.2 C 2.77 g/m*3 -0.2 C 0 km/h
2280 16-12-2009 00:14:03 -0.2 C 2.77 g/m*3 -0.2 C 0 km/h
2281 16-12-2009 00:26:03 -0.3 C 2.75 g/m*3 -0.3 C 0 km/h
2282 16-12-2009 00:38:03 -0.4 C 2.78 g/m*3 -0.4 C 0 km/h
2283 16-12-2009 00:50:03 -0.5 C 2.76 g/m*3 -0.5 C 0 km/h
2284 16-12-2009 01:02:03 -0.9 C 2.73 g/m*3 -0.9 C 0 km/h
2285 16-12-2009 01:14:03 -1 C 2.76 g/m*3 -1 C 0 km/h
2286 16-12-2009 01:26:03 -1.1 C 2.78 g/m*3 -1.1 C 0 km/h
2287 16-12-2009 01:38:03 -1.1 C 2.74 g/m*3 -1.1 C 0 km/h
2288 16-12-2009 01:50:03 -1.1 C 2.74 g/m*3 -1.1 C 0 km/h
2289 16-12-2009 02:02:03 -1.2 C 2.76 g/m*3 -1.2 C 0 km/h
2290 16-12-2009 02:14:03 -1.3 C 2.74 g/m*3 -1.3 C 0 km/h
2291 16-12-2009 02:26:03 -1.3 C 2.79 g/m*3 -1.3 C 0 km/h
2292 16-12-2009 02:38:03 -1.2 C 2.81 g/m*3 -1.2 C 0 km/h
2293 16-12-2009 02:50:03 -1.1 C 2.83 g/m*3 -1.1 C 0 km/h
2294 16-12-2009 03:02:03 -1.1 C 2.78 g/m*3 -1.1 C 0 km/h
2295 16-12-2009 03:14:04 -1.1 C 2.78 g/m*3 -1.1 C 0 km/h
2296 16-12-2009 03:26:04 -1.1 C 2.78 g/m*3 -1.1 C 0 km/h
2297 16-12-2009 03:38:04 -1 C 2.85 g/m*3 -1 C 0 km/h
2298 16-12-2009 03:50:04 -1 C 2.85 g/m*3 -1 C 0 km/h
2299 16-12-2009 04:02:04 -1 C 2.8 g/m*3 -1 C 0 km/h
2300 16-12-2009 04:14:04 -1 C 2.8 g/m*3 -1 C 0 km/h
Sensor: Nr:Datum:Temp:Abs-Feuchte:Windchill:Wind:
Aussen-T/F 2301 16-12-2009 04:26:04 -1 C 2.8 g/m*3 -1 C 0 km/h
2302 16-12-2009 04:38:04 -1.1 C 2.78 g/m*3 -1.1 C 0 km/h
2303 16-12-2009 04:50:04 -1.1 C 2.78 g/m*3 -1.1 C 0 km/h
2304 16-12-2009 05:02:04 -1.1 C 2.83 g/m*3 -1.1 C 0 km/h
2305 16-12-2009 05:14:04 -1.2 C 2.81 g/m*3 -1.2 C 0 km/h
2306 16-12-2009 05:26:04 -1.2 C 2.85 g/m*3 -1.2 C 0 km/h
2307 16-12-2009 05:38:04 -1.2 C 2.85 g/m*3 -1.2 C 0 km/h
2308 16-12-2009 05:50:04 -1.1 C 2.92 g/m*3 -1.1 C 0 km/h
2309 16-12-2009 06:02:04 -1.1 C 2.87 g/m*3 -1.1 C 0 km/h
2310 16-12-2009 06:14:04 -1.1 C 2.87 g/m*3 -1.1 C 0 km/h
2311 16-12-2009 06:26:04 -1.2 C 2.85 g/m*3 -1.2 C 0 km/h
2312 16-12-2009 06:38:04 -1.2 C 2.85 g/m*3 -1.2 C 0 km/h
2313 16-12-2009 06:50:04 -1.2 C 2.85 g/m*3 -1.2 C 0 km/h
2314 16-12-2009 07:02:03 -1.2 C 2.85 g/m*3 -1.2 C 0 km/h
2315 16-12-2009 07:14:03 -1.2 C 2.85 g/m*3 -1.2 C 0 km/h
2316 16-12-2009 07:26:02 -1.2 C 2.85 g/m*3 -1.2 C 0 km/h
2317 16-12-2009 07:38:02 -1.2 C 2.9 g/m*3 -1.2 C 0 km/h
2318 16-12-2009 07:50:01 -1.2 C 2.9 g/m*3 -1.2 C 0 km/h
2319 16-12-2009 08:02:02 -1.2 C 2.9 g/m*3 -1.2 C 0 km/h
2320 16-12-2009 08:14:02 -1.2 C 2.9 g/m*3 -1.2 C 0 km/h
2321 16-12-2009 08:26:02 -1.2 C 2.9 g/m*3 -1.2 C 0 km/h
2322 16-12-2009 08:38:02 -1.2 C 2.9 g/m*3 -1.2 C 0 km/h
2323 16-12-2009 08:50:03 -1.2 C 2.9 g/m*3 -1.2 C 0 km/h
2324 16-12-2009 09:02:02 -1.2 C 2.94 g/m*3 -1.2 C 0 km/h
2325 16-12-2009 09:14:02 -1.2 C 2.94 g/m*3 -1.2 C 0 km/h
Sensor: Nr:Datum:Temp:Abs-Feuchte:Windchill:Wind:
Aussen-T/F 2326 16-12-2009 09:26:03 -1.1 C 2.96 g/m*3 -1.1 C 0 km/h
2327 16-12-2009 09:38:02 -1 C 2.98 g/m*3 -1 C 0 km/h
2328 16-12-2009 09:50:02 -0.8 C 2.98 g/m*3 -0.8 C 0 km/h
2329 16-12-2009 10:02:02 -0.6 C 3.02 g/m*3 -0.6 C 0 km/h
2330 16-12-2009 10:14:02 -0.4 C 3.02 g/m*3 -0.4 C 0 km/h
2331 16-12-2009 10:26:02 -0.2 C 3.01 g/m*3 -0.2 C 0 km/h
2332 16-12-2009 10:38:02 -0.2 C 2.91 g/m*3 -0.2 C 0 km/h
2333 16-12-2009 10:50:02 0 C 2.96 g/m*3 0 C 0 km/h
2334 16-12-2009 11:02:02 0.1 C 2.98 g/m*3 0.1 C 0 km/h
2335 16-12-2009 11:14:02 0.2 C 2.95 g/m*3 0.2 C 0 km/h
2336 16-12-2009 11:26:02 0.1 C 2.88 g/m*3 0.1 C 0 km/h
2337 16-12-2009 11:38:03 0.2 C 2.9 g/m*3 0.2 C 0 km/h
2338 16-12-2009 11:50:02 0.4 C 2.89 g/m*3 0.4 C 0 km/h
2339 16-12-2009 12:02:02 0.6 C 2.98 g/m*3 0.6 C 0 km/h
2340 16-12-2009 12:14:02 0.8 C 2.97 g/m*3 0.8 C 0 km/h
2341 16-12-2009 12:26:02 0.7 C 2.9 g/m*3 0.7 C 0 km/h
2342 16-12-2009 12:38:02 1 C 2.96 g/m*3 1 C 0 km/h
2343 16-12-2009 12:50:02 1.1 C 2.93 g/m*3 1.1 C 0 km/h
2344 16-12-2009 13:02:03 1.1 C 2.93 g/m*3 1.1 C 0 km/h
2345 16-12-2009 13:14:03 1.2 C 2.89 g/m*3 1.2 C 0 km/h
2346 16-12-2009 13:26:02 1.1 C 2.82 g/m*3 1.1 C 0 km/h
2347 16-12-2009 13:38:03 0.6 C 2.78 g/m*3 0.6 C 0 km/h
2348 16-12-2009 13:50:02 0.6 C 2.78 g/m*3 0.6 C 0 km/h
2349 16-12-2009 14:02:02 0.8 C 2.76 g/m*3 0.8 C 0 km/h
2350 16-12-2009 14:14:02 0.9 C 2.84 g/m*3 0.9 C 0 km/h
Sensor: Nr:Datum:Temp:Abs-Feuchte:Windchill:Wind:
Aussen-T/F 2351 16-12-2009 14:26:01 1 C 2.7 g/m*3 1 C 0 km/h
2352 16-12-2009 14:38:02 1.3 C 2.75 g/m*3 1.3 C 0 km/h
2353 16-12-2009 14:50:02 1.1 C 2.72 g/m*3 1.1 C 0 km/h
2354 16-12-2009 15:02:02 0.7 C 2.69 g/m*3 0.7 C 0 km/h
2355 16-12-2009 15:14:03 0.4 C 2.59 g/m*3 0.4 C 0 km/h
2356 16-12-2009 15:26:01 0 C 2.62 g/m*3 0 C 0 km/h
2357 16-12-2009 15:38:02 -0.3 C 2.61 g/m*3 -0.3 C 0 km/h
2358 16-12-2009 15:50:02 -0.5 C 2.62 g/m*3 -0.5 C 0 km/h
2359 16-12-2009 16:02:02 -0.6 C 2.6 g/m*3 -0.6 C 0 km/h
2360 16-12-2009 16:14:02 -0.7 C 2.58 g/m*3 -0.7 C 0 km/h
2361 16-12-2009 16:26:02 -0.9 C 2.55 g/m*3 -0.9 C 0 km/h
2362 16-12-2009 16:38:02 -1.1 C 2.51 g/m*3 -1.1 C 0 km/h
2363 16-12-2009 16:50:01 -1.3 C 2.48 g/m*3 -1.3 C 0 km/h
2364 16-12-2009 17:02:02 -1.5 C 2.49 g/m*3 -1.5 C 0 km/h
2365 16-12-2009 17:14:02 -1.7 C 2.5 g/m*3 -1.7 C 0 km/h
2366 16-12-2009 17:26:02 -1.7 C 2.58 g/m*3 -1.7 C 0 km/h
2367 16-12-2009 17:38:02 -1.8 C 2.61 g/m*3 -1.8 C 0 km/h
2368 16-12-2009 17:50:02 -1.9 C 2.63 g/m*3 -1.9 C 0 km/h
2369 16-12-2009 18:02:02 -2 C 2.66 g/m*3 -2 C 0 km/h
2370 16-12-2009 18:14:02 -2.1 C 2.68 g/m*3 -2.1 C 0 km/h
2371 16-12-2009 18:26:02 -2 C 2.7 g/m*3 -2 C 0 km/h
2372 16-12-2009 18:38:03 -2 C 2.7 g/m*3 -2 C 0 km/h
2373 16-12-2009 18:50:02 -2 C 2.7 g/m*3 -2 C 0 km/h
2374 16-12-2009 19:02:01 -1.9 C 2.76 g/m*3 -1.9 C 0 km/h
2375 16-12-2009 19:14:01 -1.9 C 2.76 g/m*3 -1.9 C 0 km/h
Sensor: Nr:Datum:Temp:Abs-Feuchte:Windchill:Wind:
Aussen-T/F 2376 16-12-2009 19:26:01 -2.1 C 2.72 g/m*3 -2.1 C 0 km/h
2377 16-12-2009 19:38:02 -2.3 C 2.68 g/m*3 -2.3 C 0 km/h
2378 16-12-2009 19:50:02 -2.5 C 2.65 g/m*3 -2.5 C 0 km/h
2379 16-12-2009 20:02:02 -2.6 C 2.67 g/m*3 -2.6 C 0 km/h
2380 16-12-2009 20:14:02 -2.8 C 2.67 g/m*3 -2.8 C 0 km/h
2381 16-12-2009 20:26:01 -2.9 C 2.69 g/m*3 -2.9 C 0 km/h
2382 16-12-2009 20:38:02 -3 C 2.71 g/m*3 -3 C 0 km/h
2383 16-12-2009 20:50:02 -3.1 C 2.69 g/m*3 -3.1 C 0 km/h
2384 16-12-2009 21:02:02 -3.2 C 2.71 g/m*3 -3.2 C 0 km/h
2385 16-12-2009 21:14:02 -3.2 C 2.75 g/m*3 -3.2 C 0 km/h
2386 16-12-2009 21:26:02 -3.3 C 2.73 g/m*3 -3.3 C 0 km/h
2387 16-12-2009 21:38:02 -3.5 C 2.69 g/m*3 -3.5 C 0 km/h
2388 16-12-2009 21:50:02 -3.7 C 2.69 g/m*3 -3.7 C 0 km/h
2389 16-12-2009 22:02:02 -3.7 C 2.73 g/m*3 -3.7 C 0 km/h
2390 16-12-2009 22:14:02 -3.8 C 2.71 g/m*3 -3.8 C 0 km/h
2391 16-12-2009 22:27:05 -3.9 C 2.69 g/m*3 -3.9 C 0 km/h
2392 16-12-2009 22:39:05 -3.9 C 2.73 g/m*3 -3.9 C 0 km/h
2393 16-12-2009 22:51:05 -3.8 C 2.78 g/m*3 -3.8 C 0 km/h
2394 16-12-2009 23:03:05 -3.8 C 2.78 g/m*3 -3.8 C 0 km/h
2395 16-12-2009 23:15:06 -4.1 C 2.72 g/m*3 -4.1 C 0 km/h
2396 16-12-2009 23:27:06 -4.3 C 2.69 g/m*3 -4.3 C 0 km/h
2397 16-12-2009 23:39:06 -4.4 C 2.67 g/m*3 -4.4 C 0 km/h
2398 16-12-2009 23:51:06 -4.4 C 2.67 g/m*3 -4.4 C 0 km/h
2399 17-12-2009 00:03:06 -4.6 C 2.66 g/m*3 -4.6 C 0 km/h
2400 17-12-2009 00:15:06 -4.7 C 2.64 g/m*3 -4.7 C 0 km/h
Sensor: Nr:Datum:Temp:Abs-Feuchte:Windchill:Wind:
Aussen-T/F 2401 17-12-2009 00:27:06 -4.8 C 2.66 g/m*3 -4.8 C 0 km/h
2402 17-12-2009 00:39:06 -5.1 C 2.6 g/m*3 -5.1 C 0 km/h
2403 17-12-2009 00:51:06 -5.3 C 2.57 g/m*3 -5.3 C 0 km/h
2404 17-12-2009 01:03:06 -5.2 C 2.62 g/m*3 -5.2 C 0 km/h
2405 17-12-2009 01:15:06 -5.4 C 2.58 g/m*3 -5.4 C 0 km/h
2406 17-12-2009 01:27:06 -5.3 C 2.63 g/m*3 -5.3 C 0 km/h
2407 17-12-2009 01:39:06 -5.3 C 2.63 g/m*3 -5.3 C 0 km/h
2408 17-12-2009 01:51:06 -5.6 C 2.58 g/m*3 -5.6 C 0 km/h
2409 17-12-2009 02:03:06 -5.6 C 2.58 g/m*3 -5.6 C 0 km/h
2410 17-12-2009 02:15:06 -5.5 C 2.63 g/m*3 -5.5 C 0 km/h
2411 17-12-2009 02:27:06 -5.6 C 2.64 g/m*3 -5.6 C 0 km/h
2412 17-12-2009 02:39:06 -5.7 C 2.62 g/m*3 -5.7 C 0 km/h
2413 17-12-2009 02:51:06 -5.9 C 2.58 g/m*3 -5.9 C 0 km/h
2414 17-12-2009 03:03:06 -5.9 C 2.58 g/m*3 -5.9 C 0 km/h
2415 17-12-2009 03:15:06 -5.6 C 2.67 g/m*3 -5.6 C 0 km/h
2416 17-12-2009 03:27:07 -5.4 C 2.75 g/m*3 -5.4 C 0 km/h
2417 17-12-2009 03:39:07 -5.3 C 2.77 g/m*3 -5.3 C 0 km/h
2418 17-12-2009 03:51:07 -5.4 C 2.75 g/m*3 -5.4 C 0 km/h
2419 17-12-2009 04:03:07 -5.3 C 2.77 g/m*3 -5.3 C 0 km/h
2420 17-12-2009 04:15:07 -5.4 C 2.75 g/m*3 -5.4 C 0 km/h
2421 17-12-2009 04:27:07 -5.5 C 2.73 g/m*3 -5.5 C 0 km/h
2422 17-12-2009 04:39:07 -5.6 C 2.71 g/m*3 -5.6 C 0 km/h
2423 17-12-2009 04:51:07 -5.9 C 2.65 g/m*3 -5.9 C 0 km/h
2424 17-12-2009 05:03:07 -5.9 C 2.65 g/m*3 -5.9 C 0 km/h
2425 17-12-2009 05:15:07 -6 C 2.63 g/m*3 -6 C 0 km/h
Sensor: Nr:Datum:Temp:Abs-Feuchte:Windchill:Wind:
Aussen-T/F 2426 17-12-2009 05:27:07 -5.8 C 2.67 g/m*3 -5.8 C 0 km/h
2427 17-12-2009 05:39:07 -5.9 C 2.65 g/m*3 -5.9 C 0 km/h
2428 17-12-2009 05:51:07 -6 C 2.63 g/m*3 -6 C 0 km/h
2429 17-12-2009 06:03:07 -6 C 2.63 g/m*3 -6 C 0 km/h
2430 17-12-2009 06:15:07 -6.1 C 2.61 g/m*3 -6.1 C 0 km/h
2431 17-12-2009 06:27:07 -6 C 2.63 g/m*3 -6 C 0 km/h
2432 17-12-2009 06:39:07 -6.2 C 2.59 g/m*3 -6.2 C 0 km/h
2433 17-12-2009 06:51:02 -6.2 C 2.59 g/m*3 -6.2 C 0 km/h
2434 17-12-2009 07:03:02 -6.1 C 2.61 g/m*3 -6.1 C 0 km/h
2435 17-12-2009 07:15:02 -6.2 C 2.59 g/m*3 -6.2 C 0 km/h
2436 17-12-2009 07:27:02 -6.4 C 2.55 g/m*3 -6.4 C 0 km/h
2437 17-12-2009 07:39:02 -6.5 C 2.53 g/m*3 -6.5 C 0 km/h
2438 17-12-2009 07:51:02 -6.6 C 2.52 g/m*3 -6.6 C 0 km/h
2439 17-12-2009 08:03:01 -6.7 C 2.5 g/m*3 -6.7 C 0 km/h
2440 17-12-2009 08:15:01 -6.7 C 2.5 g/m*3 -6.7 C 0 km/h
2441 17-12-2009 08:27:01 -6.6 C 2.52 g/m*3 -6.6 C 0 km/h
2442 17-12-2009 08:39:02 -6.2 C 2.62 g/m*3 -6.2 C 0 km/h
2443 17-12-2009 08:51:02 -6 C 2.66 g/m*3 -6 C 0 km/h
2444 17-12-2009 09:03:02 -6 C 2.66 g/m*3 -6 C 0 km/h
2445 17-12-2009 09:15:02 -6 C 2.63 g/m*3 -6 C 0 km/h
2446 17-12-2009 09:27:02 -5.9 C 2.65 g/m*3 -5.9 C 0 km/h
2447 17-12-2009 09:39:02 -5.8 C 2.67 g/m*3 -5.8 C 0 km/h
2448 17-12-2009 09:51:02 -5.7 C 2.69 g/m*3 -5.7 C 0 km/h
2449 17-12-2009 10:03:03 -5.6 C 2.71 g/m*3 -5.6 C 0 km/h
2450 17-12-2009 10:15:02 -5.5 C 2.73 g/m*3 -5.5 C 0 km/h
Sensor: Nr:Datum:Temp:Abs-Feuchte:Windchill:Wind:
Aussen-T/F 2451 17-12-2009 10:27:02 -5.3 C 2.77 g/m*3 -5.3 C 0 km/h
2452 17-12-2009 10:39:02 -5.1 C 2.81 g/m*3 -5.1 C 0 km/h
2453 17-12-2009 10:51:01 -4.9 C 2.85 g/m*3 -4.9 C 0 km/h
2454 17-12-2009 11:03:02 -4.5 C 2.93 g/m*3 -4.5 C 0 km/h
2455 17-12-2009 11:15:01 -4.2 C 2.96 g/m*3 -4.2 C 0 km/h
2456 17-12-2009 11:27:01 -4 C 3 g/m*3 -4 C 0 km/h
2457 17-12-2009 11:39:01 -4.1 C 2.94 g/m*3 -4.1 C 0 km/h
2458 17-12-2009 11:51:01 -4.1 C 2.94 g/m*3 -4.1 C 0 km/h
2459 17-12-2009 12:03:01 -4.1 C 2.94 g/m*3 -4.1 C 0 km/h
2460 17-12-2009 12:15:02 -3.8 C 3.01 g/m*3 -3.8 C 0 km/h
2461 17-12-2009 12:27:02 -3 C 3.14 g/m*3 -3 C 0 km/h
2462 17-12-2009 12:39:01 -2.3 C 3.05 g/m*3 -2.3 C 0 km/h
2463 17-12-2009 12:51:01 -1.9 C 2.84 g/m*3 -1.9 C 0 km/h
2464 17-12-2009 13:03:01 -1.8 C 2.78 g/m*3 -1.8 C 0 km/h
2465 17-12-2009 13:15:02 -1.7 C 2.76 g/m*3 -1.7 C 0 km/h
2466 17-12-2009 13:27:02 -1.6 C 2.64 g/m*3 -1.6 C 0 km/h
2467 17-12-2009 13:39:01 -1.5 C 2.62 g/m*3 -1.5 C 0 km/h
2468 17-12-2009 13:51:02 -1.5 C 2.62 g/m*3 -1.5 C 0 km/h
2469 17-12-2009 14:03:02 -1.4 C 2.64 g/m*3 -1.4 C 0 km/h
2470 17-12-2009 14:15:02 -1.4 C 2.64 g/m*3 -1.4 C 0 km/h
2471 17-12-2009 14:27:03 -1.3 C 2.66 g/m*3 -1.3 C 0 km/h
2472 17-12-2009 14:39:02 -1.3 C 2.61 g/m*3 -1.3 C 0 km/h
2473 17-12-2009 14:51:02 -1.3 C 2.52 g/m*3 -1.3 C 0 km/h
2474 17-12-2009 15:03:01 -1.3 C 2.48 g/m*3 -1.3 C 0 km/h
2475 17-12-2009 15:15:02 -1.6 C 2.43 g/m*3 -1.6 C 0 km/h
Sensor: Nr:Datum:Temp:Abs-Feuchte:Windchill:Wind:
Aussen-T/F 2476 17-12-2009 15:27:02 -1.7 C 2.45 g/m*3 -1.7 C 0 km/h
2477 17-12-2009 15:39:02 -2 C 2.49 g/m*3 -2 C 0 km/h
2478 17-12-2009 15:51:02 -2.2 C 2.54 g/m*3 -2.2 C 0 km/h
2479 17-12-2009 16:03:03 -2.3 C 2.56 g/m*3 -2.3 C 0 km/h
2480 17-12-2009 16:15:02 -2.5 C 2.52 g/m*3 -2.5 C 0 km/h
2481 17-12-2009 16:27:02 -2.7 C 2.53 g/m*3 -2.7 C 0 km/h
2482 17-12-2009 16:39:02 -2.6 C 2.51 g/m*3 -2.6 C 0 km/h
2483 17-12-2009 16:51:01 -2.6 C 2.51 g/m*3 -2.6 C 0 km/h
2484 17-12-2009 17:03:02 -3 C 2.44 g/m*3 -3 C 0 km/h
2485 17-12-2009 17:15:01 -3.5 C 2.39 g/m*3 -3.5 C 0 km/h
2486 17-12-2009 17:27:01 -3.8 C 2.37 g/m*3 -3.8 C 0 km/h
2487 17-12-2009 17:39:02 -4.1 C 2.36 g/m*3 -4.1 C 0 km/h
2488 17-12-2009 17:51:01 -4.2 C 2.34 g/m*3 -4.2 C 0 km/h
2489 17-12-2009 18:03:02 -4.5 C 2.29 g/m*3 -4.5 C 0 km/h
2490 17-12-2009 18:15:01 -4.6 C 2.28 g/m*3 -4.6 C 0 km/h
2491 17-12-2009 18:27:01 -4.5 C 2.33 g/m*3 -4.5 C 0 km/h
2492 17-12-2009 18:39:02 -4.6 C 2.35 g/m*3 -4.6 C 0 km/h
2493 17-12-2009 18:51:01 -4.6 C 2.35 g/m*3 -4.6 C 0 km/h
2494 17-12-2009 19:03:02 -4.7 C 2.37 g/m*3 -4.7 C 0 km/h
2495 17-12-2009 19:15:02 -4.6 C 2.42 g/m*3 -4.6 C 0 km/h
2496 17-12-2009 19:27:02 -4.7 C 2.4 g/m*3 -4.7 C 0 km/h
2497 17-12-2009 19:39:02 -4.7 C 2.44 g/m*3 -4.7 C 0 km/h
2498 17-12-2009 19:51:02 -4.6 C 2.45 g/m*3 -4.6 C 0 km/h
2499 17-12-2009 20:03:01 -4.7 C 2.44 g/m*3 -4.7 C 0 km/h
2500 17-12-2009 20:15:02 -4.6 C 2.49 g/m*3 -4.6 C 0 km/h
Sensor: Nr:Datum:Temp:Abs-Feuchte:Windchill:Wind:
Aussen-T/F 2501 17-12-2009 20:27:02 -4.4 C 2.52 g/m*3 -4.4 C 0 km/h
2502 17-12-2009 20:39:01 -4.2 C 2.56 g/m*3 -4.2 C 0 km/h
2503 17-12-2009 20:51:02 -4.1 C 2.58 g/m*3 -4.1 C 0 km/h
2504 17-12-2009 21:03:01 -4.1 C 2.54 g/m*3 -4.1 C 0 km/h
2505 17-12-2009 21:15:01 -4.1 C 2.54 g/m*3 -4.1 C 0 km/h
2506 17-12-2009 21:27:01 -4.1 C 2.58 g/m*3 -4.1 C 0 km/h
2507 17-12-2009 21:39:01 -4.1 C 2.58 g/m*3 -4.1 C 0 km/h
2508 17-12-2009 21:51:02 -4 C 2.56 g/m*3 -4 C 0 km/h
2509 17-12-2009 22:04:03 -4 C 2.56 g/m*3 -4 C 0 km/h
2510 17-12-2009 22:16:03 -3.9 C 2.54 g/m*3 -3.9 C 0 km/h
2511 17-12-2009 22:28:03 -3.9 C 2.51 g/m*3 -3.9 C 0 km/h
2512 17-12-2009 22:40:03 -3.7 C 2.54 g/m*3 -3.7 C 0 km/h
2513 17-12-2009 22:52:03 -3.7 C 2.54 g/m*3 -3.7 C 0 km/h
2514 17-12-2009 23:04:03 -3.7 C 2.54 g/m*3 -3.7 C 0 km/h
2515 17-12-2009 23:16:03 -3.8 C 2.49 g/m*3 -3.8 C 0 km/h
2516 17-12-2009 23:28:03 -4 C 2.41 g/m*3 -4 C 0 km/h
2517 17-12-2009 23:40:03 -4.2 C 2.38 g/m*3 -4.2 C 0 km/h
2518 17-12-2009 23:52:03 -4.3 C 2.4 g/m*3 -4.3 C 0 km/h
2519 18-12-2009 00:04:03 -4.6 C 2.35 g/m*3 -4.6 C 0 km/h
2520 18-12-2009 00:16:03 -4.9 C 2.33 g/m*3 -4.9 C 0 km/h
2521 18-12-2009 00:28:03 -5.1 C 2.37 g/m*3 -5.1 C 0 km/h
2522 18-12-2009 00:40:03 -5.3 C 2.33 g/m*3 -5.3 C 0 km/h
2523 18-12-2009 00:52:03 -5.4 C 2.35 g/m*3 -5.4 C 0 km/h
2524 18-12-2009 01:04:03 -5.5 C 2.33 g/m*3 -5.5 C 0 km/h
2525 18-12-2009 01:16:03 -5.6 C 2.35 g/m*3 -5.6 C 0 km/h
Sensor: Nr:Datum:Temp:Abs-Feuchte:Windchill:Wind:
Aussen-T/F 2526 18-12-2009 01:28:03 -5.7 C 2.33 g/m*3 -5.7 C 0 km/h
2527 18-12-2009 01:40:03 -5.6 C 2.38 g/m*3 -5.6 C 0 km/h
2528 18-12-2009 01:52:04 -5.6 C 2.41 g/m*3 -5.6 C 0 km/h
2529 18-12-2009 02:04:04 -5.4 C 2.41 g/m*3 -5.4 C 0 km/h
2530 18-12-2009 02:16:04 -5.7 C 2.33 g/m*3 -5.7 C 0 km/h
2531 18-12-2009 02:28:04 -6 C 2.28 g/m*3 -6 C 0 km/h
2532 18-12-2009 02:40:04 -6.1 C 2.3 g/m*3 -6.1 C 0 km/h
2533 18-12-2009 02:52:04 -6.3 C 2.26 g/m*3 -6.3 C 0 km/h
2534 18-12-2009 03:04:04 -6.4 C 2.28 g/m*3 -6.4 C 0 km/h
2535 18-12-2009 03:16:04 -6.5 C 2.29 g/m*3 -6.5 C 0 km/h
2536 18-12-2009 03:28:04 -6.6 C 2.27 g/m*3 -6.6 C 0 km/h
2537 18-12-2009 03:40:04 -6.7 C 2.26 g/m*3 -6.7 C 0 km/h
2538 18-12-2009 03:52:04 -6.6 C 2.3 g/m*3 -6.6 C 0 km/h
2539 18-12-2009 04:04:04 -6.7 C 2.32 g/m*3 -6.7 C 0 km/h
2540 18-12-2009 04:16:04 -6.8 C 2.3 g/m*3 -6.8 C 0 km/h
2541 18-12-2009 04:28:04 -6.8 C 2.3 g/m*3 -6.8 C 0 km/h
2542 18-12-2009 04:40:04 -6.9 C 2.31 g/m*3 -6.9 C 0 km/h
2543 18-12-2009 04:52:04 -7.1 C 2.28 g/m*3 -7.1 C 0 km/h
2544 18-12-2009 05:04:04 -7.1 C 2.28 g/m*3 -7.1 C 0 km/h
2545 18-12-2009 05:16:04 -7.2 C 2.29 g/m*3 -7.2 C 0 km/h
2546 18-12-2009 05:28:04 -7.4 C 2.26 g/m*3 -7.4 C 0 km/h
2547 18-12-2009 05:40:04 -7.4 C 2.26 g/m*3 -7.4 C 0 km/h
2548 18-12-2009 05:52:04 -7.5 C 2.24 g/m*3 -7.5 C 0 km/h
2549 18-12-2009 06:04:04 -7.5 C 2.24 g/m*3 -7.5 C 0 km/h
2550 18-12-2009 06:16:05 -7.6 C 2.25 g/m*3 -7.6 C 0 km/h
Sensor: Nr:Datum:Temp:Abs-Feuchte:Windchill:Wind:
Aussen-T/F 2551 18-12-2009 06:28:05 -7.7 C 2.24 g/m*3 -7.7 C 0 km/h
2552 18-12-2009 06:40:05 -7.8 C 2.22 g/m*3 -7.8 C 0 km/h
2553 18-12-2009 06:52:05 -7.9 C 2.2 g/m*3 -7.9 C 0 km/h
2554 18-12-2009 07:04:02 -7.9 C 2.2 g/m*3 -7.9 C 0 km/h
2555 18-12-2009 07:16:02 -7.8 C 2.22 g/m*3 -7.8 C 0 km/h
2556 18-12-2009 07:28:03 -7.7 C 2.24 g/m*3 -7.7 C 0 km/h
2557 18-12-2009 07:40:02 -7.3 C 2.33 g/m*3 -7.3 C 0 km/h
2558 18-12-2009 07:52:02 -7.1 C 2.37 g/m*3 -7.1 C 0 km/h
2559 18-12-2009 08:04:02 -6.8 C 2.42 g/m*3 -6.8 C 0 km/h
2560 18-12-2009 08:16:02 -6.6 C 2.46 g/m*3 -6.6 C 0 km/h
2561 18-12-2009 08:28:02 -6.5 C 2.44 g/m*3 -6.5 C 0 km/h
2562 18-12-2009 08:40:02 -6.6 C 2.43 g/m*3 -6.6 C 0 km/h
2563 18-12-2009 08:52:02 -6.7 C 2.38 g/m*3 -6.7 C 0 km/h
2564 18-12-2009 09:04:02 -6.7 C 2.38 g/m*3 -6.7 C 0 km/h
2565 18-12-2009 09:16:01 -6.6 C 2.39 g/m*3 -6.6 C 0 km/h
2566 18-12-2009 09:28:01 -6.4 C 2.43 g/m*3 -6.4 C 0 km/h
2567 18-12-2009 09:40:02 -6.1 C 2.48 g/m*3 -6.1 C 0 km/h
2568 18-12-2009 09:52:02 -5.7 C 2.56 g/m*3 -5.7 C 0 km/h
2569 18-12-2009 10:04:02 -5.4 C 2.58 g/m*3 -5.4 C 0 km/h
2570 18-12-2009 10:16:01 -5.2 C 2.58 g/m*3 -5.2 C 0 km/h
2571 18-12-2009 10:28:01 -4.8 C 2.63 g/m*3 -4.8 C 0 km/h
2572 18-12-2009 10:40:02 -4.4 C 2.67 g/m*3 -4.4 C 0 km/h
2573 18-12-2009 10:52:02 -4.2 C 2.6 g/m*3 -4.2 C 0 km/h
2574 18-12-2009 11:04:02 -4.1 C 2.51 g/m*3 -4.1 C 0 km/h
2575 18-12-2009 11:16:01 -3.9 C 2.54 g/m*3 -3.9 C 0 km/h
Sensor: Nr:Datum:Temp:Abs-Feuchte:Windchill:Wind:
Aussen-T/F 2576 18-12-2009 11:28:01 -3.7 C 2.54 g/m*3 -3.7 C 0 km/h
2577 18-12-2009 11:40:02 -3.6 C 2.52 g/m*3 -3.6 C 0 km/h
2578 18-12-2009 11:52:02 -3.4 C 2.52 g/m*3 -3.4 C 0 km/h
2579 18-12-2009 12:04:02 -3.1 C 2.5 g/m*3 -3.1 C 0 km/h
2580 18-12-2009 12:16:02 -2.9 C 2.49 g/m*3 -2.9 C 0 km/h
2581 18-12-2009 12:28:02 -3 C 2.44 g/m*3 -3 C 0 km/h
2582 18-12-2009 12:40:02 -3 C 2.44 g/m*3 -3 C 0 km/h
2583 18-12-2009 12:52:02 -3.2 C 2.44 g/m*3 -3.2 C 0 km/h
2584 18-12-2009 13:04:02 -3 C 2.51 g/m*3 -3 C 0 km/h
2585 18-12-2009 13:16:02 -2.8 C 2.59 g/m*3 -2.8 C 0 km/h
2586 18-12-2009 13:28:02 -2.8 C 2.55 g/m*3 -2.8 C 0 km/h
2587 18-12-2009 13:40:01 -2.4 C 2.66 g/m*3 -2.4 C 0 km/h
2588 18-12-2009 13:52:02 -2.1 C 2.68 g/m*3 -2.1 C 0 km/h
2589 18-12-2009 14:04:01 -2.1 C 2.64 g/m*3 -2.1 C 0 km/h
2590 18-12-2009 14:16:02 -2.2 C 2.66 g/m*3 -2.2 C 0 km/h
2591 18-12-2009 14:28:02 -2.1 C 2.72 g/m*3 -2.1 C 0 km/h
2592 18-12-2009 14:40:01 -2 C 2.78 g/m*3 -2 C 0 km/h
2593 18-12-2009 14:52:02 -1.9 C 2.84 g/m*3 -1.9 C 0 km/h
2594 18-12-2009 15:04:02 -1.8 C 2.91 g/m*3 -1.8 C 0 km/h
2595 18-12-2009 15:16:02 -1.8 C 2.86 g/m*3 -1.8 C 0 km/h
2596 18-12-2009 15:28:02 -1.9 C 2.89 g/m*3 -1.9 C 0 km/h
2597 18-12-2009 15:40:03 -1.9 C 2.89 g/m*3 -1.9 C 0 km/h
2598 18-12-2009 15:52:02 -1.9 C 2.8 g/m*3 -1.9 C 0 km/h
2599 18-12-2009 16:04:02 -2 C 2.74 g/m*3 -2 C 0 km/h
2600 18-12-2009 16:16:01 -2.1 C 2.89 g/m*3 -2.1 C 0 km/h
Sensor: Nr:Datum:Temp:Abs-Feuchte:Windchill:Wind:
Aussen-T/F 2601 18-12-2009 16:28:01 -2.5 C 3.01 g/m*3 -2.5 C 0 km/h
2602 18-12-2009 16:40:02 -2.6 C 3.07 g/m*3 -2.6 C 0 km/h
2603 18-12-2009 16:52:02 -2.7 C 3.05 g/m*3 -2.7 C 0 km/h
2604 18-12-2009 17:04:02 -2.9 C 3.05 g/m*3 -2.9 C 0 km/h
2605 18-12-2009 17:16:02 -3 C 3.02 g/m*3 -3 C 0 km/h
2606 18-12-2009 17:28:02 -3 C 3.02 g/m*3 -3 C 0 km/h
2607 18-12-2009 17:40:02 -2.9 C 3.01 g/m*3 -2.9 C 0 km/h
2608 18-12-2009 17:52:02 -3 C 2.83 g/m*3 -3 C 0 km/h
2609 18-12-2009 18:04:01 -3.2 C 2.59 g/m*3 -3.2 C 0 km/h
2610 18-12-2009 18:16:02 -3.4 C 2.52 g/m*3 -3.4 C 0 km/h
2611 18-12-2009 18:28:02 -3.6 C 2.45 g/m*3 -3.6 C 0 km/h
2612 18-12-2009 18:40:01 -3.7 C 2.35 g/m*3 -3.7 C 0 km/h
2613 18-12-2009 18:52:02 -3.8 C 2.12 g/m*3 -3.8 C 0 km/h
2614 18-12-2009 19:04:02 -3.8 C 2.08 g/m*3 -3.8 C 0 km/h
2615 18-12-2009 19:16:02 -3.8 C 2.12 g/m*3 -3.8 C 0 km/h
2616 18-12-2009 19:28:02 -4.1 C 1.96 g/m*3 -4.1 C 0 km/h
2617 18-12-2009 19:40:03 -4.2 C 1.8 g/m*3 -4.2 C 0 km/h
2618 18-12-2009 19:52:02 -4.2 C 1.8 g/m*3 -4.2 C 0 km/h
2619 18-12-2009 20:04:01 -4.6 C 1.61 g/m*3 -4.6 C 0 km/h
2620 18-12-2009 20:16:02 -4.8 C 1.59 g/m*3 -4.8 C 0 km/h
2621 18-12-2009 20:28:02 -5.1 C 1.55 g/m*3 -5.1 C 0 km/h
2622 18-12-2009 20:40:02 -5.2 C 1.51 g/m*3 -5.2 C 0 km/h
2623 18-12-2009 20:52:02 -5.2 C 1.54 g/m*3 -5.2 C 0 km/h
2624 18-12-2009 21:04:01 -5.3 C 1.5 g/m*3 -5.3 C 0 km/h
2625 18-12-2009 21:16:01 -5.4 C 1.49 g/m*3 -5.4 C 0 km/h
Sensor: Nr:Datum:Temp:Abs-Feuchte:Windchill:Wind:
Aussen-T/F 2626 18-12-2009 21:28:01 -5.4 C 1.59 g/m*3 -5.4 C 0 km/h
2627 18-12-2009 21:41:29 -5.4 C 1.69 g/m*3 -5.4 C 0 km/h
2628 18-12-2009 21:53:29 -5.4 C 1.72 g/m*3 -5.4 C 0 km/h
2629 18-12-2009 22:05:29 -5.7 C 1.78 g/m*3 -5.7 C 0 km/h
2630 18-12-2009 22:17:29 -5.8 C 1.86 g/m*3 -5.8 C 0 km/h
2631 18-12-2009 22:29:29 -6 C 1.93 g/m*3 -6 C 0 km/h
2632 18-12-2009 22:41:29 -7.2 C 1.83 g/m*3 -7.2 C 0 km/h
2633 18-12-2009 22:53:29 -7.4 C 1.89 g/m*3 -7.4 C 0 km/h
2634 18-12-2009 23:05:29 -7.3 C 1.96 g/m*3 -7.3 C 0 km/h
2635 18-12-2009 23:17:29 -7.6 C 1.92 g/m*3 -7.6 C 0 km/h
2636 18-12-2009 23:29:29 -7.8 C 1.89 g/m*3 -7.8 C 0 km/h
2637 18-12-2009 23:41:29 -7.9 C 1.87 g/m*3 -7.9 C 0 km/h
2638 18-12-2009 23:53:29 -8.2 C 1.75 g/m*3 -8.2 C 0 km/h
2639 19-12-2009 00:05:29 -8.5 C 1.69 g/m*3 -8.5 C 0 km/h
2640 19-12-2009 00:17:29 -8.6 C 1.65 g/m*3 -8.6 C 0 km/h
2641 19-12-2009 00:29:29 -8.8 C 1.57 g/m*3 -8.8 C 0 km/h
2642 19-12-2009 00:41:29 -9.1 C 1.49 g/m*3 -9.1 C 0 km/h
2643 19-12-2009 00:53:29 -9.4 C 1.43 g/m*3 -9.4 C 0 km/h
2644 19-12-2009 01:05:29 -9.6 C 1.38 g/m*3 -9.6 C 0 km/h
2645 19-12-2009 01:17:29 -9.8 C 1.36 g/m*3 -9.8 C 0 km/h
2646 19-12-2009 01:29:30 -9.9 C 1.35 g/m*3 -9.9 C 0 km/h
2647 19-12-2009 01:41:30 -10 C 1.3 g/m*3 -10 C 0 km/h
2648 19-12-2009 01:53:30 -10 C 1.27 g/m*3 -10 C 0 km/h
2649 19-12-2009 02:05:30 -10 C 1.25 g/m*3 -10 C 0 km/h
2650 19-12-2009 02:17:30 -10 C 1.22 g/m*3 -10 C 0 km/h
Sensor: Nr:Datum:Temp:Abs-Feuchte:Windchill:Wind:
Aussen-T/F 2651 19-12-2009 02:29:30 -10 C 1.25 g/m*3 -10 C 0 km/h
2652 19-12-2009 02:41:30 -10.4 C 1.17 g/m*3 -10.4 C 0 km/h
2653 19-12-2009 02:53:30 -11.2 C 1.1 g/m*3 -11.2 C 0 km/h
2654 19-12-2009 03:05:30 -11.8 C 1.07 g/m*3 -11.8 C 0 km/h
2655 19-12-2009 03:17:30 -12.1 C 1.06 g/m*3 -12.1 C 0 km/h
2656 19-12-2009 03:29:30 -12.3 C 1.07 g/m*3 -12.3 C 0 km/h
2657 19-12-2009 03:41:30 -12.5 C 1.07 g/m*3 -12.5 C 0 km/h
2658 19-12-2009 03:53:30 -12.5 C 1.09 g/m*3 -12.5 C 0 km/h
2659 19-12-2009 04:05:30 -12.5 C 1.09 g/m*3 -12.5 C 0 km/h
2660 19-12-2009 04:17:30 -12.6 C 1.08 g/m*3 -12.6 C 0 km/h
2661 19-12-2009 04:29:30 -12.6 C 1.1 g/m*3 -12.6 C 0 km/h
2662 19-12-2009 04:41:30 -12.6 C 1.08 g/m*3 -12.6 C 0 km/h
2663 19-12-2009 04:53:30 -12.6 C 1.06 g/m*3 -12.6 C 0 km/h
2664 19-12-2009 05:05:30 -12.7 C 1.04 g/m*3 -12.7 C 0 km/h
2665 19-12-2009 05:17:30 -13.1 C 1 g/m*3 -13.1 C 0 km/h
2666 19-12-2009 05:29:30 -13.2 C 1 g/m*3 -13.2 C 0 km/h
2667 19-12-2009 05:41:30 -13.3 C 1.01 g/m*3 -13.3 C 0 km/h
2668 19-12-2009 05:53:30 -13.4 C 1.02 g/m*3 -13.4 C 0 km/h
2669 19-12-2009 06:05:31 -13.5 C 1.03 g/m*3 -13.5 C 0 km/h
2670 19-12-2009 06:17:31 -13.6 C 1.02 g/m*3 -13.6 C 0 km/h
2671 19-12-2009 06:29:31 -13.7 C 1.03 g/m*3 -13.7 C 0 km/h
2672 19-12-2009 06:41:31 -13.9 C 1.01 g/m*3 -13.9 C 0 km/h
2673 19-12-2009 06:53:31 -13.7 C 1.05 g/m*3 -13.7 C 0 km/h
2674 19-12-2009 07:05:31 -13.9 C 1.05 g/m*3 -13.9 C 0 km/h
2675 19-12-2009 07:17:31 -14 C 1.04 g/m*3 -14 C 0 km/h
Sensor: Nr:Datum:Temp:Abs-Feuchte:Windchill:Wind:
Aussen-T/F 2676 19-12-2009 07:29:31 -13.7 C 1.08 g/m*3 -13.7 C 0 km/h
2677 19-12-2009 07:41:01 -13.5 C 1.1 g/m*3 -13.5 C 0 km/h
2678 19-12-2009 07:53:02 -13.4 C 1.13 g/m*3 -13.4 C 0 km/h
2679 19-12-2009 08:05:02 -13.5 C 1.12 g/m*3 -13.5 C 0 km/h
2680 19-12-2009 08:17:02 -13.7 C 1.1 g/m*3 -13.7 C 0 km/h
2681 19-12-2009 08:29:03 -13.7 C 1.1 g/m*3 -13.7 C 0 km/h
2682 19-12-2009 08:41:02 -14 C 1.07 g/m*3 -14 C 0 km/h
2683 19-12-2009 08:53:02 -14.1 C 1.07 g/m*3 -14.1 C 0 km/h
2684 19-12-2009 09:05:01 -14.1 C 1.07 g/m*3 -14.1 C 0 km/h
2685 19-12-2009 09:17:02 -13.9 C 1.1 g/m*3 -13.9 C 0 km/h
2686 19-12-2009 09:29:02 -13.9 C 1.1 g/m*3 -13.9 C 0 km/h
2687 19-12-2009 09:41:02 -13.9 C 1.08 g/m*3 -13.9 C 0 km/h
2688 19-12-2009 09:53:02 -13.7 C 1.12 g/m*3 -13.7 C 0 km/h
2689 19-12-2009 10:05:03 -13.5 C 1.14 g/m*3 -13.5 C 0 km/h
2690 19-12-2009 10:17:02 -13.4 C 1.16 g/m*3 -13.4 C 0 km/h
2691 19-12-2009 10:29:02 -13.2 C 1.16 g/m*3 -13.2 C 0 km/h
2692 19-12-2009 10:41:03 -13 C 1.18 g/m*3 -13 C 0 km/h
2693 19-12-2009 10:53:02 -12.7 C 1.19 g/m*3 -12.7 C 0 km/h
2694 19-12-2009 11:05:02 -12.8 C 1.16 g/m*3 -12.8 C 0 km/h
2695 19-12-2009 11:17:01 -12.8 C 1.14 g/m*3 -12.8 C 0 km/h
2696 19-12-2009 11:29:01 -12.7 C 1.15 g/m*3 -12.7 C 0 km/h
2697 19-12-2009 11:41:02 -12.6 C 1.14 g/m*3 -12.6 C 0 km/h
2698 19-12-2009 11:53:02 -12.6 C 1.12 g/m*3 -12.6 C 0 km/h
2699 19-12-2009 12:05:02 -12.3 C 1.15 g/m*3 -12.3 C 0 km/h
2700 19-12-2009 12:17:02 -12 C 1.13 g/m*3 -12 C 0 km/h
Sensor: Nr:Datum:Temp:Abs-Feuchte:Windchill:Wind:
Aussen-T/F 2701 19-12-2009 12:29:02 -11.5 C 1.16 g/m*3 -11.5 C 0 km/h
2702 19-12-2009 12:41:02 -11.7 C 1.12 g/m*3 -11.7 C 0 km/h
2703 19-12-2009 12:53:02 -11.7 C 1.12 g/m*3 -11.7 C 0 km/h
2704 19-12-2009 13:05:02 -11.6 C 1.11 g/m*3 -11.6 C 0 km/h
2705 19-12-2009 13:17:01 -11.6 C 1.11 g/m*3 -11.6 C 0 km/h
2706 19-12-2009 13:29:01 -11.4 C 1.12 g/m*3 -11.4 C 0 km/h
2707 19-12-2009 13:41:02 -11.3 C 1.11 g/m*3 -11.3 C 0 km/h
2708 19-12-2009 13:53:02 -11.1 C 1.13 g/m*3 -11.1 C 0 km/h
2709 19-12-2009 14:05:02 -11.2 C 1.12 g/m*3 -11.2 C 0 km/h
2710 19-12-2009 14:17:02 -11.2 C 1.12 g/m*3 -11.2 C 0 km/h
2711 19-12-2009 14:29:02 -11.1 C 1.11 g/m*3 -11.1 C 0 km/h
2712 19-12-2009 14:41:02 -11.2 C 1.12 g/m*3 -11.2 C 0 km/h
2713 19-12-2009 14:53:02 -11.2 C 1.12 g/m*3 -11.2 C 0 km/h
2714 19-12-2009 15:05:02 -11.2 C 1.12 g/m*3 -11.2 C 0 km/h
2715 19-12-2009 15:17:02 -11.1 C 1.15 g/m*3 -11.1 C 0 km/h
2716 19-12-2009 15:29:02 -11 C 1.16 g/m*3 -11 C 0 km/h
2717 19-12-2009 15:41:02 -11.2 C 1.14 g/m*3 -11.2 C 0 km/h
2718 19-12-2009 15:53:02 -11.4 C 1.12 g/m*3 -11.4 C 0 km/h
2719 19-12-2009 16:05:02 -11.7 C 1.12 g/m*3 -11.7 C 0 km/h
2720 19-12-2009 16:17:02 -12 C 1.11 g/m*3 -12 C 0 km/h
2721 19-12-2009 16:29:02 -12.1 C 1.1 g/m*3 -12.1 C 0 km/h
2722 19-12-2009 16:41:02 -12.3 C 1.11 g/m*3 -12.3 C 0 km/h
2723 19-12-2009 16:53:02 -12.4 C 1.1 g/m*3 -12.4 C 0 km/h
2724 19-12-2009 17:05:02 -12.4 C 1.1 g/m*3 -12.4 C 0 km/h
2725 19-12-2009 17:17:03 -12.4 C 1.12 g/m*3 -12.4 C 0 km/h
Sensor: Nr:Datum:Temp:Abs-Feuchte:Windchill:Wind:
Aussen-T/F 2726 19-12-2009 17:29:03 -12.5 C 1.09 g/m*3 -12.5 C 0 km/h
2727 19-12-2009 17:41:02 -12.7 C 1.07 g/m*3 -12.7 C 0 km/h
2728 19-12-2009 17:53:02 -13 C 1.05 g/m*3 -13 C 0 km/h
2729 19-12-2009 18:05:04 -13.2 C 1.05 g/m*3 -13.2 C 0 km/h
2730 19-12-2009 18:17:02 -13.3 C 1.06 g/m*3 -13.3 C 0 km/h
2731 19-12-2009 18:29:02 -13.4 C 1.05 g/m*3 -13.4 C 0 km/h
2732 19-12-2009 18:41:04 -13.6 C 1.05 g/m*3 -13.6 C 0 km/h
2733 19-12-2009 18:53:05 -13.8 C 1.04 g/m*3 -13.8 C 0 km/h
2734 19-12-2009 19:05:04 -13.5 C 1.1 g/m*3 -13.5 C 0 km/h
2735 19-12-2009 19:17:03 -13.9 C 1.1 g/m*3 -13.9 C 0 km/h
2736 19-12-2009 19:29:03 -13.9 C 1.1 g/m*3 -13.9 C 0 km/h
2737 19-12-2009 19:41:03 -14.2 C 1.09 g/m*3 -14.2 C 0 km/h
2738 19-12-2009 19:53:02 -14.4 C 1.07 g/m*3 -14.4 C 0 km/h
2739 19-12-2009 20:05:02 -14.6 C 1.07 g/m*3 -14.6 C 0 km/h
2740 19-12-2009 20:17:02 -14.8 C 1.06 g/m*3 -14.8 C 0 km/h
2741 19-12-2009 20:29:02 -14.8 C 1.07 g/m*3 -14.8 C 0 km/h
2742 19-12-2009 20:41:02 -14.9 C 1.07 g/m*3 -14.9 C 0 km/h
2743 19-12-2009 20:53:02 -15 C 1.06 g/m*3 -15 C 0 km/h
2744 19-12-2009 21:05:03 -15.1 C 1.05 g/m*3 -15.1 C 0 km/h
2745 19-12-2009 21:17:02 -15 C 1.06 g/m*3 -15 C 0 km/h
2746 19-12-2009 21:29:02 -15 C 1.06 g/m*3 -15 C 0 km/h
2747 19-12-2009 21:41:02 -15.1 C 1.05 g/m*3 -15.1 C 0 km/h
2748 19-12-2009 21:53:01 -15.3 C 1.03 g/m*3 -15.3 C 0 km/h
2749 19-12-2009 22:05:01 -15.3 C 1.05 g/m*3 -15.3 C 0 km/h
2750 19-12-2009 22:17:02 -15.4 C 1.02 g/m*3 -15.4 C 0 km/h
Sensor: Nr:Datum:Temp:Abs-Feuchte:Windchill:Wind:
Aussen-T/F 2751 19-12-2009 22:29:02 -15.5 C 1.02 g/m*3 -15.5 C 0 km/h
2752 19-12-2009 22:41:01 -15.6 C 1.02 g/m*3 -15.6 C 0 km/h
2753 19-12-2009 22:53:03 -15.7 C 1.02 g/m*3 -15.7 C 0 km/h
2754 19-12-2009 23:05:02 -15.8 C 0.99 g/m*3 -15.8 C 0 km/h
2755 19-12-2009 23:17:02 -15.8 C 0.99 g/m*3 -15.8 C 0 km/h
2756 19-12-2009 23:29:02 -15.8 C 0.99 g/m*3 -15.8 C 0 km/h
2757 19-12-2009 23:41:02 -15.9 C 0.98 g/m*3 -15.9 C 0 km/h
2758 19-12-2009 23:53:02 -15.9 C 0.98 g/m*3 -15.9 C 0 km/h
2759 20-12-2009 00:05:01 -16 C 0.98 g/m*3 -16 C 0 km/h
2760 20-12-2009 00:17:02 -16.1 C 0.97 g/m*3 -16.1 C 0 km/h
2761 20-12-2009 00:29:02 -16.2 C 0.96 g/m*3 -16.2 C 0 km/h
2762 20-12-2009 00:41:01 -16.3 C 0.95 g/m*3 -16.3 C 0 km/h
2763 20-12-2009 00:54:01 -16.2 C 0.98 g/m*3 -16.2 C 0 km/h
2764 20-12-2009 01:06:01 -16.2 C 0.98 g/m*3 -16.2 C 0 km/h
2765 20-12-2009 01:18:01 -16.3 C 0.95 g/m*3 -16.3 C 0 km/h
2766 20-12-2009 01:30:01 -16.4 C 0.95 g/m*3 -16.4 C 0 km/h
2767 20-12-2009 01:42:01 -16.4 C 0.95 g/m*3 -16.4 C 0 km/h
2768 20-12-2009 01:54:01 -16.4 C 0.95 g/m*3 -16.4 C 0 km/h
2769 20-12-2009 02:06:01 -16 C 0.99 g/m*3 -16 C 0 km/h
2770 20-12-2009 02:18:01 -16.1 C 0.98 g/m*3 -16.1 C 0 km/h
2771 20-12-2009 02:30:01 -16.1 C 0.98 g/m*3 -16.1 C 0 km/h
2772 20-12-2009 02:42:01 -16.1 C 0.98 g/m*3 -16.1 C 0 km/h
2773 20-12-2009 02:54:01 -16 C 0.99 g/m*3 -16 C 0 km/h
2774 20-12-2009 03:06:02 -16 C 0.99 g/m*3 -16 C 0 km/h
2775 20-12-2009 03:18:02 -15.9 C 1 g/m*3 -15.9 C 0 km/h
Sensor: Nr:Datum:Temp:Abs-Feuchte:Windchill:Wind:
Aussen-T/F 2776 20-12-2009 03:30:02 -15.8 C 1.01 g/m*3 -15.8 C 0 km/h
2777 20-12-2009 03:42:02 -15.4 C 1.06 g/m*3 -15.4 C 0 km/h
2778 20-12-2009 03:54:02 -14.8 C 1.12 g/m*3 -14.8 C 0 km/h
2779 20-12-2009 04:06:02 -14.5 C 1.13 g/m*3 -14.5 C 0 km/h
2780 20-12-2009 04:18:02 -14.7 C 1.1 g/m*3 -14.7 C 0 km/h
2781 20-12-2009 04:30:02 -14.8 C 1.09 g/m*3 -14.8 C 0 km/h
2782 20-12-2009 04:42:02 -14.5 C 1.12 g/m*3 -14.5 C 0 km/h
2783 20-12-2009 04:54:02 -14.3 C 1.13 g/m*3 -14.3 C 0 km/h
2784 20-12-2009 05:06:02 -14.2 C 1.16 g/m*3 -14.2 C 0 km/h
2785 20-12-2009 05:18:02 -14.1 C 1.17 g/m*3 -14.1 C 0 km/h
2786 20-12-2009 05:30:02 -13.3 C 1.24 g/m*3 -13.3 C 0 km/h
2787 20-12-2009 05:42:02 -12.8 C 1.26 g/m*3 -12.8 C 0 km/h
2788 20-12-2009 05:54:02 -13 C 1.22 g/m*3 -13 C 0 km/h
2789 20-12-2009 06:06:03 -12.8 C 1.22 g/m*3 -12.8 C 0 km/h
2790 20-12-2009 06:18:03 -12.5 C 1.25 g/m*3 -12.5 C 0 km/h
2791 20-12-2009 06:30:03 -12.3 C 1.25 g/m*3 -12.3 C 0 km/h
2792 20-12-2009 06:42:03 -12 C 1.25 g/m*3 -12 C 0 km/h
2793 20-12-2009 06:54:03 -12.5 C 1.19 g/m*3 -12.5 C 0 km/h
2794 20-12-2009 07:06:03 -12.8 C 1.18 g/m*3 -12.8 C 0 km/h
2795 20-12-2009 07:18:03 -12.9 C 1.19 g/m*3 -12.9 C 0 km/h
2796 20-12-2009 07:30:03 -12.7 C 1.23 g/m*3 -12.7 C 0 km/h
2797 20-12-2009 07:42:03 -12.5 C 1.27 g/m*3 -12.5 C 0 km/h
2798 20-12-2009 07:54:03 -12.1 C 1.33 g/m*3 -12.1 C 0 km/h
2799 20-12-2009 08:06:02 -11.6 C 1.38 g/m*3 -11.6 C 0 km/h
2800 20-12-2009 08:18:02 -11.3 C 1.41 g/m*3 -11.3 C 0 km/h
Sensor: Nr:Datum:Temp:Abs-Feuchte:Windchill:Wind:
Aussen-T/F 2801 20-12-2009 08:30:02 -11.2 C 1.42 g/m*3 -11.2 C 0 km/h
2802 20-12-2009 08:42:01 -11 C 1.44 g/m*3 -11 C 0 km/h
2803 20-12-2009 08:54:02 -10.8 C 1.46 g/m*3 -10.8 C 0 km/h
2804 20-12-2009 09:06:02 -10.6 C 1.51 g/m*3 -10.6 C 0 km/h
2805 20-12-2009 09:18:02 -10 C 1.55 g/m*3 -10 C 0 km/h
2806 20-12-2009 09:30:02 -9.6 C 1.6 g/m*3 -9.6 C 0 km/h
2807 20-12-2009 09:42:02 -9.1 C 1.59 g/m*3 -9.1 C 0 km/h
2808 20-12-2009 09:54:01 -8.8 C 1.6 g/m*3 -8.8 C 0 km/h
2809 20-12-2009 10:06:01 -8.5 C 1.61 g/m*3 -8.5 C 0 km/h
2810 20-12-2009 10:18:01 -8.2 C 1.62 g/m*3 -8.2 C 0 km/h
2811 20-12-2009 10:30:01 -8 C 1.64 g/m*3 -8 C 0 km/h
2812 20-12-2009 10:42:01 -7.8 C 1.67 g/m*3 -7.8 C 0 km/h
2813 20-12-2009 10:54:01 -7.4 C 1.69 g/m*3 -7.4 C 0 km/h
2814 20-12-2009 11:06:02 -7.2 C 1.68 g/m*3 -7.2 C 0 km/h
2815 20-12-2009 11:18:01 -7.1 C 1.7 g/m*3 -7.1 C 0 km/h
2816 20-12-2009 11:30:01 -7 C 1.71 g/m*3 -7 C 0 km/h
2817 20-12-2009 11:42:01 -6.7 C 1.81 g/m*3 -6.7 C 0 km/h
2818 20-12-2009 11:54:02 -6.5 C 1.83 g/m*3 -6.5 C 0 km/h
2819 20-12-2009 12:06:02 -6.2 C 1.87 g/m*3 -6.2 C 0 km/h
2820 20-12-2009 12:18:02 -6.1 C 1.92 g/m*3 -6.1 C 0 km/h
2821 20-12-2009 12:30:02 -5.9 C 2.01 g/m*3 -5.9 C 0 km/h
2822 20-12-2009 12:42:02 -6 C 2.06 g/m*3 -6 C 0 km/h
2823 20-12-2009 12:54:02 -5.9 C 2.14 g/m*3 -5.9 C 0 km/h
2824 20-12-2009 13:06:02 -5.8 C 2.25 g/m*3 -5.8 C 0 km/h
2825 20-12-2009 13:18:03 -5.7 C 2.33 g/m*3 -5.7 C 0 km/h
Sensor: Nr:Datum:Temp:Abs-Feuchte:Windchill:Wind:
Aussen-T/F 2826 20-12-2009 13:30:03 -5.7 C 2.36 g/m*3 -5.7 C 0 km/h
2827 20-12-2009 13:42:02 -5.6 C 2.41 g/m*3 -5.6 C 0 km/h
2828 20-12-2009 13:54:02 -5.5 C 2.46 g/m*3 -5.5 C 0 km/h
2829 20-12-2009 14:06:02 -5.4 C 2.51 g/m*3 -5.4 C 0 km/h
2830 20-12-2009 14:18:01 -5.3 C 2.57 g/m*3 -5.3 C 0 km/h
2831 20-12-2009 14:30:01 -5.3 C 2.57 g/m*3 -5.3 C 0 km/h
2832 20-12-2009 14:42:01 -5.2 C 2.62 g/m*3 -5.2 C 0 km/h
2833 20-12-2009 14:54:01 -5 C 2.66 g/m*3 -5 C 0 km/h
2834 20-12-2009 15:06:01 -5 C 2.66 g/m*3 -5 C 0 km/h
2835 20-12-2009 15:18:02 -4.9 C 2.68 g/m*3 -4.9 C 0 km/h
2836 20-12-2009 15:30:02 -4.7 C 2.71 g/m*3 -4.7 C 0 km/h
2837 20-12-2009 15:42:01 -4.4 C 2.74 g/m*3 -4.4 C 0 km/h
2838 20-12-2009 15:54:02 -4.3 C 2.76 g/m*3 -4.3 C 0 km/h
2839 20-12-2009 16:06:02 -4.3 C 2.72 g/m*3 -4.3 C 0 km/h
2840 20-12-2009 16:18:03 -4 C 2.82 g/m*3 -4 C 0 km/h
2841 20-12-2009 16:30:03 -3.8 C 2.86 g/m*3 -3.8 C 0 km/h
2842 20-12-2009 16:42:02 -3.7 C 2.84 g/m*3 -3.7 C 0 km/h
2843 20-12-2009 16:54:03 -3.7 C 2.8 g/m*3 -3.7 C 0 km/h
2844 20-12-2009 17:06:02 -3.5 C 2.84 g/m*3 -3.5 C 0 km/h
2845 20-12-2009 17:18:02 -3.2 C 2.9 g/m*3 -3.2 C 0 km/h
2846 20-12-2009 17:30:02 -3 C 2.95 g/m*3 -3 C 0 km/h
2847 20-12-2009 17:42:02 -2.8 C 2.95 g/m*3 -2.8 C 0 km/h
2848 20-12-2009 17:54:02 -2.8 C 2.95 g/m*3 -2.8 C 0 km/h
2849 20-12-2009 18:06:02 -2.7 C 2.97 g/m*3 -2.7 C 0 km/h
2850 20-12-2009 18:18:02 -2.7 C 2.97 g/m*3 -2.7 C 0 km/h
Sensor: Nr:Datum:Temp:Abs-Feuchte:Windchill:Wind:
Aussen-T/F 2851 20-12-2009 18:30:02 -2.7 C 3.01 g/m*3 -2.7 C 0 km/h
2852 20-12-2009 18:42:02 -2.5 C 3.05 g/m*3 -2.5 C 0 km/h
2853 20-12-2009 18:54:02 -2.3 C 3.1 g/m*3 -2.3 C 0 km/h
2854 20-12-2009 19:06:02 -2 C 3.12 g/m*3 -2 C 0 km/h
2855 20-12-2009 19:18:01 -1.8 C 3.12 g/m*3 -1.8 C 0 km/h
2856 20-12-2009 19:30:01 -1.9 C 3.1 g/m*3 -1.9 C 0 km/h
2857 20-12-2009 19:42:02 -2 C 3.08 g/m*3 -2 C 0 km/h
2858 20-12-2009 19:54:02 -1.9 C 3.14 g/m*3 -1.9 C 0 km/h
2859 20-12-2009 20:06:02 -1.7 C 3.14 g/m*3 -1.7 C 0 km/h
2860 20-12-2009 20:18:01 -1.6 C 3.16 g/m*3 -1.6 C 0 km/h
2861 20-12-2009 20:30:01 -1.7 C 3.14 g/m*3 -1.7 C 0 km/h
2862 20-12-2009 20:42:02 -1.6 C 3.16 g/m*3 -1.6 C 0 km/h
2863 20-12-2009 20:54:02 -1.5 C 3.19 g/m*3 -1.5 C 0 km/h
2864 20-12-2009 21:06:02 -1.5 C 3.14 g/m*3 -1.5 C 0 km/h
2865 20-12-2009 21:18:01 -1.3 C 3.14 g/m*3 -1.3 C 0 km/h
2866 20-12-2009 21:30:01 -1.1 C 3.14 g/m*3 -1.1 C 0 km/h
2867 20-12-2009 21:42:02 -1.1 C 3.05 g/m*3 -1.1 C 0 km/h
2868 20-12-2009 21:54:02 -1.2 C 2.99 g/m*3 -1.2 C 0 km/h
2869 20-12-2009 22:06:02 -1.3 C 2.92 g/m*3 -1.3 C 0 km/h
2870 20-12-2009 22:18:02 -1.8 C 2.78 g/m*3 -1.8 C 0 km/h
2871 20-12-2009 22:30:02 -2 C 2.78 g/m*3 -2 C 0 km/h
2872 20-12-2009 22:42:02 -2.1 C 2.76 g/m*3 -2.1 C 0 km/h
2873 20-12-2009 22:54:02 -2 C 2.87 g/m*3 -2 C 0 km/h
2874 20-12-2009 23:06:01 -2 C 2.87 g/m*3 -2 C 0 km/h
2875 20-12-2009 23:18:01 -2.1 C 2.85 g/m*3 -2.1 C 0 km/h
Sensor: Nr:Datum:Temp:Abs-Feuchte:Windchill:Wind:
Aussen-T/F 2876 20-12-2009 23:30:01 -2.3 C 2.85 g/m*3 -2.3 C 0 km/h
2877 20-12-2009 23:42:02 -2.6 C 2.83 g/m*3 -2.6 C 0 km/h
2878 20-12-2009 23:54:02 -2.6 C 2.87 g/m*3 -2.6 C 0 km/h
2879 21-12-2009 00:06:02 -2.7 C 2.85 g/m*3 -2.7 C 0 km/h
2880 21-12-2009 00:18:02 -3.1 C 2.81 g/m*3 -3.1 C 0 km/h
2881 21-12-2009 00:30:02 -3.2 C 2.79 g/m*3 -3.2 C 0 km/h
2882 21-12-2009 00:42:02 -3.2 C 2.79 g/m*3 -3.2 C 0 km/h
2883 21-12-2009 00:54:01 -3.3 C 2.77 g/m*3 -3.3 C 0 km/h
2884 21-12-2009 01:06:02 -3.3 C 2.77 g/m*3 -3.3 C 0 km/h
2885 21-12-2009 01:18:01 -3.7 C 2.73 g/m*3 -3.7 C 0 km/h
2886 21-12-2009 01:30:01 -3.9 C 2.73 g/m*3 -3.9 C 0 km/h
2887 21-12-2009 01:42:02 -4.1 C 2.72 g/m*3 -4.1 C 0 km/h
2888 21-12-2009 01:54:02 -4.2 C 2.74 g/m*3 -4.2 C 0 km/h
2889 21-12-2009 02:06:02 -4.2 C 2.74 g/m*3 -4.2 C 0 km/h
2890 21-12-2009 02:18:01 -4.4 C 2.7 g/m*3 -4.4 C 0 km/h
2891 21-12-2009 02:30:01 -4.3 C 2.76 g/m*3 -4.3 C 0 km/h
2892 21-12-2009 02:42:02 -4.1 C 2.8 g/m*3 -4.1 C 0 km/h
2893 21-12-2009 02:55:03 -4 C 2.82 g/m*3 -4 C 0 km/h
2894 21-12-2009 03:07:03 -3.8 C 2.86 g/m*3 -3.8 C 0 km/h
2895 21-12-2009 03:19:04 -4 C 2.82 g/m*3 -4 C 0 km/h
2896 21-12-2009 03:31:02 -3.9 C 2.84 g/m*3 -3.9 C 0 km/h
2897 21-12-2009 03:43:02 -4 C 2.82 g/m*3 -4 C 0 km/h
2898 21-12-2009 03:55:02 -4 C 2.82 g/m*3 -4 C 0 km/h
2899 21-12-2009 04:07:02 -4 C 2.85 g/m*3 -4 C 0 km/h
2900 21-12-2009 04:19:02 -4.4 C 2.74 g/m*3 -4.4 C 0 km/h
Sensor: Nr:Datum:Temp:Abs-Feuchte:Windchill:Wind:
Aussen-T/F 2901 21-12-2009 04:31:02 -4.8 C 2.66 g/m*3 -4.8 C 0 km/h
2902 21-12-2009 04:43:02 -5.2 C 2.62 g/m*3 -5.2 C 0 km/h
2903 21-12-2009 04:55:02 -5.3 C 2.63 g/m*3 -5.3 C 0 km/h
2904 21-12-2009 05:07:02 -5.3 C 2.67 g/m*3 -5.3 C 0 km/h
2905 21-12-2009 05:19:02 -5.3 C 2.67 g/m*3 -5.3 C 0 km/h
2906 21-12-2009 05:31:02 -5.3 C 2.7 g/m*3 -5.3 C 0 km/h
2907 21-12-2009 05:43:02 -5.1 C 2.77 g/m*3 -5.1 C 0 km/h
2908 21-12-2009 05:55:02 -5.1 C 2.77 g/m*3 -5.1 C 0 km/h
2909 21-12-2009 06:07:02 -4.8 C 2.83 g/m*3 -4.8 C 0 km/h
2910 21-12-2009 06:19:01 -4.6 C 2.87 g/m*3 -4.6 C 0 km/h
2911 21-12-2009 06:31:02 -4.9 C 2.74 g/m*3 -4.9 C 0 km/h
2912 21-12-2009 06:43:03 -5.1 C 2.7 g/m*3 -5.1 C 0 km/h
2913 21-12-2009 06:55:02 -5 C 2.76 g/m*3 -5 C 0 km/h
2914 21-12-2009 07:07:02 -4.7 C 2.82 g/m*3 -4.7 C 0 km/h
2915 21-12-2009 07:19:01 -4.3 C 2.86 g/m*3 -4.3 C 0 km/h
2916 21-12-2009 07:31:02 -4.2 C 2.81 g/m*3 -4.2 C 0 km/h
2917 21-12-2009 07:43:02 -4.3 C 2.76 g/m*3 -4.3 C 0 km/h
2918 21-12-2009 07:55:01 -4.5 C 2.72 g/m*3 -4.5 C 0 km/h
2919 21-12-2009 08:07:02 -4.8 C 2.63 g/m*3 -4.8 C 0 km/h
2920 21-12-2009 08:19:02 -5.2 C 2.55 g/m*3 -5.2 C 0 km/h
2921 21-12-2009 08:31:01 -5.6 C 2.51 g/m*3 -5.6 C 0 km/h
2922 21-12-2009 08:43:01 -5.7 C 2.49 g/m*3 -5.7 C 0 km/h
2923 21-12-2009 08:55:01 -6 C 2.47 g/m*3 -6 C 0 km/h
2924 21-12-2009 09:07:01 -5.8 C 2.54 g/m*3 -5.8 C 0 km/h
2925 21-12-2009 09:19:02 -5.7 C 2.56 g/m*3 -5.7 C 0 km/h
Sensor: Nr:Datum:Temp:Abs-Feuchte:Windchill:Wind:
Aussen-T/F 2926 21-12-2009 09:31:01 -5.7 C 2.56 g/m*3 -5.7 C 0 km/h
2927 21-12-2009 09:43:01 -5.2 C 2.68 g/m*3 -5.2 C 0 km/h
2928 21-12-2009 09:55:02 -5.3 C 2.63 g/m*3 -5.3 C 0 km/h
2929 21-12-2009 10:07:01 -5.1 C 2.67 g/m*3 -5.1 C 0 km/h
2930 21-12-2009 10:19:01 -4.7 C 2.75 g/m*3 -4.7 C 0 km/h
2931 21-12-2009 10:31:01 -4 C 2.89 g/m*3 -4 C 0 km/h
2932 21-12-2009 10:43:01 -3.3 C 2.88 g/m*3 -3.3 C 0 km/h
2933 21-12-2009 10:55:02 -2.8 C 2.91 g/m*3 -2.8 C 0 km/h
2934 21-12-2009 11:07:02 -2.6 C 2.83 g/m*3 -2.6 C 0 km/h
2935 21-12-2009 11:19:02 -2.6 C 2.83 g/m*3 -2.6 C 0 km/h
2936 21-12-2009 11:31:02 -2.4 C 2.87 g/m*3 -2.4 C 0 km/h
2937 21-12-2009 11:43:02 -2.2 C 2.91 g/m*3 -2.2 C 0 km/h
2938 21-12-2009 11:55:02 -2.1 C 2.93 g/m*3 -2.1 C 0 km/h
2939 21-12-2009 12:07:01 -1.7 C 2.97 g/m*3 -1.7 C 0 km/h
2940 21-12-2009 12:19:01 -1.1 C 3.05 g/m*3 -1.1 C 0 km/h
2941 21-12-2009 12:31:02 -0.9 C 3.1 g/m*3 -0.9 C 0 km/h
2942 21-12-2009 12:43:02 -0.8 C 3.07 g/m*3 -0.8 C 0 km/h
2943 21-12-2009 12:55:02 -0.8 C 3.16 g/m*3 -0.8 C 0 km/h
2944 21-12-2009 13:07:01 -0.8 C 3.21 g/m*3 -0.8 C 0 km/h
2945 21-12-2009 13:19:02 -0.7 C 3.32 g/m*3 -0.7 C 0 km/h
2946 21-12-2009 13:31:02 -0.6 C 3.35 g/m*3 -0.6 C 0 km/h
2947 21-12-2009 13:43:02 -0.4 C 3.39 g/m*3 -0.4 C 0 km/h
2948 21-12-2009 13:55:02 -0.4 C 3.39 g/m*3 -0.4 C 0 km/h
2949 21-12-2009 14:07:02 -0.4 C 3.39 g/m*3 -0.4 C 0 km/h
2950 21-12-2009 14:19:02 -0.3 C 3.42 g/m*3 -0.3 C 0 km/h
Sensor: Nr:Datum:Temp:Abs-Feuchte:Windchill:Wind:
Aussen-T/F 2951 21-12-2009 14:31:02 -0.2 C 3.49 g/m*3 -0.2 C 0 km/h
2952 21-12-2009 14:43:02 -0.1 C 3.51 g/m*3 -0.1 C 0 km/h
2953 21-12-2009 14:55:01 0.1 C 3.56 g/m*3 0.1 C 0 km/h
2954 21-12-2009 15:07:02 -0.1 C 3.56 g/m*3 -0.1 C 0 km/h
2955 21-12-2009 15:19:01 -0.2 C 3.58 g/m*3 -0.2 C 0 km/h
2956 21-12-2009 15:31:01 -0.2 C 3.63 g/m*3 -0.2 C 0 km/h
2957 21-12-2009 15:43:01 -0.2 C 3.63 g/m*3 -0.2 C 0 km/h
2958 21-12-2009 15:55:01 -0.3 C 3.65 g/m*3 -0.3 C 0 km/h
2959 21-12-2009 16:07:02 -0.3 C 3.65 g/m*3 -0.3 C 0 km/h
2960 21-12-2009 16:19:01 -0.5 C 3.65 g/m*3 -0.5 C 0 km/h
2961 21-12-2009 16:31:01 -0.7 C 3.6 g/m*3 -0.7 C 0 km/h
2962 21-12-2009 16:43:01 -0.8 C 3.62 g/m*3 -0.8 C 0 km/h
2963 21-12-2009 16:55:01 -0.9 C 3.64 g/m*3 -0.9 C 0 km/h
2964 21-12-2009 17:07:02 -0.8 C 3.67 g/m*3 -0.8 C 0 km/h
2965 21-12-2009 17:19:02 -0.9 C 3.69 g/m*3 -0.9 C 0 km/h
2966 21-12-2009 17:31:01 -1 C 3.71 g/m*3 -1 C 0 km/h
2967 21-12-2009 17:43:01 -0.9 C 3.73 g/m*3 -0.9 C 0 km/h
2968 21-12-2009 17:55:01 -0.7 C 3.83 g/m*3 -0.7 C 0 km/h
2969 21-12-2009 18:07:02 -0.7 C 3.83 g/m*3 -0.7 C 0 km/h
2970 21-12-2009 18:19:02 -0.6 C 3.86 g/m*3 -0.6 C 0 km/h
2971 21-12-2009 18:31:01 -0.5 C 3.88 g/m*3 -0.5 C 0 km/h
2972 21-12-2009 18:43:01 -0.2 C 3.97 g/m*3 -0.2 C 0 km/h
2973 21-12-2009 18:55:02 0 C 3.97 g/m*3 0 C 0 km/h
2974 21-12-2009 19:07:01 0.2 C 3.98 g/m*3 0.2 C 0 km/h
2975 21-12-2009 19:19:02 0.3 C 3.96 g/m*3 0.3 C 0 km/h
Sensor: Nr:Datum:Temp:Abs-Feuchte:Windchill:Wind:
Aussen-T/F 2976 21-12-2009 19:31:01 0.5 C 4.01 g/m*3 0.5 C 0 km/h
2977 21-12-2009 19:43:01 0.5 C 4.01 g/m*3 0.5 C 0 km/h
2978 21-12-2009 19:55:02 0.5 C 4.01 g/m*3 0.5 C 0 km/h
2979 21-12-2009 20:07:02 0.5 C 4.01 g/m*3 0.5 C 0 km/h
2980 21-12-2009 20:19:02 0.6 C 4.09 g/m*3 0.6 C 0 km/h
2981 21-12-2009 20:31:03 0.5 C 4.06 g/m*3 0.5 C 0 km/h
2982 21-12-2009 20:43:03 0.6 C 4.19 g/m*3 0.6 C 0 km/h
2983 21-12-2009 20:55:02 0.7 C 4.27 g/m*3 0.7 C 0 km/h
2984 21-12-2009 21:07:01 0.7 C 4.32 g/m*3 0.7 C 0 km/h
2985 21-12-2009 21:19:02 1 C 4.41 g/m*3 1 C 0 km/h
2986 21-12-2009 21:31:02 0.8 C 4.35 g/m*3 0.8 C 0 km/h
2987 21-12-2009 21:43:02 0.7 C 4.37 g/m*3 0.7 C 0 km/h
2988 21-12-2009 21:55:02 0.7 C 4.42 g/m*3 0.7 C 0 km/h
2989 21-12-2009 22:08:02 0.6 C 4.44 g/m*3 0.6 C 0 km/h
2990 21-12-2009 22:20:02 0.7 C 4.47 g/m*3 0.7 C 0 km/h
2991 21-12-2009 22:32:02 0.6 C 4.49 g/m*3 0.6 C 0 km/h
2992 21-12-2009 22:44:02 0.7 C 4.53 g/m*3 0.7 C 0 km/h
2993 21-12-2009 22:56:02 0.8 C 4.56 g/m*3 0.8 C 0 km/h
2994 21-12-2009 23:08:02 0.6 C 4.49 g/m*3 0.6 C 0 km/h
2995 21-12-2009 23:20:02 0.7 C 4.53 g/m*3 0.7 C 0 km/h
2996 21-12-2009 23:32:02 0.8 C 4.56 g/m*3 0.8 C 0 km/h
2997 21-12-2009 23:44:02 0.8 C 4.56 g/m*3 0.8 C 0 km/h
2998 21-12-2009 23:56:02 0.8 C 4.56 g/m*3 0.8 C 0 km/h
2999 22-12-2009 00:08:02 0.8 C 4.56 g/m*3 0.8 C 0 km/h
3000 22-12-2009 00:20:02 0.9 C 4.54 g/m*3 0.9 C 0 km/h
Sensor: Nr:Datum:Temp:Abs-Feuchte:Windchill:Wind:
Aussen-T/F 3001 22-12-2009 00:32:02 1 C 4.52 g/m*3 1 C 0 km/h
3002 22-12-2009 00:44:02 1.1 C 4.55 g/m*3 1.1 C 0 km/h
3003 22-12-2009 00:56:02 1 C 4.52 g/m*3 1 C 0 km/h
3004 22-12-2009 01:08:02 1 C 4.52 g/m*3 1 C 0 km/h
3005 22-12-2009 01:20:02 1 C 4.52 g/m*3 1 C 0 km/h
3006 22-12-2009 01:32:02 1 C 4.52 g/m*3 1 C 0 km/h
3007 22-12-2009 01:44:02 1 C 4.57 g/m*3 1 C 0 km/h
3008 22-12-2009 01:56:02 1.1 C 4.6 g/m*3 1.1 C 0 km/h
3009 22-12-2009 02:08:02 1.2 C 4.63 g/m*3 1.2 C 0 km/h
3010 22-12-2009 02:20:03 1.1 C 4.6 g/m*3 1.1 C 0 km/h
3011 22-12-2009 02:32:03 1.2 C 4.63 g/m*3 1.2 C 0 km/h
3012 22-12-2009 02:44:03 1.2 C 4.63 g/m*3 1.2 C 0 km/h
3013 22-12-2009 02:56:03 1 C 4.57 g/m*3 1 C 0 km/h
3014 22-12-2009 03:08:03 0.9 C 4.59 g/m*3 0.9 C 0 km/h
3015 22-12-2009 03:20:03 1.1 C 4.65 g/m*3 1.1 C 0 km/h
3016 22-12-2009 03:32:03 1.1 C 4.65 g/m*3 1.1 C 0 km/h
3017 22-12-2009 03:44:03 0.9 C 4.64 g/m*3 0.9 C 0 km/h
3018 22-12-2009 03:56:03 1.1 C 4.7 g/m*3 1.1 C 0 km/h
3019 22-12-2009 04:08:03 1.2 C 4.79 g/m*3 1.2 C 0 km/h
3020 22-12-2009 04:20:03 1.3 C 4.82 g/m*3 1.3 C 0 km/h
3021 22-12-2009 04:32:03 1.6 C 4.92 g/m*3 1.6 C 0 km/h
3022 22-12-2009 04:44:03 1.5 C 4.89 g/m*3 1.5 C 0 km/h
3023 22-12-2009 04:56:03 1.5 C 4.89 g/m*3 1.5 C 0 km/h
3024 22-12-2009 05:08:03 1.7 C 4.95 g/m*3 1.7 C 0 km/h
3025 22-12-2009 05:20:03 1.6 C 4.92 g/m*3 1.6 C 0 km/h
Sensor: Nr:Datum:Temp:Abs-Feuchte:Windchill:Wind:
Aussen-T/F 3026 22-12-2009 05:32:03 1.6 C 4.97 g/m*3 1.6 C 0 km/h
3027 22-12-2009 05:44:03 1.6 C 4.97 g/m*3 1.6 C 0 km/h
3028 22-12-2009 05:56:03 1.8 C 5.04 g/m*3 1.8 C 0 km/h
3029 22-12-2009 06:08:03 1.8 C 5.1 g/m*3 1.8 C 0 km/h
3030 22-12-2009 06:20:03 2 C 5.17 g/m*3 2 C 0 km/h
3031 22-12-2009 06:32:04 2.3 C 5.27 g/m*3 2.3 C 0 km/h
3032 22-12-2009 06:44:04 2.5 C 5.4 g/m*3 2.5 C 0 km/h
3033 22-12-2009 06:56:04 2.5 C 5.4 g/m*3 2.5 C 0 km/h
3034 22-12-2009 07:08:02 2.5 C 5.4 g/m*3 2.5 C 0 km/h
3035 22-12-2009 07:20:02 2.6 C 5.44 g/m*3 2.6 C 0 km/h
3036 22-12-2009 07:32:01 2.8 C 5.57 g/m*3 2.8 C 0 km/h
3037 22-12-2009 07:44:01 2.8 C 5.57 g/m*3 2.8 C 0 km/h
3038 22-12-2009 07:56:02 2.7 C 5.54 g/m*3 2.7 C 0 km/h
3039 22-12-2009 08:08:01 2.7 C 5.54 g/m*3 2.7 C 0 km/h
3040 22-12-2009 08:20:02 3 C 5.65 g/m*3 3 C 0 km/h
3041 22-12-2009 08:32:02 3 C 5.65 g/m*3 3 C 0 km/h
3042 22-12-2009 08:44:02 3.1 C 5.69 g/m*3 3.1 C 0 km/h
3043 22-12-2009 08:56:02 3 C 5.65 g/m*3 3 C 0 km/h
3044 22-12-2009 09:08:02 3 C 5.65 g/m*3 3 C 0 km/h
3045 22-12-2009 09:20:02 3.3 C 5.76 g/m*3 3.3 C 0 km/h
3046 22-12-2009 09:32:02 3.4 C 5.8 g/m*3 3.4 C 0 km/h
3047 22-12-2009 09:44:02 3.4 C 5.8 g/m*3 3.4 C 0 km/h
3048 22-12-2009 09:56:01 3.4 C 5.8 g/m*3 3.4 C 0 km/h
3049 22-12-2009 10:08:02 3.5 C 5.84 g/m*3 3.5 C 0 km/h
3050 22-12-2009 10:20:01 3.5 C 5.84 g/m*3 3.5 C 0 km/h
Sensor: Nr:Datum:Temp:Abs-Feuchte:Windchill:Wind:
Aussen-T/F 3051 22-12-2009 10:32:02 3.5 C 5.84 g/m*3 3.5 C 0 km/h
3052 22-12-2009 10:44:02 3.6 C 5.88 g/m*3 3.6 C 0 km/h
3053 22-12-2009 10:56:02 3.7 C 5.92 g/m*3 3.7 C 0 km/h
3054 22-12-2009 11:08:02 3.8 C 5.96 g/m*3 3.8 C 0 km/h
3055 22-12-2009 11:20:01 3.9 C 6 g/m*3 3.9 C 0 km/h
3056 22-12-2009 11:32:02 3.8 C 5.96 g/m*3 3.8 C 0 km/h
3057 22-12-2009 11:44:02 4 C 6.04 g/m*3 4 C 0 km/h
3058 22-12-2009 11:56:02 4.3 C 6.16 g/m*3 4.3 C 0 km/h
3059 22-12-2009 12:08:02 5 C 6.46 g/m*3 5 C 0 km/h
3060 22-12-2009 12:20:01 5.6 C 6.72 g/m*3 5.6 C 0 km/h
3061 22-12-2009 12:32:02 6 C 6.9 g/m*3 6 C 0 km/h
3062 22-12-2009 12:44:02 6 C 6.9 g/m*3 6 C 0 km/h
3063 22-12-2009 12:56:02 6 C 6.68 g/m*3 6 C 0 km/h
3064 22-12-2009 13:08:02 6 C 6.46 g/m*3 6 C 0 km/h
3065 22-12-2009 13:20:02 6.2 C 6.25 g/m*3 6.2 C 0 km/h
3066 22-12-2009 13:32:02 6.3 C 6.07 g/m*3 6.3 C 0 km/h
3067 22-12-2009 13:44:02 6.1 C 5.77 g/m*3 6.1 C 0 km/h
3068 22-12-2009 13:56:01 5.9 C 5.7 g/m*3 5.9 C 0 km/h
3069 22-12-2009 14:08:02 6 C 5.52 g/m*3 6 C 0 km/h
3070 22-12-2009 14:20:02 5.9 C 5.34 g/m*3 5.9 C 0 km/h
3071 22-12-2009 14:32:02 5.7 C 5.05 g/m*3 5.7 C 0 km/h
3072 22-12-2009 14:44:02 5.6 C 4.95 g/m*3 5.6 C 0 km/h
3073 22-12-2009 14:56:02 5.5 C 4.92 g/m*3 5.5 C 0 km/h
3074 22-12-2009 15:08:02 5.1 C 4.86 g/m*3 5.1 C 0 km/h
3075 22-12-2009 15:20:02 5 C 4.76 g/m*3 5 C 0 km/h
Sensor: Nr:Datum:Temp:Abs-Feuchte:Windchill:Wind:
Aussen-T/F 3076 22-12-2009 15:32:01 4.6 C 4.7 g/m*3 4.6 C 0 km/h
3077 22-12-2009 15:44:01 4.4 C 4.7 g/m*3 4.4 C 0 km/h
3078 22-12-2009 15:56:02 4.2 C 4.64 g/m*3 4.2 C 0 km/h
3079 22-12-2009 16:08:01 3.9 C 4.61 g/m*3 3.9 C 0 km/h
3080 22-12-2009 16:20:01 3.5 C 4.55 g/m*3 3.5 C 0 km/h
3081 22-12-2009 16:32:02 3.4 C 4.64 g/m*3 3.4 C 0 km/h
3082 22-12-2009 16:44:02 3.6 C 4.64 g/m*3 3.6 C 0 km/h
3083 22-12-2009 16:56:02 3.4 C 4.64 g/m*3 3.4 C 0 km/h
3084 22-12-2009 17:08:02 3.4 C 4.64 g/m*3 3.4 C 0 km/h
3085 22-12-2009 17:20:02 3.5 C 4.55 g/m*3 3.5 C 0 km/h
3086 22-12-2009 17:32:02 3.5 C 4.49 g/m*3 3.5 C 0 km/h
3087 22-12-2009 17:44:02 3.4 C 4.46 g/m*3 3.4 C 0 km/h
3088 22-12-2009 17:56:02 3.2 C 4.4 g/m*3 3.2 C 0 km/h
3089 22-12-2009 18:08:02 3 C 4.46 g/m*3 3 C 0 km/h
3090 22-12-2009 18:20:01 2.8 C 4.52 g/m*3 2.8 C 0 km/h
3091 22-12-2009 18:32:02 2.8 C 4.58 g/m*3 2.8 C 0 km/h
3092 22-12-2009 18:44:02 2.7 C 4.54 g/m*3 2.7 C 0 km/h
3093 22-12-2009 18:56:02 2.7 C 4.6 g/m*3 2.7 C 0 km/h
3094 22-12-2009 19:08:02 2.6 C 4.57 g/m*3 2.6 C 0 km/h
3095 22-12-2009 19:20:02 2.5 C 4.54 g/m*3 2.5 C 0 km/h
3096 22-12-2009 19:32:02 2.6 C 4.63 g/m*3 2.6 C 0 km/h
3097 22-12-2009 19:44:03 2.4 C 4.62 g/m*3 2.4 C 0 km/h
3098 22-12-2009 19:56:02 2.2 C 4.62 g/m*3 2.2 C 0 km/h
3099 22-12-2009 20:08:02 2.2 C 4.73 g/m*3 2.2 C 0 km/h
3100 22-12-2009 20:20:02 2.1 C 4.81 g/m*3 2.1 C 0 km/h
Sensor: Nr:Datum:Temp:Abs-Feuchte:Windchill:Wind:
Aussen-T/F 3101 22-12-2009 20:32:02 2.1 C 4.87 g/m*3 2.1 C 0 km/h
3102 22-12-2009 20:44:02 2 C 4.83 g/m*3 2 C 0 km/h
3103 22-12-2009 20:56:01 1.9 C 4.91 g/m*3 1.9 C 0 km/h
3104 22-12-2009 21:08:01 1.7 C 4.85 g/m*3 1.7 C 0 km/h
3105 22-12-2009 21:20:01 1.6 C 4.87 g/m*3 1.6 C 0 km/h
3106 22-12-2009 21:32:01 1.5 C 4.89 g/m*3 1.5 C 0 km/h
3107 22-12-2009 21:44:01 1.4 C 4.85 g/m*3 1.4 C 0 km/h
3108 22-12-2009 21:56:01 1.3 C 4.82 g/m*3 1.3 C 0 km/h
3109 22-12-2009 22:08:01 1 C 4.72 g/m*3 1 C 0 km/h
3110 22-12-2009 22:21:02 0.8 C 4.71 g/m*3 0.8 C 0 km/h
3111 22-12-2009 22:33:02 0.8 C 4.76 g/m*3 0.8 C 0 km/h
3112 22-12-2009 22:45:02 0.8 C 4.76 g/m*3 0.8 C 0 km/h
3113 22-12-2009 22:57:02 0.8 C 4.76 g/m*3 0.8 C 0 km/h
3114 22-12-2009 23:09:02 0.7 C 4.73 g/m*3 0.7 C 0 km/h
3115 22-12-2009 23:21:02 0.5 C 4.66 g/m*3 0.5 C 0 km/h
3116 22-12-2009 23:33:02 0.4 C 4.63 g/m*3 0.4 C 0 km/h
3117 22-12-2009 23:45:02 0.4 C 4.63 g/m*3 0.4 C 0 km/h
3118 22-12-2009 23:57:02 0.4 C 4.63 g/m*3 0.4 C 0 km/h
3119 23-12-2009 00:09:02 0.4 C 4.68 g/m*3 0.4 C 0 km/h
3120 23-12-2009 00:21:02 0.4 C 4.68 g/m*3 0.4 C 0 km/h
3121 23-12-2009 00:33:02 0.5 C 4.71 g/m*3 0.5 C 0 km/h
3122 23-12-2009 00:45:02 0.5 C 4.71 g/m*3 0.5 C 0 km/h
3123 23-12-2009 00:57:03 0.6 C 4.8 g/m*3 0.6 C 0 km/h
3124 23-12-2009 01:09:03 0.5 C 4.76 g/m*3 0.5 C 0 km/h
3125 23-12-2009 01:21:03 0.5 C 4.76 g/m*3 0.5 C 0 km/h
Sensor: Nr:Datum:Temp:Abs-Feuchte:Windchill:Wind:
Aussen-T/F 3126 23-12-2009 01:33:03 0.6 C 4.8 g/m*3 0.6 C 0 km/h
3127 23-12-2009 01:45:03 0.6 C 4.8 g/m*3 0.6 C 0 km/h
3128 23-12-2009 01:57:03 0.6 C 4.8 g/m*3 0.6 C 0 km/h
3129 23-12-2009 02:09:03 0.6 C 4.8 g/m*3 0.6 C 0 km/h
3130 23-12-2009 02:21:03 0.6 C 4.8 g/m*3 0.6 C 0 km/h
3131 23-12-2009 02:33:03 0.6 C 4.8 g/m*3 0.6 C 0 km/h
3132 23-12-2009 02:45:03 0.7 C 4.83 g/m*3 0.7 C 0 km/h
3133 23-12-2009 02:57:03 0.6 C 4.8 g/m*3 0.6 C 0 km/h
3134 23-12-2009 03:09:03 0.6 C 4.8 g/m*3 0.6 C 0 km/h
3135 23-12-2009 03:21:03 0.5 C 4.76 g/m*3 0.5 C 0 km/h
3136 23-12-2009 03:33:03 0.4 C 4.73 g/m*3 0.4 C 0 km/h
3137 23-12-2009 03:45:03 0.4 C 4.73 g/m*3 0.4 C 0 km/h
3138 23-12-2009 03:57:03 0.3 C 4.7 g/m*3 0.3 C 0 km/h
3139 23-12-2009 04:09:03 0.3 C 4.7 g/m*3 0.3 C 0 km/h
3140 23-12-2009 04:21:03 0.3 C 4.7 g/m*3 0.3 C 0 km/h
3141 23-12-2009 04:33:03 0.3 C 4.7 g/m*3 0.3 C 0 km/h
3142 23-12-2009 04:45:03 0.4 C 4.73 g/m*3 0.4 C 0 km/h
3143 23-12-2009 04:57:04 0.2 C 4.67 g/m*3 0.2 C 0 km/h
3144 23-12-2009 05:09:04 0.3 C 4.7 g/m*3 0.3 C 0 km/h
3145 23-12-2009 05:21:04 0.3 C 4.7 g/m*3 0.3 C 0 km/h
3146 23-12-2009 05:33:04 0.3 C 4.7 g/m*3 0.3 C 0 km/h
3147 23-12-2009 05:45:04 0.3 C 4.7 g/m*3 0.3 C 0 km/h
3148 23-12-2009 05:57:04 0.3 C 4.7 g/m*3 0.3 C 0 km/h
3149 23-12-2009 06:09:04 0.1 C 4.63 g/m*3 0.1 C 0 km/h
3150 23-12-2009 06:21:04 0.1 C 4.63 g/m*3 0.1 C 0 km/h
Sensor: Nr:Datum:Temp:Abs-Feuchte:Windchill:Wind:
Aussen-T/F 3151 23-12-2009 06:33:03 0.2 C 4.67 g/m*3 0.2 C 0 km/h
3152 23-12-2009 06:45:02 0.3 C 4.7 g/m*3 0.3 C 0 km/h
3153 23-12-2009 06:57:02 0.3 C 4.7 g/m*3 0.3 C 0 km/h
3154 23-12-2009 07:09:02 0.3 C 4.7 g/m*3 0.3 C 0 km/h
3155 23-12-2009 07:21:02 0.1 C 4.63 g/m*3 0.1 C 0 km/h
3156 23-12-2009 07:33:02 -0.2 C 4.54 g/m*3 -0.2 C 0 km/h
3157 23-12-2009 07:45:02 -0.4 C 4.48 g/m*3 -0.4 C 0 km/h
3158 23-12-2009 07:57:02 -0.6 C 4.42 g/m*3 -0.6 C 0 km/h
3159 23-12-2009 08:09:02 -1 C 4.29 g/m*3 -1 C 0 km/h
3160 23-12-2009 08:21:02 -1.2 C 4.24 g/m*3 -1.2 C 0 km/h
3161 23-12-2009 08:33:02 -1.4 C 4.18 g/m*3 -1.4 C 0 km/h
3162 23-12-2009 08:45:01 -1.4 C 4.18 g/m*3 -1.4 C 0 km/h
3163 23-12-2009 08:57:01 -1.4 C 4.18 g/m*3 -1.4 C 0 km/h
3164 23-12-2009 09:09:01 -1.4 C 4.18 g/m*3 -1.4 C 0 km/h
3165 23-12-2009 09:21:01 -1.2 C 4.24 g/m*3 -1.2 C 0 km/h
3166 23-12-2009 09:33:01 -1 C 4.29 g/m*3 -1 C 0 km/h
3167 23-12-2009 09:45:01 -0.5 C 4.45 g/m*3 -0.5 C 0 km/h
3168 23-12-2009 09:57:01 -0.3 C 4.51 g/m*3 -0.3 C 0 km/h
3169 23-12-2009 10:09:01 0.1 C 4.63 g/m*3 0.1 C 0 km/h
3170 23-12-2009 10:21:02 0.2 C 4.67 g/m*3 0.2 C 0 km/h
3171 23-12-2009 10:33:01 0.2 C 4.67 g/m*3 0.2 C 0 km/h
3172 23-12-2009 10:45:02 0.5 C 4.76 g/m*3 0.5 C 0 km/h
3173 23-12-2009 10:57:02 0.8 C 4.86 g/m*3 0.8 C 0 km/h
3174 23-12-2009 11:09:02 0.8 C 4.81 g/m*3 0.8 C 0 km/h
3175 23-12-2009 11:21:03 0.9 C 4.74 g/m*3 0.9 C 0 km/h
Sensor: Nr:Datum:Temp:Abs-Feuchte:Windchill:Wind:
Aussen-T/F 3176 23-12-2009 11:33:02 0.9 C 4.69 g/m*3 0.9 C 0 km/h
3177 23-12-2009 11:45:02 0.5 C 4.46 g/m*3 0.5 C 0 km/h
3178 23-12-2009 11:57:02 0.4 C 4.43 g/m*3 0.4 C 0 km/h
3179 23-12-2009 12:09:02 0.4 C 4.43 g/m*3 0.4 C 0 km/h
3180 23-12-2009 12:21:02 0.9 C 4.64 g/m*3 0.9 C 0 km/h
3181 23-12-2009 12:33:02 1 C 4.62 g/m*3 1 C 0 km/h
3182 23-12-2009 12:45:02 1 C 4.62 g/m*3 1 C 0 km/h
3183 23-12-2009 12:57:02 1.1 C 4.65 g/m*3 1.1 C 0 km/h
3184 23-12-2009 13:09:01 1.5 C 4.78 g/m*3 1.5 C 0 km/h
3185 23-12-2009 13:21:02 2 C 4.89 g/m*3 2 C 0 km/h
3186 23-12-2009 13:33:02 2.3 C 4.93 g/m*3 2.3 C 0 km/h
3187 23-12-2009 13:45:02 2.5 C 5 g/m*3 2.5 C 0 km/h
3188 23-12-2009 13:57:03 2.4 C 4.97 g/m*3 2.4 C 0 km/h
3189 23-12-2009 14:09:02 1.6 C 4.65 g/m*3 1.6 C 0 km/h
3190 23-12-2009 14:21:02 2 C 4.83 g/m*3 2 C 0 km/h
3191 23-12-2009 14:33:02 2.3 C 4.93 g/m*3 2.3 C 0 km/h
3192 23-12-2009 14:45:02 2.3 C 4.93 g/m*3 2.3 C 0 km/h
3193 23-12-2009 14:57:02 1.8 C 4.77 g/m*3 1.8 C 0 km/h
3194 23-12-2009 15:09:02 1.6 C 4.76 g/m*3 1.6 C 0 km/h
3195 23-12-2009 15:21:01 1.3 C 4.66 g/m*3 1.3 C 0 km/h
3196 23-12-2009 15:33:02 1.2 C 4.63 g/m*3 1.2 C 0 km/h
3197 23-12-2009 15:45:02 1 C 4.62 g/m*3 1 C 0 km/h
3198 23-12-2009 15:57:02 1.1 C 4.65 g/m*3 1.1 C 0 km/h
3199 23-12-2009 16:09:02 0.8 C 4.61 g/m*3 0.8 C 0 km/h
3200 23-12-2009 16:21:02 0.5 C 4.51 g/m*3 0.5 C 0 km/h
Sensor: Nr:Datum:Temp:Abs-Feuchte:Windchill:Wind:
Aussen-T/F 3201 23-12-2009 16:33:02 0.4 C 4.48 g/m*3 0.4 C 0 km/h
3202 23-12-2009 16:45:02 0.2 C 4.47 g/m*3 0.2 C 0 km/h
3203 23-12-2009 16:57:02 0 C 4.41 g/m*3 0 C 0 km/h
3204 23-12-2009 17:09:01 -0.2 C 4.4 g/m*3 -0.2 C 0 km/h
3205 23-12-2009 17:21:02 -0.3 C 4.37 g/m*3 -0.3 C 0 km/h
3206 23-12-2009 17:33:01 -0.3 C 4.41 g/m*3 -0.3 C 0 km/h
3207 23-12-2009 17:45:01 -0.5 C 4.35 g/m*3 -0.5 C 0 km/h
3208 23-12-2009 17:57:01 -0.5 C 4.35 g/m*3 -0.5 C 0 km/h
3209 23-12-2009 18:09:02 -0.5 C 4.35 g/m*3 -0.5 C 0 km/h
3210 23-12-2009 18:21:01 -0.6 C 4.32 g/m*3 -0.6 C 0 km/h
3211 23-12-2009 18:33:02 -0.7 C 4.34 g/m*3 -0.7 C 0 km/h
3212 23-12-2009 18:45:02 -0.7 C 4.34 g/m*3 -0.7 C 0 km/h
3213 23-12-2009 18:57:02 -0.3 C 4.46 g/m*3 -0.3 C 0 km/h
3214 23-12-2009 19:09:02 0 C 4.6 g/m*3 0 C 0 km/h
3215 23-12-2009 19:21:02 0.2 C 4.67 g/m*3 0.2 C 0 km/h
3216 23-12-2009 19:33:02 0.2 C 4.67 g/m*3 0.2 C 0 km/h
3217 23-12-2009 19:45:02 0.3 C 4.7 g/m*3 0.3 C 0 km/h
3218 23-12-2009 19:57:02 0.3 C 4.7 g/m*3 0.3 C 0 km/h
3219 23-12-2009 20:09:02 0.5 C 4.76 g/m*3 0.5 C 0 km/h
3220 23-12-2009 20:21:02 0.6 C 4.8 g/m*3 0.6 C 0 km/h
3221 23-12-2009 20:33:02 0.7 C 4.83 g/m*3 0.7 C 0 km/h
3222 23-12-2009 20:45:01 0.8 C 4.86 g/m*3 0.8 C 0 km/h
3223 23-12-2009 20:57:01 1 C 4.93 g/m*3 1 C 0 km/h
3224 23-12-2009 21:09:01 1 C 4.93 g/m*3 1 C 0 km/h
3225 23-12-2009 21:21:01 1.1 C 4.96 g/m*3 1.1 C 0 km/h
Sensor: Nr:Datum:Temp:Abs-Feuchte:Windchill:Wind:
Aussen-T/F 3226 23-12-2009 21:33:01 1.2 C 5 g/m*3 1.2 C 0 km/h
3227 23-12-2009 21:45:01 1.2 C 5 g/m*3 1.2 C 0 km/h
3228 23-12-2009 21:57:01 1.3 C 5.03 g/m*3 1.3 C 0 km/h
3229 23-12-2009 22:09:01 1.3 C 5.03 g/m*3 1.3 C 0 km/h
3230 23-12-2009 22:21:02 1.3 C 5.03 g/m*3 1.3 C 0 km/h
3231 23-12-2009 22:33:01 1.3 C 5.03 g/m*3 1.3 C 0 km/h
3232 23-12-2009 22:45:02 1.2 C 5 g/m*3 1.2 C 0 km/h
3233 23-12-2009 22:57:02 1.1 C 4.96 g/m*3 1.1 C 0 km/h
3234 23-12-2009 23:09:02 1.1 C 4.96 g/m*3 1.1 C 0 km/h
3235 23-12-2009 23:21:02 1.1 C 4.96 g/m*3 1.1 C 0 km/h
3236 23-12-2009 23:33:02 1.2 C 5 g/m*3 1.2 C 0 km/h
3237 23-12-2009 23:45:02 1.2 C 5 g/m*3 1.2 C 0 km/h
3238 23-12-2009 23:57:02 1.2 C 5 g/m*3 1.2 C 0 km/h
3239 24-12-2009 00:09:01 1.2 C 5 g/m*3 1.2 C 0 km/h
3240 24-12-2009 00:21:02 1.2 C 5 g/m*3 1.2 C 0 km/h
3241 24-12-2009 00:34:03 1.1 C 4.96 g/m*3 1.1 C 0 km/h
3242 24-12-2009 00:46:03 1.2 C 5 g/m*3 1.2 C 0 km/h
3243 24-12-2009 00:58:03 1.2 C 5 g/m*3 1.2 C 0 km/h
3244 24-12-2009 01:10:03 1.1 C 4.91 g/m*3 1.1 C 0 km/h
3245 24-12-2009 01:22:03 1.1 C 4.91 g/m*3